<?xml version="1.0" encoding="UTF-8" standalone="no" ?>
<gpx xmlns="http://www.topografix.com/GPX/1/1" xmlns:xsi="http://www.w3.org/2001/XMLSchema-instance" xsi:schemaLocation="http://www.topografix.com/GPX/1/1 http://www.topografix.com/GPX/1/1/gpx.xsd" version="1.1" creator="VisuGPX - https://www.visugpx.com">
  <metadata>
    <name>Mont Baron (Bernex)</name>
  </metadata>
  <trk>
    <name><![CDATA[Mont Baron (Bernex)_1]]></name>
    <trkseg>
      <trkpt lat="46.35873" lon="6.67634">
        <ele>987.79998779297</ele>
        <time>2021-05-20T09:04:06Z</time>
      </trkpt>
      <trkpt lat="46.35873" lon="6.67634">
        <ele>965.20001220703</ele>
        <time>2021-05-20T09:04:07Z</time>
      </trkpt>
      <trkpt lat="46.35873" lon="6.67634">
        <ele>953.59997558594</ele>
        <time>2021-05-20T09:04:08Z</time>
      </trkpt>
      <trkpt lat="46.35873" lon="6.67634">
        <ele>947.59997558594</ele>
        <time>2021-05-20T09:04:09Z</time>
      </trkpt>
      <trkpt lat="46.35873" lon="6.67634">
        <ele>943.20001220703</ele>
        <time>2021-05-20T09:04:11Z</time>
      </trkpt>
      <trkpt lat="46.35873" lon="6.67634">
        <ele>942.20001220703</ele>
        <time>2021-05-20T09:04:13Z</time>
      </trkpt>
      <trkpt lat="46.35873" lon="6.67633">
        <ele>942</ele>
        <time>2021-05-20T09:04:15Z</time>
      </trkpt>
      <trkpt lat="46.35867" lon="6.67632">
        <ele>941.59997558594</ele>
        <time>2021-05-20T09:04:20Z</time>
      </trkpt>
      <trkpt lat="46.35854" lon="6.67678">
        <ele>942.20001220703</ele>
        <time>2021-05-20T09:04:35Z</time>
      </trkpt>
      <trkpt lat="46.35853" lon="6.67684">
        <ele>942.20001220703</ele>
        <time>2021-05-20T09:04:37Z</time>
      </trkpt>
      <trkpt lat="46.35832" lon="6.67688">
        <ele>942.40002441406</ele>
        <time>2021-05-20T09:04:46Z</time>
      </trkpt>
      <trkpt lat="46.35829" lon="6.67714">
        <ele>942.79998779297</ele>
        <time>2021-05-20T09:04:54Z</time>
      </trkpt>
      <trkpt lat="46.35817" lon="6.67738">
        <ele>943</ele>
        <time>2021-05-20T09:05:03Z</time>
      </trkpt>
      <trkpt lat="46.35811" lon="6.67755">
        <ele>943.20001220703</ele>
        <time>2021-05-20T09:05:09Z</time>
      </trkpt>
      <trkpt lat="46.35798" lon="6.67768">
        <ele>944</ele>
        <time>2021-05-20T09:05:19Z</time>
      </trkpt>
      <trkpt lat="46.35795" lon="6.67786">
        <ele>944</ele>
        <time>2021-05-20T09:05:25Z</time>
      </trkpt>
      <trkpt lat="46.35796" lon="6.67791">
        <ele>944.20001220703</ele>
        <time>2021-05-20T09:05:27Z</time>
      </trkpt>
      <trkpt lat="46.35795" lon="6.6781">
        <ele>944.59997558594</ele>
        <time>2021-05-20T09:05:33Z</time>
      </trkpt>
      <trkpt lat="46.35793" lon="6.67839">
        <ele>945</ele>
        <time>2021-05-20T09:05:42Z</time>
      </trkpt>
      <trkpt lat="46.35792" lon="6.67853">
        <ele>945.20001220703</ele>
        <time>2021-05-20T09:05:47Z</time>
      </trkpt>
      <trkpt lat="46.35791" lon="6.67865">
        <ele>945.79998779297</ele>
        <time>2021-05-20T09:05:52Z</time>
      </trkpt>
      <trkpt lat="46.35792" lon="6.67878">
        <ele>946</ele>
        <time>2021-05-20T09:05:56Z</time>
      </trkpt>
      <trkpt lat="46.3579" lon="6.67913">
        <ele>947</ele>
        <time>2021-05-20T09:06:09Z</time>
      </trkpt>
      <trkpt lat="46.3579" lon="6.67916">
        <ele>947</ele>
        <time>2021-05-20T09:06:10Z</time>
      </trkpt>
      <trkpt lat="46.3578" lon="6.67948">
        <ele>948.20001220703</ele>
        <time>2021-05-20T09:06:22Z</time>
      </trkpt>
      <trkpt lat="46.35782" lon="6.67972">
        <ele>949</ele>
        <time>2021-05-20T09:06:31Z</time>
      </trkpt>
      <trkpt lat="46.35781" lon="6.67984">
        <ele>949.20001220703</ele>
        <time>2021-05-20T09:06:36Z</time>
      </trkpt>
      <trkpt lat="46.35773" lon="6.68013">
        <ele>950</ele>
        <time>2021-05-20T09:06:46Z</time>
      </trkpt>
      <trkpt lat="46.35766" lon="6.68044">
        <ele>951.20001220703</ele>
        <time>2021-05-20T09:06:56Z</time>
      </trkpt>
      <trkpt lat="46.35763" lon="6.6806">
        <ele>951.79998779297</ele>
        <time>2021-05-20T09:07:02Z</time>
      </trkpt>
      <trkpt lat="46.35765" lon="6.68068">
        <ele>952</ele>
        <time>2021-05-20T09:07:05Z</time>
      </trkpt>
      <trkpt lat="46.35768" lon="6.68078">
        <ele>952.20001220703</ele>
        <time>2021-05-20T09:07:09Z</time>
      </trkpt>
      <trkpt lat="46.35771" lon="6.68084">
        <ele>952.40002441406</ele>
        <time>2021-05-20T09:07:12Z</time>
      </trkpt>
      <trkpt lat="46.35777" lon="6.68095">
        <ele>953.20001220703</ele>
        <time>2021-05-20T09:07:17Z</time>
      </trkpt>
      <trkpt lat="46.35787" lon="6.68114">
        <ele>955</ele>
        <time>2021-05-20T09:07:24Z</time>
      </trkpt>
      <trkpt lat="46.35783" lon="6.68143">
        <ele>955.40002441406</ele>
        <time>2021-05-20T09:07:33Z</time>
      </trkpt>
      <trkpt lat="46.3578" lon="6.68169">
        <ele>956.20001220703</ele>
        <time>2021-05-20T09:07:42Z</time>
      </trkpt>
      <trkpt lat="46.3578" lon="6.68176">
        <ele>956.20001220703</ele>
        <time>2021-05-20T09:07:44Z</time>
      </trkpt>
      <trkpt lat="46.35776" lon="6.6823">
        <ele>957.59997558594</ele>
        <time>2021-05-20T09:08:01Z</time>
      </trkpt>
      <trkpt lat="46.35778" lon="6.68276">
        <ele>958.79998779297</ele>
        <time>2021-05-20T09:08:16Z</time>
      </trkpt>
      <trkpt lat="46.3578" lon="6.68318">
        <ele>960.79998779297</ele>
        <time>2021-05-20T09:08:31Z</time>
      </trkpt>
      <trkpt lat="46.35783" lon="6.68338">
        <ele>961.59997558594</ele>
        <time>2021-05-20T09:08:39Z</time>
      </trkpt>
      <trkpt lat="46.35787" lon="6.6836">
        <ele>963.40002441406</ele>
        <time>2021-05-20T09:08:49Z</time>
      </trkpt>
      <trkpt lat="46.35788" lon="6.68373">
        <ele>964.40002441406</ele>
        <time>2021-05-20T09:08:54Z</time>
      </trkpt>
      <trkpt lat="46.3578" lon="6.6842">
        <ele>966.40002441406</ele>
        <time>2021-05-20T09:09:12Z</time>
      </trkpt>
      <trkpt lat="46.35777" lon="6.6843">
        <ele>966.59997558594</ele>
        <time>2021-05-20T09:09:17Z</time>
      </trkpt>
      <trkpt lat="46.35744" lon="6.6843">
        <ele>967</ele>
        <time>2021-05-20T09:09:30Z</time>
      </trkpt>
      <trkpt lat="46.35729" lon="6.68426">
        <ele>967</ele>
        <time>2021-05-20T09:09:35Z</time>
      </trkpt>
      <trkpt lat="46.35722" lon="6.68442">
        <ele>967</ele>
        <time>2021-05-20T09:09:40Z</time>
      </trkpt>
      <trkpt lat="46.35714" lon="6.68485">
        <ele>967.59997558594</ele>
        <time>2021-05-20T09:09:55Z</time>
      </trkpt>
      <trkpt lat="46.35709" lon="6.68498">
        <ele>969.40002441406</ele>
        <time>2021-05-20T09:10:03Z</time>
      </trkpt>
      <trkpt lat="46.35698" lon="6.68522">
        <ele>971</ele>
        <time>2021-05-20T09:10:14Z</time>
      </trkpt>
      <trkpt lat="46.3569" lon="6.68555">
        <ele>973.40002441406</ele>
        <time>2021-05-20T09:10:28Z</time>
      </trkpt>
      <trkpt lat="46.35687" lon="6.68562">
        <ele>973.79998779297</ele>
        <time>2021-05-20T09:10:31Z</time>
      </trkpt>
      <trkpt lat="46.35681" lon="6.68606">
        <ele>976.20001220703</ele>
        <time>2021-05-20T09:10:48Z</time>
      </trkpt>
      <trkpt lat="46.35678" lon="6.68644">
        <ele>978</ele>
        <time>2021-05-20T09:11:02Z</time>
      </trkpt>
      <trkpt lat="46.35674" lon="6.68688">
        <ele>981</ele>
        <time>2021-05-20T09:11:20Z</time>
      </trkpt>
      <trkpt lat="46.35669" lon="6.68702">
        <ele>982</ele>
        <time>2021-05-20T09:11:26Z</time>
      </trkpt>
      <trkpt lat="46.35667" lon="6.6875">
        <ele>985.40002441406</ele>
        <time>2021-05-20T09:11:45Z</time>
      </trkpt>
      <trkpt lat="46.35674" lon="6.68802">
        <ele>988.40002441406</ele>
        <time>2021-05-20T09:12:05Z</time>
      </trkpt>
      <trkpt lat="46.35676" lon="6.68846">
        <ele>989.40002441406</ele>
        <time>2021-05-20T09:12:21Z</time>
      </trkpt>
      <trkpt lat="46.35682" lon="6.68926">
        <ele>992.40002441406</ele>
        <time>2021-05-20T09:12:47Z</time>
      </trkpt>
      <trkpt lat="46.35704" lon="6.68985">
        <ele>994.59997558594</ele>
        <time>2021-05-20T09:13:09Z</time>
      </trkpt>
      <trkpt lat="46.35737" lon="6.6903">
        <ele>997.79998779297</ele>
        <time>2021-05-20T09:13:30Z</time>
      </trkpt>
      <trkpt lat="46.35752" lon="6.69092">
        <ele>1000</ele>
        <time>2021-05-20T09:13:51Z</time>
      </trkpt>
      <trkpt lat="46.35749" lon="6.69173">
        <ele>1002.799987793</ele>
        <time>2021-05-20T09:14:16Z</time>
      </trkpt>
      <trkpt lat="46.35727" lon="6.69225">
        <ele>1004.200012207</ele>
        <time>2021-05-20T09:14:31Z</time>
      </trkpt>
      <trkpt lat="46.35698" lon="6.69264">
        <ele>1004.200012207</ele>
        <time>2021-05-20T09:14:42Z</time>
      </trkpt>
      <trkpt lat="46.35678" lon="6.69302">
        <ele>1003.5999755859</ele>
        <time>2021-05-20T09:14:50Z</time>
      </trkpt>
      <trkpt lat="46.35668" lon="6.69347">
        <ele>1004.200012207</ele>
        <time>2021-05-20T09:15:02Z</time>
      </trkpt>
      <trkpt lat="46.35666" lon="6.69363">
        <ele>1005.200012207</ele>
        <time>2021-05-20T09:15:08Z</time>
      </trkpt>
      <trkpt lat="46.35668" lon="6.6937">
        <ele>1005.5999755859</ele>
        <time>2021-05-20T09:15:11Z</time>
      </trkpt>
      <trkpt lat="46.35669" lon="6.69417">
        <ele>1007.5999755859</ele>
        <time>2021-05-20T09:15:25Z</time>
      </trkpt>
      <trkpt lat="46.35669" lon="6.69419">
        <ele>1007.799987793</ele>
        <time>2021-05-20T09:15:26Z</time>
      </trkpt>
      <trkpt lat="46.35672" lon="6.69444">
        <ele>1008.5999755859</ele>
        <time>2021-05-20T09:15:34Z</time>
      </trkpt>
      <trkpt lat="46.35669" lon="6.69454">
        <ele>1009.200012207</ele>
        <time>2021-05-20T09:15:38Z</time>
      </trkpt>
      <trkpt lat="46.3567" lon="6.69473">
        <ele>1009.5999755859</ele>
        <time>2021-05-20T09:15:43Z</time>
      </trkpt>
      <trkpt lat="46.35671" lon="6.69486">
        <ele>1009.799987793</ele>
        <time>2021-05-20T09:15:46Z</time>
      </trkpt>
      <trkpt lat="46.35676" lon="6.69518">
        <ele>1010.5999755859</ele>
        <time>2021-05-20T09:15:57Z</time>
      </trkpt>
      <trkpt lat="46.3568" lon="6.69532">
        <ele>1011.200012207</ele>
        <time>2021-05-20T09:16:01Z</time>
      </trkpt>
      <trkpt lat="46.35684" lon="6.69539">
        <ele>1011.5999755859</ele>
        <time>2021-05-20T09:16:04Z</time>
      </trkpt>
      <trkpt lat="46.35685" lon="6.69549">
        <ele>1012</ele>
        <time>2021-05-20T09:16:07Z</time>
      </trkpt>
      <trkpt lat="46.35676" lon="6.69592">
        <ele>1015</ele>
        <time>2021-05-20T09:16:21Z</time>
      </trkpt>
      <trkpt lat="46.35674" lon="6.69608">
        <ele>1016.200012207</ele>
        <time>2021-05-20T09:16:28Z</time>
      </trkpt>
      <trkpt lat="46.35672" lon="6.69638">
        <ele>1018.5999755859</ele>
        <time>2021-05-20T09:16:42Z</time>
      </trkpt>
      <trkpt lat="46.35671" lon="6.69648">
        <ele>1019.4000244141</ele>
        <time>2021-05-20T09:16:47Z</time>
      </trkpt>
      <trkpt lat="46.3567" lon="6.69675">
        <ele>1020.799987793</ele>
        <time>2021-05-20T09:16:58Z</time>
      </trkpt>
      <trkpt lat="46.35666" lon="6.69697">
        <ele>1022.4000244141</ele>
        <time>2021-05-20T09:17:06Z</time>
      </trkpt>
      <trkpt lat="46.35666" lon="6.69706">
        <ele>1023.200012207</ele>
        <time>2021-05-20T09:17:12Z</time>
      </trkpt>
      <trkpt lat="46.35663" lon="6.69716">
        <ele>1025.1999511719</ele>
        <time>2021-05-20T09:17:22Z</time>
      </trkpt>
      <trkpt lat="46.35641" lon="6.69748">
        <ele>1028.4000244141</ele>
        <time>2021-05-20T09:17:39Z</time>
      </trkpt>
      <trkpt lat="46.3564" lon="6.69752">
        <ele>1028.5999755859</ele>
        <time>2021-05-20T09:17:40Z</time>
      </trkpt>
      <trkpt lat="46.35632" lon="6.69784">
        <ele>1029.4000244141</ele>
        <time>2021-05-20T09:17:55Z</time>
      </trkpt>
      <trkpt lat="46.35637" lon="6.69814">
        <ele>1031.8000488281</ele>
        <time>2021-05-20T09:18:08Z</time>
      </trkpt>
      <trkpt lat="46.3564" lon="6.69834">
        <ele>1033.8000488281</ele>
        <time>2021-05-20T09:18:22Z</time>
      </trkpt>
      <trkpt lat="46.35635" lon="6.69842">
        <ele>1034.8000488281</ele>
        <time>2021-05-20T09:18:29Z</time>
      </trkpt>
      <trkpt lat="46.3563" lon="6.69852">
        <ele>1035.5999755859</ele>
        <time>2021-05-20T09:18:34Z</time>
      </trkpt>
      <trkpt lat="46.35625" lon="6.69865">
        <ele>1037.5999755859</ele>
        <time>2021-05-20T09:18:43Z</time>
      </trkpt>
      <trkpt lat="46.35619" lon="6.69884">
        <ele>1039.5999755859</ele>
        <time>2021-05-20T09:18:56Z</time>
      </trkpt>
      <trkpt lat="46.35621" lon="6.69889">
        <ele>1039.8000488281</ele>
        <time>2021-05-20T09:18:59Z</time>
      </trkpt>
      <trkpt lat="46.35612" lon="6.69912">
        <ele>1042.4000244141</ele>
        <time>2021-05-20T09:19:15Z</time>
      </trkpt>
      <trkpt lat="46.35609" lon="6.6992">
        <ele>1043.5999755859</ele>
        <time>2021-05-20T09:19:22Z</time>
      </trkpt>
      <trkpt lat="46.35606" lon="6.69927">
        <ele>1044.1999511719</ele>
        <time>2021-05-20T09:19:25Z</time>
      </trkpt>
      <trkpt lat="46.35597" lon="6.6994">
        <ele>1047</ele>
        <time>2021-05-20T09:19:37Z</time>
      </trkpt>
      <trkpt lat="46.35598" lon="6.69946">
        <ele>1048</ele>
        <time>2021-05-20T09:19:41Z</time>
      </trkpt>
      <trkpt lat="46.35591" lon="6.69964">
        <ele>1051.1999511719</ele>
        <time>2021-05-20T09:19:55Z</time>
      </trkpt>
      <trkpt lat="46.35568" lon="6.69976">
        <ele>1053.1999511719</ele>
        <time>2021-05-20T09:20:05Z</time>
      </trkpt>
      <trkpt lat="46.35571" lon="6.69983">
        <ele>1054.4000244141</ele>
        <time>2021-05-20T09:20:11Z</time>
      </trkpt>
      <trkpt lat="46.35571" lon="6.6999">
        <ele>1057.1999511719</ele>
        <time>2021-05-20T09:20:26Z</time>
      </trkpt>
      <trkpt lat="46.35565" lon="6.6999">
        <ele>1058.4000244141</ele>
        <time>2021-05-20T09:20:33Z</time>
      </trkpt>
      <trkpt lat="46.35562" lon="6.69992">
        <ele>1059.4000244141</ele>
        <time>2021-05-20T09:20:38Z</time>
      </trkpt>
      <trkpt lat="46.3555" lon="6.69998">
        <ele>1061.8000488281</ele>
        <time>2021-05-20T09:20:51Z</time>
      </trkpt>
      <trkpt lat="46.35544" lon="6.70001">
        <ele>1063.4000244141</ele>
        <time>2021-05-20T09:21:01Z</time>
      </trkpt>
      <trkpt lat="46.35544" lon="6.70002">
        <ele>1064</ele>
        <time>2021-05-20T09:21:03Z</time>
      </trkpt>
      <trkpt lat="46.3554" lon="6.70014">
        <ele>1066.1999511719</ele>
        <time>2021-05-20T09:21:14Z</time>
      </trkpt>
      <trkpt lat="46.35532" lon="6.70022">
        <ele>1066.4000244141</ele>
        <time>2021-05-20T09:21:24Z</time>
      </trkpt>
      <trkpt lat="46.35545" lon="6.70016">
        <ele>1067.1999511719</ele>
        <time>2021-05-20T09:21:46Z</time>
      </trkpt>
      <trkpt lat="46.35541" lon="6.70015">
        <ele>1067.4000244141</ele>
        <time>2021-05-20T09:22:05Z</time>
      </trkpt>
      <trkpt lat="46.35552" lon="6.70015">
        <ele>1068.4000244141</ele>
        <time>2021-05-20T09:22:27Z</time>
      </trkpt>
      <trkpt lat="46.35548" lon="6.70013">
        <ele>1068.5999755859</ele>
        <time>2021-05-20T09:22:34Z</time>
      </trkpt>
      <trkpt lat="46.35547" lon="6.70011">
        <ele>1069</ele>
        <time>2021-05-20T09:22:50Z</time>
      </trkpt>
      <trkpt lat="46.35551" lon="6.70011">
        <ele>1069.4000244141</ele>
        <time>2021-05-20T09:22:54Z</time>
      </trkpt>
      <trkpt lat="46.35557" lon="6.70009">
        <ele>1069.5999755859</ele>
        <time>2021-05-20T09:23:04Z</time>
      </trkpt>
      <trkpt lat="46.35563" lon="6.70011">
        <ele>1070.4000244141</ele>
        <time>2021-05-20T09:23:17Z</time>
      </trkpt>
      <trkpt lat="46.3553" lon="6.70004">
        <ele>1070.8000488281</ele>
        <time>2021-05-20T09:23:32Z</time>
      </trkpt>
      <trkpt lat="46.35528" lon="6.70014">
        <ele>1071.4000244141</ele>
        <time>2021-05-20T09:23:54Z</time>
      </trkpt>
      <trkpt lat="46.35508" lon="6.70025">
        <ele>1072.1999511719</ele>
        <time>2021-05-20T09:24:16Z</time>
      </trkpt>
      <trkpt lat="46.35521" lon="6.70024">
        <ele>1072.5999755859</ele>
        <time>2021-05-20T09:24:24Z</time>
      </trkpt>
      <trkpt lat="46.35526" lon="6.70028">
        <ele>1072.8000488281</ele>
        <time>2021-05-20T09:24:33Z</time>
      </trkpt>
      <trkpt lat="46.35526" lon="6.7002">
        <ele>1073.1999511719</ele>
        <time>2021-05-20T09:24:41Z</time>
      </trkpt>
      <trkpt lat="46.35522" lon="6.7002">
        <ele>1073.1999511719</ele>
        <time>2021-05-20T09:24:43Z</time>
      </trkpt>
      <trkpt lat="46.35495" lon="6.70027">
        <ele>1074.5999755859</ele>
        <time>2021-05-20T09:25:04Z</time>
      </trkpt>
      <trkpt lat="46.35483" lon="6.70034">
        <ele>1077.8000488281</ele>
        <time>2021-05-20T09:25:15Z</time>
      </trkpt>
      <trkpt lat="46.3548" lon="6.70036">
        <ele>1078.4000244141</ele>
        <time>2021-05-20T09:25:18Z</time>
      </trkpt>
      <trkpt lat="46.35468" lon="6.70045">
        <ele>1081.4000244141</ele>
        <time>2021-05-20T09:25:42Z</time>
      </trkpt>
      <trkpt lat="46.35468" lon="6.70051">
        <ele>1082.5999755859</ele>
        <time>2021-05-20T09:25:49Z</time>
      </trkpt>
      <trkpt lat="46.35453" lon="6.70054">
        <ele>1085.5999755859</ele>
        <time>2021-05-20T09:26:06Z</time>
      </trkpt>
      <trkpt lat="46.35448" lon="6.70059">
        <ele>1088.5999755859</ele>
        <time>2021-05-20T09:26:19Z</time>
      </trkpt>
      <trkpt lat="46.35441" lon="6.7008">
        <ele>1090</ele>
        <time>2021-05-20T09:26:38Z</time>
      </trkpt>
      <trkpt lat="46.35432" lon="6.70087">
        <ele>1090.8000488281</ele>
        <time>2021-05-20T09:26:45Z</time>
      </trkpt>
      <trkpt lat="46.35418" lon="6.70117">
        <ele>1091.1999511719</ele>
        <time>2021-05-20T09:27:02Z</time>
      </trkpt>
      <trkpt lat="46.35397" lon="6.70148">
        <ele>1090</ele>
        <time>2021-05-20T09:27:21Z</time>
      </trkpt>
      <trkpt lat="46.354" lon="6.70156">
        <ele>1090.4000244141</ele>
        <time>2021-05-20T09:27:33Z</time>
      </trkpt>
      <trkpt lat="46.35401" lon="6.70157">
        <ele>1090.5999755859</ele>
        <time>2021-05-20T09:27:38Z</time>
      </trkpt>
      <trkpt lat="46.354" lon="6.70167">
        <ele>1090.5999755859</ele>
        <time>2021-05-20T09:27:43Z</time>
      </trkpt>
      <trkpt lat="46.35381" lon="6.70174">
        <ele>1091</ele>
        <time>2021-05-20T09:27:54Z</time>
      </trkpt>
      <trkpt lat="46.35371" lon="6.70177">
        <ele>1092.1999511719</ele>
        <time>2021-05-20T09:28:01Z</time>
      </trkpt>
      <trkpt lat="46.35362" lon="6.7018">
        <ele>1093.8000488281</ele>
        <time>2021-05-20T09:28:10Z</time>
      </trkpt>
      <trkpt lat="46.35353" lon="6.70185">
        <ele>1095</ele>
        <time>2021-05-20T09:28:15Z</time>
      </trkpt>
      <trkpt lat="46.35343" lon="6.7019">
        <ele>1097</ele>
        <time>2021-05-20T09:28:25Z</time>
      </trkpt>
      <trkpt lat="46.35342" lon="6.7019">
        <ele>1097.1999511719</ele>
        <time>2021-05-20T09:28:26Z</time>
      </trkpt>
      <trkpt lat="46.35323" lon="6.70196">
        <ele>1100</ele>
        <time>2021-05-20T09:28:43Z</time>
      </trkpt>
      <trkpt lat="46.35316" lon="6.70204">
        <ele>1100.4000244141</ele>
        <time>2021-05-20T09:28:46Z</time>
      </trkpt>
      <trkpt lat="46.35297" lon="6.70216">
        <ele>1103.1999511719</ele>
        <time>2021-05-20T09:29:04Z</time>
      </trkpt>
      <trkpt lat="46.3529" lon="6.7022">
        <ele>1105.1999511719</ele>
        <time>2021-05-20T09:29:16Z</time>
      </trkpt>
      <trkpt lat="46.35269" lon="6.70261">
        <ele>1108</ele>
        <time>2021-05-20T09:29:41Z</time>
      </trkpt>
      <trkpt lat="46.35256" lon="6.70299">
        <ele>1109.8000488281</ele>
        <time>2021-05-20T09:29:55Z</time>
      </trkpt>
      <trkpt lat="46.35253" lon="6.70324">
        <ele>1111.5999755859</ele>
        <time>2021-05-20T09:30:09Z</time>
      </trkpt>
      <trkpt lat="46.35248" lon="6.70343">
        <ele>1113.1999511719</ele>
        <time>2021-05-20T09:30:21Z</time>
      </trkpt>
      <trkpt lat="46.35241" lon="6.70367">
        <ele>1115.1999511719</ele>
        <time>2021-05-20T09:30:36Z</time>
      </trkpt>
      <trkpt lat="46.35234" lon="6.704">
        <ele>1117.5999755859</ele>
        <time>2021-05-20T09:30:55Z</time>
      </trkpt>
      <trkpt lat="46.35226" lon="6.70424">
        <ele>1119.8000488281</ele>
        <time>2021-05-20T09:31:11Z</time>
      </trkpt>
      <trkpt lat="46.35214" lon="6.70459">
        <ele>1122.8000488281</ele>
        <time>2021-05-20T09:31:33Z</time>
      </trkpt>
      <trkpt lat="46.35202" lon="6.70487">
        <ele>1125.1999511719</ele>
        <time>2021-05-20T09:31:51Z</time>
      </trkpt>
      <trkpt lat="46.35188" lon="6.70514">
        <ele>1127.1999511719</ele>
        <time>2021-05-20T09:32:09Z</time>
      </trkpt>
      <trkpt lat="46.35181" lon="6.70525">
        <ele>1128.1999511719</ele>
        <time>2021-05-20T09:32:18Z</time>
      </trkpt>
      <trkpt lat="46.35172" lon="6.70536">
        <ele>1129.4000244141</ele>
        <time>2021-05-20T09:32:28Z</time>
      </trkpt>
      <trkpt lat="46.3517" lon="6.70537">
        <ele>1129.5999755859</ele>
        <time>2021-05-20T09:32:30Z</time>
      </trkpt>
      <trkpt lat="46.35159" lon="6.70556">
        <ele>1131.4000244141</ele>
        <time>2021-05-20T09:32:46Z</time>
      </trkpt>
      <trkpt lat="46.35148" lon="6.70569">
        <ele>1132.8000488281</ele>
        <time>2021-05-20T09:32:58Z</time>
      </trkpt>
      <trkpt lat="46.35138" lon="6.70579">
        <ele>1134.4000244141</ele>
        <time>2021-05-20T09:33:08Z</time>
      </trkpt>
      <trkpt lat="46.35127" lon="6.70592">
        <ele>1136</ele>
        <time>2021-05-20T09:33:22Z</time>
      </trkpt>
      <trkpt lat="46.35119" lon="6.70604">
        <ele>1138</ele>
        <time>2021-05-20T09:33:35Z</time>
      </trkpt>
      <trkpt lat="46.3511" lon="6.70616">
        <ele>1140</ele>
        <time>2021-05-20T09:33:48Z</time>
      </trkpt>
      <trkpt lat="46.35097" lon="6.70635">
        <ele>1143.1999511719</ele>
        <time>2021-05-20T09:34:06Z</time>
      </trkpt>
      <trkpt lat="46.35087" lon="6.70658">
        <ele>1145.8000488281</ele>
        <time>2021-05-20T09:34:22Z</time>
      </trkpt>
      <trkpt lat="46.35088" lon="6.70668">
        <ele>1147</ele>
        <time>2021-05-20T09:34:28Z</time>
      </trkpt>
      <trkpt lat="46.35087" lon="6.70674">
        <ele>1147.5999755859</ele>
        <time>2021-05-20T09:34:32Z</time>
      </trkpt>
      <trkpt lat="46.35087" lon="6.70694">
        <ele>1149.8000488281</ele>
        <time>2021-05-20T09:34:44Z</time>
      </trkpt>
      <trkpt lat="46.35083" lon="6.70718">
        <ele>1153</ele>
        <time>2021-05-20T09:35:00Z</time>
      </trkpt>
      <trkpt lat="46.35075" lon="6.7073">
        <ele>1155.4000244141</ele>
        <time>2021-05-20T09:35:10Z</time>
      </trkpt>
      <trkpt lat="46.35068" lon="6.70734">
        <ele>1157</ele>
        <time>2021-05-20T09:35:19Z</time>
      </trkpt>
      <trkpt lat="46.35059" lon="6.70733">
        <ele>1158.5999755859</ele>
        <time>2021-05-20T09:35:29Z</time>
      </trkpt>
      <trkpt lat="46.35042" lon="6.70728">
        <ele>1161.8000488281</ele>
        <time>2021-05-20T09:35:46Z</time>
      </trkpt>
      <trkpt lat="46.3502" lon="6.70727">
        <ele>1164.8000488281</ele>
        <time>2021-05-20T09:36:02Z</time>
      </trkpt>
      <trkpt lat="46.35" lon="6.7073">
        <ele>1168</ele>
        <time>2021-05-20T09:36:19Z</time>
      </trkpt>
      <trkpt lat="46.34996" lon="6.70729">
        <ele>1169.1999511719</ele>
        <time>2021-05-20T09:36:24Z</time>
      </trkpt>
      <trkpt lat="46.34993" lon="6.7073">
        <ele>1170.5999755859</ele>
        <time>2021-05-20T09:36:31Z</time>
      </trkpt>
      <trkpt lat="46.34986" lon="6.70732">
        <ele>1172.4000244141</ele>
        <time>2021-05-20T09:36:41Z</time>
      </trkpt>
      <trkpt lat="46.34972" lon="6.70739">
        <ele>1175.1999511719</ele>
        <time>2021-05-20T09:36:54Z</time>
      </trkpt>
      <trkpt lat="46.34963" lon="6.70744">
        <ele>1178</ele>
        <time>2021-05-20T09:37:09Z</time>
      </trkpt>
      <trkpt lat="46.34957" lon="6.70746">
        <ele>1181</ele>
        <time>2021-05-20T09:37:20Z</time>
      </trkpt>
      <trkpt lat="46.34942" lon="6.70745">
        <ele>1183.8000488281</ele>
        <time>2021-05-20T09:37:33Z</time>
      </trkpt>
      <trkpt lat="46.34933" lon="6.70746">
        <ele>1186.1999511719</ele>
        <time>2021-05-20T09:37:42Z</time>
      </trkpt>
      <trkpt lat="46.34921" lon="6.70747">
        <ele>1188.5999755859</ele>
        <time>2021-05-20T09:37:53Z</time>
      </trkpt>
      <trkpt lat="46.34905" lon="6.70753">
        <ele>1191.8000488281</ele>
        <time>2021-05-20T09:38:07Z</time>
      </trkpt>
      <trkpt lat="46.34895" lon="6.70763">
        <ele>1194</ele>
        <time>2021-05-20T09:38:18Z</time>
      </trkpt>
      <trkpt lat="46.34885" lon="6.70773">
        <ele>1196.8000488281</ele>
        <time>2021-05-20T09:38:31Z</time>
      </trkpt>
      <trkpt lat="46.34876" lon="6.70781">
        <ele>1200</ele>
        <time>2021-05-20T09:38:47Z</time>
      </trkpt>
      <trkpt lat="46.34861" lon="6.70784">
        <ele>1203</ele>
        <time>2021-05-20T09:39:01Z</time>
      </trkpt>
      <trkpt lat="46.34848" lon="6.70785">
        <ele>1205.4000244141</ele>
        <time>2021-05-20T09:39:12Z</time>
      </trkpt>
      <trkpt lat="46.34845" lon="6.70786">
        <ele>1205.8000488281</ele>
        <time>2021-05-20T09:39:14Z</time>
      </trkpt>
      <trkpt lat="46.34843" lon="6.70786">
        <ele>1206.1999511719</ele>
        <time>2021-05-20T09:39:16Z</time>
      </trkpt>
      <trkpt lat="46.34841" lon="6.70785">
        <ele>1206.5999755859</ele>
        <time>2021-05-20T09:39:18Z</time>
      </trkpt>
      <trkpt lat="46.34826" lon="6.70784">
        <ele>1210.4000244141</ele>
        <time>2021-05-20T09:39:34Z</time>
      </trkpt>
      <trkpt lat="46.34815" lon="6.70785">
        <ele>1213.4000244141</ele>
        <time>2021-05-20T09:39:46Z</time>
      </trkpt>
      <trkpt lat="46.34803" lon="6.70788">
        <ele>1216.4000244141</ele>
        <time>2021-05-20T09:39:58Z</time>
      </trkpt>
      <trkpt lat="46.34793" lon="6.70791">
        <ele>1219.5999755859</ele>
        <time>2021-05-20T09:40:09Z</time>
      </trkpt>
      <trkpt lat="46.34788" lon="6.70794">
        <ele>1221.1999511719</ele>
        <time>2021-05-20T09:40:16Z</time>
      </trkpt>
      <trkpt lat="46.3478" lon="6.70797">
        <ele>1224.4000244141</ele>
        <time>2021-05-20T09:40:28Z</time>
      </trkpt>
      <trkpt lat="46.34767" lon="6.708">
        <ele>1227.5999755859</ele>
        <time>2021-05-20T09:40:41Z</time>
      </trkpt>
      <trkpt lat="46.34752" lon="6.70806">
        <ele>1230.5999755859</ele>
        <time>2021-05-20T09:40:54Z</time>
      </trkpt>
      <trkpt lat="46.3475" lon="6.70808">
        <ele>1233.5999755859</ele>
        <time>2021-05-20T09:41:06Z</time>
      </trkpt>
      <trkpt lat="46.34745" lon="6.70817">
        <ele>1236.5999755859</ele>
        <time>2021-05-20T09:41:22Z</time>
      </trkpt>
      <trkpt lat="46.34736" lon="6.70825">
        <ele>1239.8000488281</ele>
        <time>2021-05-20T09:41:34Z</time>
      </trkpt>
      <trkpt lat="46.34732" lon="6.70827">
        <ele>1240.5999755859</ele>
        <time>2021-05-20T09:41:38Z</time>
      </trkpt>
      <trkpt lat="46.34726" lon="6.70832">
        <ele>1242.1999511719</ele>
        <time>2021-05-20T09:41:44Z</time>
      </trkpt>
      <trkpt lat="46.3471" lon="6.7084">
        <ele>1245.5999755859</ele>
        <time>2021-05-20T09:41:57Z</time>
      </trkpt>
      <trkpt lat="46.34701" lon="6.7084">
        <ele>1246.1999511719</ele>
        <time>2021-05-20T09:42:00Z</time>
      </trkpt>
      <trkpt lat="46.34705" lon="6.70845">
        <ele>1248.1999511719</ele>
        <time>2021-05-20T09:42:08Z</time>
      </trkpt>
      <trkpt lat="46.34692" lon="6.70844">
        <ele>1250.4000244141</ele>
        <time>2021-05-20T09:42:16Z</time>
      </trkpt>
      <trkpt lat="46.34682" lon="6.70842">
        <ele>1251.5999755859</ele>
        <time>2021-05-20T09:42:28Z</time>
      </trkpt>
      <trkpt lat="46.34684" lon="6.70812">
        <ele>1254.4000244141</ele>
        <time>2021-05-20T09:42:45Z</time>
      </trkpt>
      <trkpt lat="46.34683" lon="6.70808">
        <ele>1255</ele>
        <time>2021-05-20T09:42:48Z</time>
      </trkpt>
      <trkpt lat="46.34683" lon="6.70803">
        <ele>1255.5999755859</ele>
        <time>2021-05-20T09:42:51Z</time>
      </trkpt>
      <trkpt lat="46.34676" lon="6.70786">
        <ele>1257.8000488281</ele>
        <time>2021-05-20T09:43:03Z</time>
      </trkpt>
      <trkpt lat="46.34672" lon="6.7078">
        <ele>1258.8000488281</ele>
        <time>2021-05-20T09:43:07Z</time>
      </trkpt>
      <trkpt lat="46.34667" lon="6.7077">
        <ele>1259.8000488281</ele>
        <time>2021-05-20T09:43:13Z</time>
      </trkpt>
      <trkpt lat="46.34665" lon="6.70753">
        <ele>1261.4000244141</ele>
        <time>2021-05-20T09:43:23Z</time>
      </trkpt>
      <trkpt lat="46.34646" lon="6.70728">
        <ele>1264.8000488281</ele>
        <time>2021-05-20T09:43:39Z</time>
      </trkpt>
      <trkpt lat="46.34634" lon="6.70701">
        <ele>1268</ele>
        <time>2021-05-20T09:43:55Z</time>
      </trkpt>
      <trkpt lat="46.34627" lon="6.70667">
        <ele>1270</ele>
        <time>2021-05-20T09:44:13Z</time>
      </trkpt>
      <trkpt lat="46.3462" lon="6.70631">
        <ele>1271.5999755859</ele>
        <time>2021-05-20T09:44:31Z</time>
      </trkpt>
      <trkpt lat="46.34627" lon="6.706">
        <ele>1273.5999755859</ele>
        <time>2021-05-20T09:44:47Z</time>
      </trkpt>
      <trkpt lat="46.3464" lon="6.70588">
        <ele>1275.1999511719</ele>
        <time>2021-05-20T09:45:01Z</time>
      </trkpt>
      <trkpt lat="46.3464" lon="6.70587">
        <ele>1275.4000244141</ele>
        <time>2021-05-20T09:45:02Z</time>
      </trkpt>
      <trkpt lat="46.34647" lon="6.70578">
        <ele>1276.5999755859</ele>
        <time>2021-05-20T09:45:12Z</time>
      </trkpt>
      <trkpt lat="46.34662" lon="6.70551">
        <ele>1278.8000488281</ele>
        <time>2021-05-20T09:45:34Z</time>
      </trkpt>
      <trkpt lat="46.34675" lon="6.70536">
        <ele>1279.8000488281</ele>
        <time>2021-05-20T09:45:45Z</time>
      </trkpt>
      <trkpt lat="46.34677" lon="6.70532">
        <ele>1280</ele>
        <time>2021-05-20T09:45:48Z</time>
      </trkpt>
      <trkpt lat="46.34681" lon="6.70514">
        <ele>1280.8000488281</ele>
        <time>2021-05-20T09:45:58Z</time>
      </trkpt>
      <trkpt lat="46.34691" lon="6.70494">
        <ele>1281.5999755859</ele>
        <time>2021-05-20T09:46:12Z</time>
      </trkpt>
      <trkpt lat="46.34694" lon="6.70488">
        <ele>1282</ele>
        <time>2021-05-20T09:46:15Z</time>
      </trkpt>
      <trkpt lat="46.34709" lon="6.70467">
        <ele>1283.8000488281</ele>
        <time>2021-05-20T09:46:31Z</time>
      </trkpt>
      <trkpt lat="46.34723" lon="6.70449">
        <ele>1285</ele>
        <time>2021-05-20T09:46:43Z</time>
      </trkpt>
      <trkpt lat="46.34737" lon="6.70425">
        <ele>1287</ele>
        <time>2021-05-20T09:46:58Z</time>
      </trkpt>
      <trkpt lat="46.34747" lon="6.70402">
        <ele>1288.8000488281</ele>
        <time>2021-05-20T09:47:13Z</time>
      </trkpt>
      <trkpt lat="46.34759" lon="6.7038">
        <ele>1290.5999755859</ele>
        <time>2021-05-20T09:47:28Z</time>
      </trkpt>
      <trkpt lat="46.3476" lon="6.70371">
        <ele>1291.5999755859</ele>
        <time>2021-05-20T09:47:34Z</time>
      </trkpt>
      <trkpt lat="46.34759" lon="6.70347">
        <ele>1293.8000488281</ele>
        <time>2021-05-20T09:47:48Z</time>
      </trkpt>
      <trkpt lat="46.34754" lon="6.70341">
        <ele>1294.5999755859</ele>
        <time>2021-05-20T09:47:52Z</time>
      </trkpt>
      <trkpt lat="46.34748" lon="6.70317">
        <ele>1296.8000488281</ele>
        <time>2021-05-20T09:48:08Z</time>
      </trkpt>
      <trkpt lat="46.34747" lon="6.70313">
        <ele>1297.1999511719</ele>
        <time>2021-05-20T09:48:11Z</time>
      </trkpt>
      <trkpt lat="46.34745" lon="6.70303">
        <ele>1298.1999511719</ele>
        <time>2021-05-20T09:48:18Z</time>
      </trkpt>
      <trkpt lat="46.34743" lon="6.70283">
        <ele>1299.8000488281</ele>
        <time>2021-05-20T09:48:32Z</time>
      </trkpt>
      <trkpt lat="46.3474" lon="6.70271">
        <ele>1300.8000488281</ele>
        <time>2021-05-20T09:48:40Z</time>
      </trkpt>
      <trkpt lat="46.34737" lon="6.70264">
        <ele>1301.5999755859</ele>
        <time>2021-05-20T09:48:45Z</time>
      </trkpt>
      <trkpt lat="46.34734" lon="6.70257">
        <ele>1302</ele>
        <time>2021-05-20T09:48:49Z</time>
      </trkpt>
      <trkpt lat="46.34731" lon="6.70249">
        <ele>1302.8000488281</ele>
        <time>2021-05-20T09:48:55Z</time>
      </trkpt>
      <trkpt lat="46.34729" lon="6.70239">
        <ele>1303.5999755859</ele>
        <time>2021-05-20T09:49:01Z</time>
      </trkpt>
      <trkpt lat="46.34731" lon="6.70226">
        <ele>1305</ele>
        <time>2021-05-20T09:49:09Z</time>
      </trkpt>
      <trkpt lat="46.34734" lon="6.70214">
        <ele>1306.1999511719</ele>
        <time>2021-05-20T09:49:17Z</time>
      </trkpt>
      <trkpt lat="46.34736" lon="6.70199">
        <ele>1307.5999755859</ele>
        <time>2021-05-20T09:49:26Z</time>
      </trkpt>
      <trkpt lat="46.34731" lon="6.70174">
        <ele>1309.5999755859</ele>
        <time>2021-05-20T09:49:42Z</time>
      </trkpt>
      <trkpt lat="46.34729" lon="6.70171">
        <ele>1310</ele>
        <time>2021-05-20T09:49:44Z</time>
      </trkpt>
      <trkpt lat="46.34728" lon="6.7014">
        <ele>1312.8000488281</ele>
        <time>2021-05-20T09:50:03Z</time>
      </trkpt>
      <trkpt lat="46.3473" lon="6.70135">
        <ele>1313.1999511719</ele>
        <time>2021-05-20T09:50:06Z</time>
      </trkpt>
      <trkpt lat="46.34732" lon="6.70116">
        <ele>1315</ele>
        <time>2021-05-20T09:50:17Z</time>
      </trkpt>
      <trkpt lat="46.34734" lon="6.70108">
        <ele>1315.8000488281</ele>
        <time>2021-05-20T09:50:22Z</time>
      </trkpt>
      <trkpt lat="46.34743" lon="6.70085">
        <ele>1317.5999755859</ele>
        <time>2021-05-20T09:50:37Z</time>
      </trkpt>
      <trkpt lat="46.34751" lon="6.70069">
        <ele>1319.4000244141</ele>
        <time>2021-05-20T09:50:49Z</time>
      </trkpt>
      <trkpt lat="46.3477" lon="6.70054">
        <ele>1321.5999755859</ele>
        <time>2021-05-20T09:51:06Z</time>
      </trkpt>
      <trkpt lat="46.34783" lon="6.70052">
        <ele>1323.8000488281</ele>
        <time>2021-05-20T09:51:21Z</time>
      </trkpt>
      <trkpt lat="46.34788" lon="6.7005">
        <ele>1325.8000488281</ele>
        <time>2021-05-20T09:51:39Z</time>
      </trkpt>
      <trkpt lat="46.3479" lon="6.70049">
        <ele>1325.8000488281</ele>
        <time>2021-05-20T09:51:40Z</time>
      </trkpt>
      <trkpt lat="46.34802" lon="6.70041">
        <ele>1327.1999511719</ele>
        <time>2021-05-20T09:51:50Z</time>
      </trkpt>
      <trkpt lat="46.34833" lon="6.70027">
        <ele>1330</ele>
        <time>2021-05-20T09:52:09Z</time>
      </trkpt>
      <trkpt lat="46.34845" lon="6.70017">
        <ele>1332.5999755859</ele>
        <time>2021-05-20T09:52:25Z</time>
      </trkpt>
      <trkpt lat="46.34849" lon="6.69993">
        <ele>1335.8000488281</ele>
        <time>2021-05-20T09:52:41Z</time>
      </trkpt>
      <trkpt lat="46.34842" lon="6.69969">
        <ele>1338.5999755859</ele>
        <time>2021-05-20T09:52:57Z</time>
      </trkpt>
      <trkpt lat="46.34841" lon="6.69965">
        <ele>1339</ele>
        <time>2021-05-20T09:52:59Z</time>
      </trkpt>
      <trkpt lat="46.34841" lon="6.69957">
        <ele>1339.5999755859</ele>
        <time>2021-05-20T09:53:04Z</time>
      </trkpt>
      <trkpt lat="46.34842" lon="6.69934">
        <ele>1342</ele>
        <time>2021-05-20T09:53:19Z</time>
      </trkpt>
      <trkpt lat="46.34842" lon="6.69927">
        <ele>1342.8000488281</ele>
        <time>2021-05-20T09:53:25Z</time>
      </trkpt>
      <trkpt lat="46.34837" lon="6.69895">
        <ele>1346</ele>
        <time>2021-05-20T09:53:49Z</time>
      </trkpt>
      <trkpt lat="46.34837" lon="6.69894">
        <ele>1346.1999511719</ele>
        <time>2021-05-20T09:53:50Z</time>
      </trkpt>
      <trkpt lat="46.34825" lon="6.69893">
        <ele>1348.5999755859</ele>
        <time>2021-05-20T09:54:07Z</time>
      </trkpt>
      <trkpt lat="46.34815" lon="6.69882">
        <ele>1349.1999511719</ele>
        <time>2021-05-20T09:54:17Z</time>
      </trkpt>
      <trkpt lat="46.3481" lon="6.6988">
        <ele>1349.5999755859</ele>
        <time>2021-05-20T09:54:21Z</time>
      </trkpt>
      <trkpt lat="46.34803" lon="6.69875">
        <ele>1350</ele>
        <time>2021-05-20T09:54:26Z</time>
      </trkpt>
      <trkpt lat="46.34801" lon="6.69869">
        <ele>1350.5999755859</ele>
        <time>2021-05-20T09:54:30Z</time>
      </trkpt>
      <trkpt lat="46.34782" lon="6.69856">
        <ele>1352.8000488281</ele>
        <time>2021-05-20T09:54:48Z</time>
      </trkpt>
      <trkpt lat="46.34781" lon="6.69854">
        <ele>1353.1999511719</ele>
        <time>2021-05-20T09:54:51Z</time>
      </trkpt>
      <trkpt lat="46.34777" lon="6.69849">
        <ele>1353.8000488281</ele>
        <time>2021-05-20T09:54:55Z</time>
      </trkpt>
      <trkpt lat="46.34777" lon="6.6984">
        <ele>1354.1999511719</ele>
        <time>2021-05-20T09:55:00Z</time>
      </trkpt>
      <trkpt lat="46.34793" lon="6.69834">
        <ele>1355.5999755859</ele>
        <time>2021-05-20T09:55:15Z</time>
      </trkpt>
      <trkpt lat="46.34804" lon="6.69823">
        <ele>1356.5999755859</ele>
        <time>2021-05-20T09:55:27Z</time>
      </trkpt>
      <trkpt lat="46.34791" lon="6.69805">
        <ele>1357.4000244141</ele>
        <time>2021-05-20T09:55:39Z</time>
      </trkpt>
      <trkpt lat="46.34768" lon="6.69803">
        <ele>1359.8000488281</ele>
        <time>2021-05-20T09:55:57Z</time>
      </trkpt>
      <trkpt lat="46.34747" lon="6.69803">
        <ele>1362.1999511719</ele>
        <time>2021-05-20T09:56:14Z</time>
      </trkpt>
      <trkpt lat="46.34724" lon="6.69792">
        <ele>1364.4000244141</ele>
        <time>2021-05-20T09:56:33Z</time>
      </trkpt>
      <trkpt lat="46.34717" lon="6.69787">
        <ele>1365.1999511719</ele>
        <time>2021-05-20T09:56:40Z</time>
      </trkpt>
      <trkpt lat="46.34698" lon="6.69772">
        <ele>1367.1999511719</ele>
        <time>2021-05-20T09:56:56Z</time>
      </trkpt>
      <trkpt lat="46.34687" lon="6.69765">
        <ele>1368.1999511719</ele>
        <time>2021-05-20T09:57:06Z</time>
      </trkpt>
      <trkpt lat="46.34664" lon="6.69754">
        <ele>1369.5999755859</ele>
        <time>2021-05-20T09:57:23Z</time>
      </trkpt>
      <trkpt lat="46.34641" lon="6.69748">
        <ele>1370.5999755859</ele>
        <time>2021-05-20T09:57:38Z</time>
      </trkpt>
      <trkpt lat="46.3462" lon="6.69742">
        <ele>1371.5999755859</ele>
        <time>2021-05-20T09:57:51Z</time>
      </trkpt>
      <trkpt lat="46.34606" lon="6.69738">
        <ele>1372.4000244141</ele>
        <time>2021-05-20T09:58:00Z</time>
      </trkpt>
      <trkpt lat="46.34596" lon="6.69737">
        <ele>1373</ele>
        <time>2021-05-20T09:58:06Z</time>
      </trkpt>
      <trkpt lat="46.34575" lon="6.69742">
        <ele>1373.8000488281</ele>
        <time>2021-05-20T09:58:17Z</time>
      </trkpt>
      <trkpt lat="46.34569" lon="6.69755">
        <ele>1374.5999755859</ele>
        <time>2021-05-20T09:58:25Z</time>
      </trkpt>
      <trkpt lat="46.34569" lon="6.69765">
        <ele>1375</ele>
        <time>2021-05-20T09:58:28Z</time>
      </trkpt>
      <trkpt lat="46.3457" lon="6.69777">
        <ele>1375.5999755859</ele>
        <time>2021-05-20T09:58:33Z</time>
      </trkpt>
      <trkpt lat="46.3457" lon="6.69781">
        <ele>1375.8000488281</ele>
        <time>2021-05-20T09:58:35Z</time>
      </trkpt>
      <trkpt lat="46.34573" lon="6.69791">
        <ele>1376</ele>
        <time>2021-05-20T09:58:39Z</time>
      </trkpt>
      <trkpt lat="46.34573" lon="6.69797">
        <ele>1376.4000244141</ele>
        <time>2021-05-20T09:58:42Z</time>
      </trkpt>
      <trkpt lat="46.34573" lon="6.69807">
        <ele>1377</ele>
        <time>2021-05-20T09:58:46Z</time>
      </trkpt>
      <trkpt lat="46.34565" lon="6.69832">
        <ele>1379.1999511719</ele>
        <time>2021-05-20T09:59:02Z</time>
      </trkpt>
      <trkpt lat="46.34547" lon="6.69853">
        <ele>1381.5999755859</ele>
        <time>2021-05-20T09:59:22Z</time>
      </trkpt>
      <trkpt lat="46.34542" lon="6.69859">
        <ele>1382.4000244141</ele>
        <time>2021-05-20T09:59:28Z</time>
      </trkpt>
      <trkpt lat="46.3453" lon="6.69888">
        <ele>1384.5999755859</ele>
        <time>2021-05-20T09:59:48Z</time>
      </trkpt>
      <trkpt lat="46.34518" lon="6.69906">
        <ele>1387.1999511719</ele>
        <time>2021-05-20T10:00:04Z</time>
      </trkpt>
      <trkpt lat="46.34511" lon="6.69915">
        <ele>1388</ele>
        <time>2021-05-20T10:00:12Z</time>
      </trkpt>
      <trkpt lat="46.3451" lon="6.69928">
        <ele>1388.8000488281</ele>
        <time>2021-05-20T10:00:19Z</time>
      </trkpt>
      <trkpt lat="46.34508" lon="6.69935">
        <ele>1389.4000244141</ele>
        <time>2021-05-20T10:00:23Z</time>
      </trkpt>
      <trkpt lat="46.34509" lon="6.69958">
        <ele>1390.8000488281</ele>
        <time>2021-05-20T10:00:35Z</time>
      </trkpt>
      <trkpt lat="46.34509" lon="6.6996">
        <ele>1390.8000488281</ele>
        <time>2021-05-20T10:00:36Z</time>
      </trkpt>
      <trkpt lat="46.34508" lon="6.69973">
        <ele>1392</ele>
        <time>2021-05-20T10:00:44Z</time>
      </trkpt>
      <trkpt lat="46.34506" lon="6.69979">
        <ele>1392.5999755859</ele>
        <time>2021-05-20T10:00:48Z</time>
      </trkpt>
      <trkpt lat="46.34497" lon="6.70002">
        <ele>1394.1999511719</ele>
        <time>2021-05-20T10:01:05Z</time>
      </trkpt>
      <trkpt lat="46.34488" lon="6.70028">
        <ele>1395.1999511719</ele>
        <time>2021-05-20T10:01:19Z</time>
      </trkpt>
      <trkpt lat="46.34475" lon="6.70058">
        <ele>1397.8000488281</ele>
        <time>2021-05-20T10:01:40Z</time>
      </trkpt>
      <trkpt lat="46.34469" lon="6.70066">
        <ele>1398.8000488281</ele>
        <time>2021-05-20T10:01:48Z</time>
      </trkpt>
      <trkpt lat="46.34444" lon="6.70083">
        <ele>1400.8000488281</ele>
        <time>2021-05-20T10:02:09Z</time>
      </trkpt>
      <trkpt lat="46.34435" lon="6.7011">
        <ele>1402.4000244141</ele>
        <time>2021-05-20T10:02:26Z</time>
      </trkpt>
      <trkpt lat="46.34432" lon="6.7014">
        <ele>1404.4000244141</ele>
        <time>2021-05-20T10:02:43Z</time>
      </trkpt>
      <trkpt lat="46.34432" lon="6.70142">
        <ele>1404.4000244141</ele>
        <time>2021-05-20T10:02:44Z</time>
      </trkpt>
      <trkpt lat="46.34434" lon="6.70153">
        <ele>1404.8000488281</ele>
        <time>2021-05-20T10:02:50Z</time>
      </trkpt>
      <trkpt lat="46.34428" lon="6.70174">
        <ele>1407.1999511719</ele>
        <time>2021-05-20T10:03:03Z</time>
      </trkpt>
      <trkpt lat="46.34426" lon="6.70174">
        <ele>1407.5999755859</ele>
        <time>2021-05-20T10:03:05Z</time>
      </trkpt>
      <trkpt lat="46.34415" lon="6.70177">
        <ele>1408.4000244141</ele>
        <time>2021-05-20T10:03:16Z</time>
      </trkpt>
      <trkpt lat="46.34411" lon="6.70172">
        <ele>1409.1999511719</ele>
        <time>2021-05-20T10:03:20Z</time>
      </trkpt>
      <trkpt lat="46.34416" lon="6.70141">
        <ele>1412</ele>
        <time>2021-05-20T10:03:38Z</time>
      </trkpt>
      <trkpt lat="46.34417" lon="6.70123">
        <ele>1413.1999511719</ele>
        <time>2021-05-20T10:03:48Z</time>
      </trkpt>
      <trkpt lat="46.34416" lon="6.70111">
        <ele>1414</ele>
        <time>2021-05-20T10:03:55Z</time>
      </trkpt>
      <trkpt lat="46.34414" lon="6.70094">
        <ele>1415.1999511719</ele>
        <time>2021-05-20T10:04:05Z</time>
      </trkpt>
      <trkpt lat="46.34412" lon="6.70087">
        <ele>1434.8000488281</ele>
        <time>2021-05-20T10:04:13Z</time>
      </trkpt>
      <trkpt lat="46.34419" lon="6.70083">
        <ele>1416.8000488281</ele>
        <time>2021-05-20T10:04:40Z</time>
      </trkpt>
      <trkpt lat="46.34417" lon="6.70082">
        <ele>1417</ele>
        <time>2021-05-20T10:04:47Z</time>
      </trkpt>
      <trkpt lat="46.34415" lon="6.70079">
        <ele>1417</ele>
        <time>2021-05-20T10:04:50Z</time>
      </trkpt>
      <trkpt lat="46.34414" lon="6.70069">
        <ele>1417</ele>
        <time>2021-05-20T10:04:56Z</time>
      </trkpt>
      <trkpt lat="46.34418" lon="6.70045">
        <ele>1418.4000244141</ele>
        <time>2021-05-20T10:05:09Z</time>
      </trkpt>
      <trkpt lat="46.34421" lon="6.70031">
        <ele>1420</ele>
        <time>2021-05-20T10:05:22Z</time>
      </trkpt>
      <trkpt lat="46.34428" lon="6.70023">
        <ele>1420.4000244141</ele>
        <time>2021-05-20T10:05:35Z</time>
      </trkpt>
      <trkpt lat="46.34443" lon="6.69995">
        <ele>1420</ele>
        <time>2021-05-20T10:05:52Z</time>
      </trkpt>
      <trkpt lat="46.34446" lon="6.6999">
        <ele>1419.5999755859</ele>
        <time>2021-05-20T10:05:55Z</time>
      </trkpt>
      <trkpt lat="46.34433" lon="6.69988">
        <ele>1419.5999755859</ele>
        <time>2021-05-20T10:06:10Z</time>
      </trkpt>
      <trkpt lat="46.34432" lon="6.69986">
        <ele>1419.5999755859</ele>
        <time>2021-05-20T10:06:26Z</time>
      </trkpt>
      <trkpt lat="46.34433" lon="6.6999">
        <ele>1419.5999755859</ele>
        <time>2021-05-20T10:06:29Z</time>
      </trkpt>
      <trkpt lat="46.34425" lon="6.70011">
        <ele>1418.8000488281</ele>
        <time>2021-05-20T10:06:49Z</time>
      </trkpt>
      <trkpt lat="46.34438" lon="6.69985">
        <ele>1414.1999511719</ele>
        <time>2021-05-20T10:16:44Z</time>
      </trkpt>
      <trkpt lat="46.34437" lon="6.69983">
        <ele>1414.1999511719</ele>
        <time>2021-05-20T10:16:47Z</time>
      </trkpt>
      <trkpt lat="46.3442" lon="6.69967">
        <ele>1416.4000244141</ele>
        <time>2021-05-20T10:17:09Z</time>
      </trkpt>
      <trkpt lat="46.34407" lon="6.69958">
        <ele>1419.4000244141</ele>
        <time>2021-05-20T10:17:26Z</time>
      </trkpt>
      <trkpt lat="46.34397" lon="6.69952">
        <ele>1422.1999511719</ele>
        <time>2021-05-20T10:17:41Z</time>
      </trkpt>
      <trkpt lat="46.34386" lon="6.69951">
        <ele>1424.5999755859</ele>
        <time>2021-05-20T10:17:59Z</time>
      </trkpt>
      <trkpt lat="46.34373" lon="6.69958">
        <ele>1427</ele>
        <time>2021-05-20T10:18:19Z</time>
      </trkpt>
      <trkpt lat="46.34364" lon="6.69967">
        <ele>1428.8000488281</ele>
        <time>2021-05-20T10:18:33Z</time>
      </trkpt>
      <trkpt lat="46.34345" lon="6.69974">
        <ele>1431.4000244141</ele>
        <time>2021-05-20T10:18:56Z</time>
      </trkpt>
      <trkpt lat="46.34342" lon="6.69978">
        <ele>1432.1999511719</ele>
        <time>2021-05-20T10:19:14Z</time>
      </trkpt>
      <trkpt lat="46.34338" lon="6.69983">
        <ele>1432.1999511719</ele>
        <time>2021-05-20T10:19:18Z</time>
      </trkpt>
      <trkpt lat="46.34326" lon="6.69998">
        <ele>1432.8000488281</ele>
        <time>2021-05-20T10:19:37Z</time>
      </trkpt>
      <trkpt lat="46.34315" lon="6.69991">
        <ele>1434.5999755859</ele>
        <time>2021-05-20T10:19:52Z</time>
      </trkpt>
      <trkpt lat="46.34305" lon="6.70003">
        <ele>1437</ele>
        <time>2021-05-20T10:20:08Z</time>
      </trkpt>
      <trkpt lat="46.343" lon="6.70008">
        <ele>1439.5999755859</ele>
        <time>2021-05-20T10:20:27Z</time>
      </trkpt>
      <trkpt lat="46.34299" lon="6.70009">
        <ele>1439.5999755859</ele>
        <time>2021-05-20T10:20:28Z</time>
      </trkpt>
      <trkpt lat="46.34289" lon="6.70019">
        <ele>1440.4000244141</ele>
        <time>2021-05-20T10:20:41Z</time>
      </trkpt>
      <trkpt lat="46.34286" lon="6.70019">
        <ele>1440.8000488281</ele>
        <time>2021-05-20T10:20:44Z</time>
      </trkpt>
      <trkpt lat="46.34271" lon="6.70038">
        <ele>1442.5999755859</ele>
        <time>2021-05-20T10:21:02Z</time>
      </trkpt>
      <trkpt lat="46.34257" lon="6.70063">
        <ele>1444.5999755859</ele>
        <time>2021-05-20T10:21:22Z</time>
      </trkpt>
      <trkpt lat="46.34254" lon="6.70069">
        <ele>1445.4000244141</ele>
        <time>2021-05-20T10:21:27Z</time>
      </trkpt>
      <trkpt lat="46.34254" lon="6.70081">
        <ele>1446.1999511719</ele>
        <time>2021-05-20T10:21:34Z</time>
      </trkpt>
      <trkpt lat="46.3425" lon="6.70102">
        <ele>1448.8000488281</ele>
        <time>2021-05-20T10:21:49Z</time>
      </trkpt>
      <trkpt lat="46.34253" lon="6.70125">
        <ele>1451.8000488281</ele>
        <time>2021-05-20T10:22:05Z</time>
      </trkpt>
      <trkpt lat="46.34255" lon="6.70147">
        <ele>1455</ele>
        <time>2021-05-20T10:22:20Z</time>
      </trkpt>
      <trkpt lat="46.34256" lon="6.70152">
        <ele>1456</ele>
        <time>2021-05-20T10:22:24Z</time>
      </trkpt>
      <trkpt lat="46.34259" lon="6.70169">
        <ele>1459.1999511719</ele>
        <time>2021-05-20T10:22:41Z</time>
      </trkpt>
      <trkpt lat="46.34259" lon="6.70194">
        <ele>1462.1999511719</ele>
        <time>2021-05-20T10:23:03Z</time>
      </trkpt>
      <trkpt lat="46.34253" lon="6.702">
        <ele>1464.1999511719</ele>
        <time>2021-05-20T10:23:26Z</time>
      </trkpt>
      <trkpt lat="46.34248" lon="6.70209">
        <ele>1464.1999511719</ele>
        <time>2021-05-20T10:23:34Z</time>
      </trkpt>
      <trkpt lat="46.3424" lon="6.70212">
        <ele>1465</ele>
        <time>2021-05-20T10:23:42Z</time>
      </trkpt>
      <trkpt lat="46.34221" lon="6.70217">
        <ele>1467.4000244141</ele>
        <time>2021-05-20T10:24:01Z</time>
      </trkpt>
      <trkpt lat="46.34219" lon="6.70217">
        <ele>1467.5999755859</ele>
        <time>2021-05-20T10:24:03Z</time>
      </trkpt>
      <trkpt lat="46.34207" lon="6.70221">
        <ele>1469.5999755859</ele>
        <time>2021-05-20T10:24:16Z</time>
      </trkpt>
      <trkpt lat="46.34203" lon="6.70223">
        <ele>1470.1999511719</ele>
        <time>2021-05-20T10:24:20Z</time>
      </trkpt>
      <trkpt lat="46.34202" lon="6.70225">
        <ele>1470.5999755859</ele>
        <time>2021-05-20T10:24:22Z</time>
      </trkpt>
      <trkpt lat="46.34194" lon="6.70232">
        <ele>1472.8000488281</ele>
        <time>2021-05-20T10:24:37Z</time>
      </trkpt>
      <trkpt lat="46.34182" lon="6.70239">
        <ele>1476</ele>
        <time>2021-05-20T10:24:58Z</time>
      </trkpt>
      <trkpt lat="46.34168" lon="6.70245">
        <ele>1479</ele>
        <time>2021-05-20T10:25:19Z</time>
      </trkpt>
      <trkpt lat="46.34158" lon="6.70253">
        <ele>1482.1999511719</ele>
        <time>2021-05-20T10:25:37Z</time>
      </trkpt>
      <trkpt lat="46.34148" lon="6.70262">
        <ele>1485.1999511719</ele>
        <time>2021-05-20T10:25:56Z</time>
      </trkpt>
      <trkpt lat="46.34138" lon="6.70269">
        <ele>1488.4000244141</ele>
        <time>2021-05-20T10:26:14Z</time>
      </trkpt>
      <trkpt lat="46.34125" lon="6.70275">
        <ele>1491.1999511719</ele>
        <time>2021-05-20T10:26:34Z</time>
      </trkpt>
      <trkpt lat="46.34113" lon="6.70279">
        <ele>1494.4000244141</ele>
        <time>2021-05-20T10:26:52Z</time>
      </trkpt>
      <trkpt lat="46.34101" lon="6.70281">
        <ele>1497.5999755859</ele>
        <time>2021-05-20T10:27:11Z</time>
      </trkpt>
      <trkpt lat="46.34087" lon="6.70285">
        <ele>1500.5999755859</ele>
        <time>2021-05-20T10:27:30Z</time>
      </trkpt>
      <trkpt lat="46.34076" lon="6.70288">
        <ele>1503.5999755859</ele>
        <time>2021-05-20T10:27:48Z</time>
      </trkpt>
      <trkpt lat="46.34064" lon="6.70294">
        <ele>1506.8000488281</ele>
        <time>2021-05-20T10:28:07Z</time>
      </trkpt>
      <trkpt lat="46.3405" lon="6.70298">
        <ele>1509.8000488281</ele>
        <time>2021-05-20T10:28:26Z</time>
      </trkpt>
      <trkpt lat="46.34039" lon="6.70303">
        <ele>1512.8000488281</ele>
        <time>2021-05-20T10:28:42Z</time>
      </trkpt>
      <trkpt lat="46.3403" lon="6.70307">
        <ele>1513.8000488281</ele>
        <time>2021-05-20T10:29:02Z</time>
      </trkpt>
      <trkpt lat="46.34016" lon="6.70315">
        <ele>1516</ele>
        <time>2021-05-20T10:29:18Z</time>
      </trkpt>
      <trkpt lat="46.34006" lon="6.70339">
        <ele>1518</ele>
        <time>2021-05-20T10:29:37Z</time>
      </trkpt>
      <trkpt lat="46.34008" lon="6.70356">
        <ele>1519</ele>
        <time>2021-05-20T10:29:47Z</time>
      </trkpt>
      <trkpt lat="46.34015" lon="6.70386">
        <ele>1520.8000488281</ele>
        <time>2021-05-20T10:30:06Z</time>
      </trkpt>
      <trkpt lat="46.3402" lon="6.70402">
        <ele>1521.5999755859</ele>
        <time>2021-05-20T10:30:16Z</time>
      </trkpt>
      <trkpt lat="46.34028" lon="6.70429">
        <ele>1524</ele>
        <time>2021-05-20T10:30:35Z</time>
      </trkpt>
      <trkpt lat="46.34031" lon="6.70454">
        <ele>1526.1999511719</ele>
        <time>2021-05-20T10:30:50Z</time>
      </trkpt>
      <trkpt lat="46.34032" lon="6.70455">
        <ele>1526.1999511719</ele>
        <time>2021-05-20T10:30:51Z</time>
      </trkpt>
      <trkpt lat="46.3404" lon="6.70486">
        <ele>1527.8000488281</ele>
        <time>2021-05-20T10:31:08Z</time>
      </trkpt>
      <trkpt lat="46.34041" lon="6.7051">
        <ele>1529.1999511719</ele>
        <time>2021-05-20T10:31:23Z</time>
      </trkpt>
      <trkpt lat="46.34045" lon="6.70529">
        <ele>1530.1999511719</ele>
        <time>2021-05-20T10:31:34Z</time>
      </trkpt>
      <trkpt lat="46.34055" lon="6.70536">
        <ele>1531</ele>
        <time>2021-05-20T10:31:40Z</time>
      </trkpt>
      <trkpt lat="46.34054" lon="6.70547">
        <ele>1531.5999755859</ele>
        <time>2021-05-20T10:31:46Z</time>
      </trkpt>
      <trkpt lat="46.34055" lon="6.70556">
        <ele>1532.1999511719</ele>
        <time>2021-05-20T10:31:51Z</time>
      </trkpt>
      <trkpt lat="46.34054" lon="6.7056">
        <ele>1532.5999755859</ele>
        <time>2021-05-20T10:31:54Z</time>
      </trkpt>
      <trkpt lat="46.34057" lon="6.70585">
        <ele>1534.8000488281</ele>
        <time>2021-05-20T10:32:08Z</time>
      </trkpt>
      <trkpt lat="46.34055" lon="6.706">
        <ele>1537.1999511719</ele>
        <time>2021-05-20T10:32:18Z</time>
      </trkpt>
      <trkpt lat="46.34061" lon="6.70621">
        <ele>1540.4000244141</ele>
        <time>2021-05-20T10:32:33Z</time>
      </trkpt>
      <trkpt lat="46.34065" lon="6.70633">
        <ele>1542</ele>
        <time>2021-05-20T10:32:42Z</time>
      </trkpt>
      <trkpt lat="46.34069" lon="6.70638">
        <ele>1543</ele>
        <time>2021-05-20T10:32:47Z</time>
      </trkpt>
      <trkpt lat="46.34073" lon="6.70661">
        <ele>1544.5999755859</ele>
        <time>2021-05-20T10:33:01Z</time>
      </trkpt>
      <trkpt lat="46.34079" lon="6.70683">
        <ele>1546</ele>
        <time>2021-05-20T10:33:15Z</time>
      </trkpt>
      <trkpt lat="46.34088" lon="6.70702">
        <ele>1547.8000488281</ele>
        <time>2021-05-20T10:33:29Z</time>
      </trkpt>
      <trkpt lat="46.34096" lon="6.7071">
        <ele>1548.5999755859</ele>
        <time>2021-05-20T10:33:36Z</time>
      </trkpt>
      <trkpt lat="46.34098" lon="6.70712">
        <ele>1549.1999511719</ele>
        <time>2021-05-20T10:33:39Z</time>
      </trkpt>
      <trkpt lat="46.34097" lon="6.70741">
        <ele>1551</ele>
        <time>2021-05-20T10:33:54Z</time>
      </trkpt>
      <trkpt lat="46.34097" lon="6.70748">
        <ele>1551.1999511719</ele>
        <time>2021-05-20T10:33:58Z</time>
      </trkpt>
      <trkpt lat="46.34109" lon="6.70754">
        <ele>1551.8000488281</ele>
        <time>2021-05-20T10:34:07Z</time>
      </trkpt>
      <trkpt lat="46.34126" lon="6.70776">
        <ele>1553.5999755859</ele>
        <time>2021-05-20T10:34:24Z</time>
      </trkpt>
      <trkpt lat="46.34126" lon="6.7078">
        <ele>1553.8000488281</ele>
        <time>2021-05-20T10:34:26Z</time>
      </trkpt>
      <trkpt lat="46.34128" lon="6.70788">
        <ele>1554.5999755859</ele>
        <time>2021-05-20T10:34:31Z</time>
      </trkpt>
      <trkpt lat="46.34135" lon="6.70813">
        <ele>1557.8000488281</ele>
        <time>2021-05-20T10:34:47Z</time>
      </trkpt>
      <trkpt lat="46.34137" lon="6.70827">
        <ele>1560.1999511719</ele>
        <time>2021-05-20T10:35:00Z</time>
      </trkpt>
      <trkpt lat="46.34139" lon="6.7084">
        <ele>1562.5999755859</ele>
        <time>2021-05-20T10:35:18Z</time>
      </trkpt>
      <trkpt lat="46.34147" lon="6.7086">
        <ele>1565.8000488281</ele>
        <time>2021-05-20T10:35:36Z</time>
      </trkpt>
      <trkpt lat="46.34154" lon="6.70869">
        <ele>1568.8000488281</ele>
        <time>2021-05-20T10:35:53Z</time>
      </trkpt>
      <trkpt lat="46.34161" lon="6.70887">
        <ele>1570.8000488281</ele>
        <time>2021-05-20T10:36:20Z</time>
      </trkpt>
      <trkpt lat="46.34164" lon="6.7089">
        <ele>1572.4000244141</ele>
        <time>2021-05-20T10:36:30Z</time>
      </trkpt>
      <trkpt lat="46.3417" lon="6.70905">
        <ele>1573.5999755859</ele>
        <time>2021-05-20T10:36:44Z</time>
      </trkpt>
      <trkpt lat="46.34171" lon="6.70905">
        <ele>1573.5999755859</ele>
        <time>2021-05-20T10:36:45Z</time>
      </trkpt>
      <trkpt lat="46.34187" lon="6.70923">
        <ele>1576.4000244141</ele>
        <time>2021-05-20T10:37:03Z</time>
      </trkpt>
      <trkpt lat="46.34199" lon="6.70941">
        <ele>1578.5999755859</ele>
        <time>2021-05-20T10:37:19Z</time>
      </trkpt>
      <trkpt lat="46.3421" lon="6.70976">
        <ele>1580.5999755859</ele>
        <time>2021-05-20T10:37:42Z</time>
      </trkpt>
      <trkpt lat="46.34211" lon="6.70985">
        <ele>1581.4000244141</ele>
        <time>2021-05-20T10:37:48Z</time>
      </trkpt>
      <trkpt lat="46.34214" lon="6.71008">
        <ele>1584.5999755859</ele>
        <time>2021-05-20T10:38:03Z</time>
      </trkpt>
      <trkpt lat="46.34216" lon="6.7103">
        <ele>1588</ele>
        <time>2021-05-20T10:38:19Z</time>
      </trkpt>
      <trkpt lat="46.34217" lon="6.71037">
        <ele>1589</ele>
        <time>2021-05-20T10:38:24Z</time>
      </trkpt>
      <trkpt lat="46.3422" lon="6.7105">
        <ele>1591</ele>
        <time>2021-05-20T10:38:33Z</time>
      </trkpt>
      <trkpt lat="46.34219" lon="6.71061">
        <ele>1593</ele>
        <time>2021-05-20T10:38:48Z</time>
      </trkpt>
      <trkpt lat="46.34219" lon="6.71084">
        <ele>1596</ele>
        <time>2021-05-20T10:39:14Z</time>
      </trkpt>
      <trkpt lat="46.34217" lon="6.71102">
        <ele>1599</ele>
        <time>2021-05-20T10:39:34Z</time>
      </trkpt>
      <trkpt lat="46.34216" lon="6.71121">
        <ele>1602</ele>
        <time>2021-05-20T10:39:53Z</time>
      </trkpt>
      <trkpt lat="46.34216" lon="6.71118">
        <ele>1603.8000488281</ele>
        <time>2021-05-20T10:40:33Z</time>
      </trkpt>
      <trkpt lat="46.34217" lon="6.7112">
        <ele>1603.8000488281</ele>
        <time>2021-05-20T10:40:39Z</time>
      </trkpt>
      <trkpt lat="46.34216" lon="6.71131">
        <ele>1603.8000488281</ele>
        <time>2021-05-20T10:40:47Z</time>
      </trkpt>
      <trkpt lat="46.34211" lon="6.71152">
        <ele>1606.5999755859</ele>
        <time>2021-05-20T10:41:04Z</time>
      </trkpt>
      <trkpt lat="46.34206" lon="6.71163">
        <ele>1609.5999755859</ele>
        <time>2021-05-20T10:41:19Z</time>
      </trkpt>
      <trkpt lat="46.34201" lon="6.71174">
        <ele>1612.8000488281</ele>
        <time>2021-05-20T10:41:41Z</time>
      </trkpt>
      <trkpt lat="46.34197" lon="6.71187">
        <ele>1614.1999511719</ele>
        <time>2021-05-20T10:42:06Z</time>
      </trkpt>
      <trkpt lat="46.34194" lon="6.71191">
        <ele>1616.4000244141</ele>
        <time>2021-05-20T10:42:25Z</time>
      </trkpt>
      <trkpt lat="46.34185" lon="6.71195">
        <ele>1619</ele>
        <time>2021-05-20T10:42:46Z</time>
      </trkpt>
      <trkpt lat="46.34185" lon="6.71198">
        <ele>1619.5999755859</ele>
        <time>2021-05-20T10:43:06Z</time>
      </trkpt>
      <trkpt lat="46.34189" lon="6.71202">
        <ele>1619.1999511719</ele>
        <time>2021-05-20T10:43:41Z</time>
      </trkpt>
      <trkpt lat="46.34191" lon="6.71203">
        <ele>1619</ele>
        <time>2021-05-20T10:43:51Z</time>
      </trkpt>
      <trkpt lat="46.34187" lon="6.71198">
        <ele>1618.8000488281</ele>
        <time>2021-05-20T10:44:12Z</time>
      </trkpt>
      <trkpt lat="46.3419" lon="6.71197">
        <ele>1618.1999511719</ele>
        <time>2021-05-20T10:44:20Z</time>
      </trkpt>
      <trkpt lat="46.34199" lon="6.71183">
        <ele>1618.1999511719</ele>
        <time>2021-05-20T10:44:25Z</time>
      </trkpt>
      <trkpt lat="46.34211" lon="6.71152">
        <ele>1617.4000244141</ele>
        <time>2021-05-20T10:44:30Z</time>
      </trkpt>
      <trkpt lat="46.34217" lon="6.71118">
        <ele>1614.1999511719</ele>
        <time>2021-05-20T10:44:35Z</time>
      </trkpt>
      <trkpt lat="46.34219" lon="6.71099">
        <ele>1609.1999511719</ele>
        <time>2021-05-20T10:44:38Z</time>
      </trkpt>
      <trkpt lat="46.3422" lon="6.71078">
        <ele>1605.1999511719</ele>
        <time>2021-05-20T10:44:41Z</time>
      </trkpt>
      <trkpt lat="46.3422" lon="6.71058">
        <ele>1601.1999511719</ele>
        <time>2021-05-20T10:44:45Z</time>
      </trkpt>
      <trkpt lat="46.3422" lon="6.71047">
        <ele>1597.4000244141</ele>
        <time>2021-05-20T10:44:48Z</time>
      </trkpt>
      <trkpt lat="46.3422" lon="6.7104">
        <ele>1594.1999511719</ele>
        <time>2021-05-20T10:44:51Z</time>
      </trkpt>
      <trkpt lat="46.34217" lon="6.71018">
        <ele>1591</ele>
        <time>2021-05-20T10:44:56Z</time>
      </trkpt>
      <trkpt lat="46.34216" lon="6.71011">
        <ele>1590.4000244141</ele>
        <time>2021-05-20T10:44:57Z</time>
      </trkpt>
      <trkpt lat="46.34213" lon="6.70997">
        <ele>1589.8000488281</ele>
        <time>2021-05-20T10:44:59Z</time>
      </trkpt>
      <trkpt lat="46.34212" lon="6.70979">
        <ele>1589.1999511719</ele>
        <time>2021-05-20T10:45:02Z</time>
      </trkpt>
      <trkpt lat="46.34206" lon="6.70954">
        <ele>1585.5999755859</ele>
        <time>2021-05-20T10:45:06Z</time>
      </trkpt>
      <trkpt lat="46.34197" lon="6.70932">
        <ele>1582.8000488281</ele>
        <time>2021-05-20T10:45:09Z</time>
      </trkpt>
      <trkpt lat="46.34171" lon="6.709">
        <ele>1578.8000488281</ele>
        <time>2021-05-20T10:45:15Z</time>
      </trkpt>
      <trkpt lat="46.34167" lon="6.70896">
        <ele>1578</ele>
        <time>2021-05-20T10:45:16Z</time>
      </trkpt>
      <trkpt lat="46.34157" lon="6.70873">
        <ele>1575.5999755859</ele>
        <time>2021-05-20T10:45:20Z</time>
      </trkpt>
      <trkpt lat="46.34152" lon="6.7086">
        <ele>1574.5999755859</ele>
        <time>2021-05-20T10:45:22Z</time>
      </trkpt>
      <trkpt lat="46.34141" lon="6.70821">
        <ele>1570.1999511719</ele>
        <time>2021-05-20T10:45:27Z</time>
      </trkpt>
      <trkpt lat="46.34139" lon="6.70815">
        <ele>1570.1999511719</ele>
        <time>2021-05-20T10:45:28Z</time>
      </trkpt>
      <trkpt lat="46.34134" lon="6.70799">
        <ele>1567.1999511719</ele>
        <time>2021-05-20T10:45:30Z</time>
      </trkpt>
      <trkpt lat="46.34124" lon="6.70774">
        <ele>1563.8000488281</ele>
        <time>2021-05-20T10:45:33Z</time>
      </trkpt>
      <trkpt lat="46.34104" lon="6.70757">
        <ele>1559.5999755859</ele>
        <time>2021-05-20T10:45:37Z</time>
      </trkpt>
      <trkpt lat="46.34097" lon="6.70757">
        <ele>1558.4000244141</ele>
        <time>2021-05-20T10:45:38Z</time>
      </trkpt>
      <trkpt lat="46.34072" lon="6.70751">
        <ele>1552.8000488281</ele>
        <time>2021-05-20T10:45:44Z</time>
      </trkpt>
      <trkpt lat="46.34057" lon="6.70735">
        <ele>1552.8000488281</ele>
        <time>2021-05-20T10:45:58Z</time>
      </trkpt>
      <trkpt lat="46.34047" lon="6.70716">
        <ele>1554.5999755859</ele>
        <time>2021-05-20T10:46:12Z</time>
      </trkpt>
      <trkpt lat="46.34037" lon="6.70701">
        <ele>1556.1999511719</ele>
        <time>2021-05-20T10:46:28Z</time>
      </trkpt>
      <trkpt lat="46.34028" lon="6.70689">
        <ele>1558.8000488281</ele>
        <time>2021-05-20T10:46:51Z</time>
      </trkpt>
      <trkpt lat="46.34012" lon="6.70659">
        <ele>1560.1999511719</ele>
        <time>2021-05-20T10:47:15Z</time>
      </trkpt>
      <trkpt lat="46.33986" lon="6.70621">
        <ele>1563.1999511719</ele>
        <time>2021-05-20T10:47:47Z</time>
      </trkpt>
      <trkpt lat="46.33972" lon="6.70597">
        <ele>1566.1999511719</ele>
        <time>2021-05-20T10:48:11Z</time>
      </trkpt>
      <trkpt lat="46.33967" lon="6.7058">
        <ele>1569.1999511719</ele>
        <time>2021-05-20T10:48:30Z</time>
      </trkpt>
      <trkpt lat="46.33959" lon="6.70566">
        <ele>1572.5999755859</ele>
        <time>2021-05-20T10:48:49Z</time>
      </trkpt>
      <trkpt lat="46.33955" lon="6.70547">
        <ele>1575.8000488281</ele>
        <time>2021-05-20T10:49:08Z</time>
      </trkpt>
      <trkpt lat="46.3395" lon="6.70526">
        <ele>1578.8000488281</ele>
        <time>2021-05-20T10:49:29Z</time>
      </trkpt>
      <trkpt lat="46.33947" lon="6.70507">
        <ele>1581.8000488281</ele>
        <time>2021-05-20T10:49:50Z</time>
      </trkpt>
      <trkpt lat="46.33946" lon="6.70488">
        <ele>1585</ele>
        <time>2021-05-20T10:50:07Z</time>
      </trkpt>
      <trkpt lat="46.33941" lon="6.70467">
        <ele>1588</ele>
        <time>2021-05-20T10:50:26Z</time>
      </trkpt>
      <trkpt lat="46.33933" lon="6.70447">
        <ele>1590.5999755859</ele>
        <time>2021-05-20T10:50:44Z</time>
      </trkpt>
      <trkpt lat="46.33931" lon="6.70442">
        <ele>1592</ele>
        <time>2021-05-20T10:50:54Z</time>
      </trkpt>
      <trkpt lat="46.33925" lon="6.70431">
        <ele>1592.4000244141</ele>
        <time>2021-05-20T10:51:04Z</time>
      </trkpt>
      <trkpt lat="46.33919" lon="6.70417">
        <ele>1593.4000244141</ele>
        <time>2021-05-20T10:51:16Z</time>
      </trkpt>
      <trkpt lat="46.33916" lon="6.70414">
        <ele>1593.5999755859</ele>
        <time>2021-05-20T10:51:20Z</time>
      </trkpt>
      <trkpt lat="46.33909" lon="6.70405">
        <ele>1594.4000244141</ele>
        <time>2021-05-20T10:51:29Z</time>
      </trkpt>
      <trkpt lat="46.33906" lon="6.70399">
        <ele>1594.8000488281</ele>
        <time>2021-05-20T10:51:34Z</time>
      </trkpt>
      <trkpt lat="46.33903" lon="6.70394">
        <ele>1595</ele>
        <time>2021-05-20T10:51:38Z</time>
      </trkpt>
      <trkpt lat="46.33898" lon="6.70386">
        <ele>1596</ele>
        <time>2021-05-20T10:51:45Z</time>
      </trkpt>
      <trkpt lat="46.33895" lon="6.70379">
        <ele>1596.8000488281</ele>
        <time>2021-05-20T10:51:50Z</time>
      </trkpt>
      <trkpt lat="46.33884" lon="6.70353">
        <ele>1599.1999511719</ele>
        <time>2021-05-20T10:52:09Z</time>
      </trkpt>
      <trkpt lat="46.33877" lon="6.70334">
        <ele>1601</ele>
        <time>2021-05-20T10:52:22Z</time>
      </trkpt>
      <trkpt lat="46.33867" lon="6.70308">
        <ele>1604</ele>
        <time>2021-05-20T10:52:43Z</time>
      </trkpt>
      <trkpt lat="46.33857" lon="6.70273">
        <ele>1607.1999511719</ele>
        <time>2021-05-20T10:53:08Z</time>
      </trkpt>
      <trkpt lat="46.33856" lon="6.70267">
        <ele>1607.5999755859</ele>
        <time>2021-05-20T10:53:12Z</time>
      </trkpt>
      <trkpt lat="46.33856" lon="6.70256">
        <ele>1608.1999511719</ele>
        <time>2021-05-20T10:53:18Z</time>
      </trkpt>
      <trkpt lat="46.33853" lon="6.70227">
        <ele>1610.5999755859</ele>
        <time>2021-05-20T10:53:37Z</time>
      </trkpt>
      <trkpt lat="46.33855" lon="6.70196">
        <ele>1612.8000488281</ele>
        <time>2021-05-20T10:53:57Z</time>
      </trkpt>
      <trkpt lat="46.33856" lon="6.7019">
        <ele>1613</ele>
        <time>2021-05-20T10:54:01Z</time>
      </trkpt>
      <trkpt lat="46.33857" lon="6.70184">
        <ele>1613.5999755859</ele>
        <time>2021-05-20T10:54:05Z</time>
      </trkpt>
      <trkpt lat="46.3386" lon="6.70173">
        <ele>1615</ele>
        <time>2021-05-20T10:54:14Z</time>
      </trkpt>
      <trkpt lat="46.33864" lon="6.70165">
        <ele>1616</ele>
        <time>2021-05-20T10:54:20Z</time>
      </trkpt>
      <trkpt lat="46.33873" lon="6.70136">
        <ele>1618.5999755859</ele>
        <time>2021-05-20T10:54:40Z</time>
      </trkpt>
      <trkpt lat="46.33879" lon="6.70122">
        <ele>1620.8000488281</ele>
        <time>2021-05-20T10:54:50Z</time>
      </trkpt>
      <trkpt lat="46.3388" lon="6.70114">
        <ele>1621.8000488281</ele>
        <time>2021-05-20T10:54:55Z</time>
      </trkpt>
      <trkpt lat="46.33874" lon="6.70096">
        <ele>1624</ele>
        <time>2021-05-20T10:55:12Z</time>
      </trkpt>
      <trkpt lat="46.33871" lon="6.7009">
        <ele>1624.4000244141</ele>
        <time>2021-05-20T10:55:30Z</time>
      </trkpt>
      <trkpt lat="46.33869" lon="6.7009">
        <ele>1624.4000244141</ele>
        <time>2021-05-20T10:55:52Z</time>
      </trkpt>
      <trkpt lat="46.3387" lon="6.70091">
        <ele>1613.8000488281</ele>
        <time>2021-05-20T10:55:59Z</time>
      </trkpt>
      <trkpt lat="46.33864" lon="6.70082">
        <ele>1618.1999511719</ele>
        <time>2021-05-20T11:03:06Z</time>
      </trkpt>
      <trkpt lat="46.3386" lon="6.70061">
        <ele>1615</ele>
        <time>2021-05-20T11:03:27Z</time>
      </trkpt>
      <trkpt lat="46.33856" lon="6.70058">
        <ele>1611.8000488281</ele>
        <time>2021-05-20T11:03:33Z</time>
      </trkpt>
      <trkpt lat="46.33851" lon="6.70053">
        <ele>1611</ele>
        <time>2021-05-20T11:03:40Z</time>
      </trkpt>
      <trkpt lat="46.33863" lon="6.70041">
        <ele>1610.4000244141</ele>
        <time>2021-05-20T11:04:06Z</time>
      </trkpt>
      <trkpt lat="46.33865" lon="6.7004">
        <ele>1609.8000488281</ele>
        <time>2021-05-20T11:04:08Z</time>
      </trkpt>
      <trkpt lat="46.33875" lon="6.70024">
        <ele>1606.5999755859</ele>
        <time>2021-05-20T11:04:16Z</time>
      </trkpt>
      <trkpt lat="46.33874" lon="6.70019">
        <ele>1603.4000244141</ele>
        <time>2021-05-20T11:04:23Z</time>
      </trkpt>
      <trkpt lat="46.33871" lon="6.70013">
        <ele>1601.5999755859</ele>
        <time>2021-05-20T11:04:44Z</time>
      </trkpt>
      <trkpt lat="46.3387" lon="6.70016">
        <ele>1601.4000244141</ele>
        <time>2021-05-20T11:04:46Z</time>
      </trkpt>
      <trkpt lat="46.33868" lon="6.70018">
        <ele>1601</ele>
        <time>2021-05-20T11:04:49Z</time>
      </trkpt>
      <trkpt lat="46.33853" lon="6.70027">
        <ele>1598</ele>
        <time>2021-05-20T11:05:02Z</time>
      </trkpt>
      <trkpt lat="46.33842" lon="6.70024">
        <ele>1596</ele>
        <time>2021-05-20T11:05:08Z</time>
      </trkpt>
      <trkpt lat="46.33837" lon="6.7002">
        <ele>1593.1999511719</ele>
        <time>2021-05-20T11:05:12Z</time>
      </trkpt>
      <trkpt lat="46.33826" lon="6.70016">
        <ele>1590</ele>
        <time>2021-05-20T11:05:17Z</time>
      </trkpt>
      <trkpt lat="46.33824" lon="6.70015">
        <ele>1589</ele>
        <time>2021-05-20T11:05:19Z</time>
      </trkpt>
      <trkpt lat="46.33816" lon="6.70005">
        <ele>1585</ele>
        <time>2021-05-20T11:05:28Z</time>
      </trkpt>
      <trkpt lat="46.33812" lon="6.70003">
        <ele>1583.5999755859</ele>
        <time>2021-05-20T11:05:31Z</time>
      </trkpt>
      <trkpt lat="46.33801" lon="6.70001">
        <ele>1581.1999511719</ele>
        <time>2021-05-20T11:05:39Z</time>
      </trkpt>
      <trkpt lat="46.33797" lon="6.7">
        <ele>1577.1999511719</ele>
        <time>2021-05-20T11:05:45Z</time>
      </trkpt>
      <trkpt lat="46.33791" lon="6.69993">
        <ele>1574.5999755859</ele>
        <time>2021-05-20T11:06:02Z</time>
      </trkpt>
      <trkpt lat="46.33796" lon="6.69974">
        <ele>1571.4000244141</ele>
        <time>2021-05-20T11:06:18Z</time>
      </trkpt>
      <trkpt lat="46.33797" lon="6.69973">
        <ele>1568.1999511719</ele>
        <time>2021-05-20T11:06:30Z</time>
      </trkpt>
      <trkpt lat="46.33797" lon="6.69972">
        <ele>1567.8000488281</ele>
        <time>2021-05-20T11:06:32Z</time>
      </trkpt>
      <trkpt lat="46.33805" lon="6.69973">
        <ele>1567.1999511719</ele>
        <time>2021-05-20T11:06:42Z</time>
      </trkpt>
      <trkpt lat="46.33815" lon="6.69962">
        <ele>1565.4000244141</ele>
        <time>2021-05-20T11:06:52Z</time>
      </trkpt>
      <trkpt lat="46.33817" lon="6.69957">
        <ele>1562.4000244141</ele>
        <time>2021-05-20T11:06:56Z</time>
      </trkpt>
      <trkpt lat="46.33824" lon="6.69948">
        <ele>1560.5999755859</ele>
        <time>2021-05-20T11:07:01Z</time>
      </trkpt>
      <trkpt lat="46.33828" lon="6.69942">
        <ele>1559.8000488281</ele>
        <time>2021-05-20T11:07:05Z</time>
      </trkpt>
      <trkpt lat="46.33837" lon="6.69935">
        <ele>1556.1999511719</ele>
        <time>2021-05-20T11:07:14Z</time>
      </trkpt>
      <trkpt lat="46.33838" lon="6.69929">
        <ele>1553.1999511719</ele>
        <time>2021-05-20T11:07:20Z</time>
      </trkpt>
      <trkpt lat="46.3384" lon="6.69918">
        <ele>1552.1999511719</ele>
        <time>2021-05-20T11:07:32Z</time>
      </trkpt>
      <trkpt lat="46.33844" lon="6.69911">
        <ele>1551</ele>
        <time>2021-05-20T11:07:40Z</time>
      </trkpt>
      <trkpt lat="46.33863" lon="6.69894">
        <ele>1549.8000488281</ele>
        <time>2021-05-20T11:07:49Z</time>
      </trkpt>
      <trkpt lat="46.33878" lon="6.69882">
        <ele>1546.4000244141</ele>
        <time>2021-05-20T11:07:56Z</time>
      </trkpt>
      <trkpt lat="46.33891" lon="6.69872">
        <ele>1543.1999511719</ele>
        <time>2021-05-20T11:08:02Z</time>
      </trkpt>
      <trkpt lat="46.33897" lon="6.69867">
        <ele>1541</ele>
        <time>2021-05-20T11:08:06Z</time>
      </trkpt>
      <trkpt lat="46.33906" lon="6.69867">
        <ele>1538.4000244141</ele>
        <time>2021-05-20T11:08:11Z</time>
      </trkpt>
      <trkpt lat="46.33916" lon="6.6986">
        <ele>1533.1999511719</ele>
        <time>2021-05-20T11:08:19Z</time>
      </trkpt>
      <trkpt lat="46.33916" lon="6.69859">
        <ele>1532.8000488281</ele>
        <time>2021-05-20T11:08:20Z</time>
      </trkpt>
      <trkpt lat="46.33921" lon="6.69855">
        <ele>1531</ele>
        <time>2021-05-20T11:08:24Z</time>
      </trkpt>
      <trkpt lat="46.33926" lon="6.69851">
        <ele>1529.5999755859</ele>
        <time>2021-05-20T11:08:28Z</time>
      </trkpt>
      <trkpt lat="46.3393" lon="6.69843">
        <ele>1529</ele>
        <time>2021-05-20T11:08:33Z</time>
      </trkpt>
      <trkpt lat="46.33934" lon="6.69839">
        <ele>1528.8000488281</ele>
        <time>2021-05-20T11:08:36Z</time>
      </trkpt>
      <trkpt lat="46.33939" lon="6.69836">
        <ele>1528.5999755859</ele>
        <time>2021-05-20T11:08:40Z</time>
      </trkpt>
      <trkpt lat="46.33952" lon="6.6982">
        <ele>1528.4000244141</ele>
        <time>2021-05-20T11:08:48Z</time>
      </trkpt>
      <trkpt lat="46.33958" lon="6.69823">
        <ele>1529</ele>
        <time>2021-05-20T11:08:57Z</time>
      </trkpt>
      <trkpt lat="46.33974" lon="6.69821">
        <ele>1528.8000488281</ele>
        <time>2021-05-20T11:09:05Z</time>
      </trkpt>
      <trkpt lat="46.33979" lon="6.69813">
        <ele>1528.8000488281</ele>
        <time>2021-05-20T11:09:09Z</time>
      </trkpt>
      <trkpt lat="46.33994" lon="6.69803">
        <ele>1528.1999511719</ele>
        <time>2021-05-20T11:09:14Z</time>
      </trkpt>
      <trkpt lat="46.34006" lon="6.69789">
        <ele>1527.1999511719</ele>
        <time>2021-05-20T11:09:28Z</time>
      </trkpt>
      <trkpt lat="46.34002" lon="6.6979">
        <ele>1527.4000244141</ele>
        <time>2021-05-20T11:09:34Z</time>
      </trkpt>
      <trkpt lat="46.33997" lon="6.69796">
        <ele>1527.4000244141</ele>
        <time>2021-05-20T11:09:39Z</time>
      </trkpt>
      <trkpt lat="46.33995" lon="6.69795">
        <ele>1527.1999511719</ele>
        <time>2021-05-20T11:09:48Z</time>
      </trkpt>
      <trkpt lat="46.34003" lon="6.69774">
        <ele>1530.1999511719</ele>
        <time>2021-05-20T11:10:11Z</time>
      </trkpt>
      <trkpt lat="46.34004" lon="6.69767">
        <ele>1533.1999511719</ele>
        <time>2021-05-20T11:10:26Z</time>
      </trkpt>
      <trkpt lat="46.34009" lon="6.69753">
        <ele>1535.4000244141</ele>
        <time>2021-05-20T11:10:44Z</time>
      </trkpt>
      <trkpt lat="46.3401" lon="6.69752">
        <ele>1536.4000244141</ele>
        <time>2021-05-20T11:10:48Z</time>
      </trkpt>
      <trkpt lat="46.34017" lon="6.69738">
        <ele>1536.5999755859</ele>
        <time>2021-05-20T11:11:05Z</time>
      </trkpt>
      <trkpt lat="46.34032" lon="6.69731">
        <ele>1534.5999755859</ele>
        <time>2021-05-20T11:11:17Z</time>
      </trkpt>
      <trkpt lat="46.34048" lon="6.69723">
        <ele>1532.4000244141</ele>
        <time>2021-05-20T11:11:34Z</time>
      </trkpt>
      <trkpt lat="46.34059" lon="6.69725">
        <ele>1532.5999755859</ele>
        <time>2021-05-20T11:11:48Z</time>
      </trkpt>
      <trkpt lat="46.34076" lon="6.69724">
        <ele>1532.5999755859</ele>
        <time>2021-05-20T11:11:56Z</time>
      </trkpt>
      <trkpt lat="46.34079" lon="6.69722">
        <ele>1532.8000488281</ele>
        <time>2021-05-20T11:12:10Z</time>
      </trkpt>
      <trkpt lat="46.34081" lon="6.69721">
        <ele>1532.5999755859</ele>
        <time>2021-05-20T11:12:26Z</time>
      </trkpt>
      <trkpt lat="46.34082" lon="6.69718">
        <ele>1532.4000244141</ele>
        <time>2021-05-20T11:12:28Z</time>
      </trkpt>
      <trkpt lat="46.34091" lon="6.6971">
        <ele>1529.1999511719</ele>
        <time>2021-05-20T11:12:43Z</time>
      </trkpt>
      <trkpt lat="46.34092" lon="6.69712">
        <ele>1527.5999755859</ele>
        <time>2021-05-20T11:12:47Z</time>
      </trkpt>
      <trkpt lat="46.34093" lon="6.69712">
        <ele>1527</ele>
        <time>2021-05-20T11:12:50Z</time>
      </trkpt>
      <trkpt lat="46.34106" lon="6.6971">
        <ele>1526.4000244141</ele>
        <time>2021-05-20T11:12:56Z</time>
      </trkpt>
      <trkpt lat="46.3411" lon="6.697">
        <ele>1524.5999755859</ele>
        <time>2021-05-20T11:13:04Z</time>
      </trkpt>
      <trkpt lat="46.34125" lon="6.69688">
        <ele>1520.8000488281</ele>
        <time>2021-05-20T11:13:18Z</time>
      </trkpt>
      <trkpt lat="46.34128" lon="6.69686">
        <ele>1520</ele>
        <time>2021-05-20T11:13:20Z</time>
      </trkpt>
      <trkpt lat="46.34137" lon="6.69686">
        <ele>1518</ele>
        <time>2021-05-20T11:13:24Z</time>
      </trkpt>
      <trkpt lat="46.34149" lon="6.69677">
        <ele>1514.1999511719</ele>
        <time>2021-05-20T11:13:34Z</time>
      </trkpt>
      <trkpt lat="46.34151" lon="6.69677">
        <ele>1513.8000488281</ele>
        <time>2021-05-20T11:13:35Z</time>
      </trkpt>
      <trkpt lat="46.34162" lon="6.69667">
        <ele>1513</ele>
        <time>2021-05-20T11:13:40Z</time>
      </trkpt>
      <trkpt lat="46.3418" lon="6.69637">
        <ele>1509</ele>
        <time>2021-05-20T11:13:51Z</time>
      </trkpt>
      <trkpt lat="46.3419" lon="6.69619">
        <ele>1505.8000488281</ele>
        <time>2021-05-20T11:13:56Z</time>
      </trkpt>
      <trkpt lat="46.34198" lon="6.69611">
        <ele>1505.1999511719</ele>
        <time>2021-05-20T11:13:58Z</time>
      </trkpt>
      <trkpt lat="46.34216" lon="6.69578">
        <ele>1505.8000488281</ele>
        <time>2021-05-20T11:14:13Z</time>
      </trkpt>
      <trkpt lat="46.34226" lon="6.69534">
        <ele>1505.1999511719</ele>
        <time>2021-05-20T11:14:27Z</time>
      </trkpt>
      <trkpt lat="46.3425" lon="6.69523">
        <ele>1504.1999511719</ele>
        <time>2021-05-20T11:14:37Z</time>
      </trkpt>
      <trkpt lat="46.34254" lon="6.69518">
        <ele>1502.8000488281</ele>
        <time>2021-05-20T11:14:47Z</time>
      </trkpt>
      <trkpt lat="46.34266" lon="6.69526">
        <ele>1503.1999511719</ele>
        <time>2021-05-20T11:15:02Z</time>
      </trkpt>
      <trkpt lat="46.34273" lon="6.69527">
        <ele>1505</ele>
        <time>2021-05-20T11:15:18Z</time>
      </trkpt>
      <trkpt lat="46.3428" lon="6.69513">
        <ele>1505</ele>
        <time>2021-05-20T11:15:29Z</time>
      </trkpt>
      <trkpt lat="46.34279" lon="6.69509">
        <ele>1505.1999511719</ele>
        <time>2021-05-20T11:15:31Z</time>
      </trkpt>
      <trkpt lat="46.34279" lon="6.69506">
        <ele>1505.5999755859</ele>
        <time>2021-05-20T11:15:33Z</time>
      </trkpt>
      <trkpt lat="46.34275" lon="6.69498">
        <ele>1507.1999511719</ele>
        <time>2021-05-20T11:15:44Z</time>
      </trkpt>
      <trkpt lat="46.34274" lon="6.69479">
        <ele>1507.1999511719</ele>
        <time>2021-05-20T11:15:50Z</time>
      </trkpt>
      <trkpt lat="46.34274" lon="6.69474">
        <ele>1507.4000244141</ele>
        <time>2021-05-20T11:15:56Z</time>
      </trkpt>
      <trkpt lat="46.34275" lon="6.69468">
        <ele>1507.5999755859</ele>
        <time>2021-05-20T11:15:59Z</time>
      </trkpt>
      <trkpt lat="46.34274" lon="6.69453">
        <ele>1508</ele>
        <time>2021-05-20T11:16:06Z</time>
      </trkpt>
      <trkpt lat="46.34271" lon="6.69414">
        <ele>1509.8000488281</ele>
        <time>2021-05-20T11:16:28Z</time>
      </trkpt>
      <trkpt lat="46.34259" lon="6.69362">
        <ele>1510.1999511719</ele>
        <time>2021-05-20T11:16:53Z</time>
      </trkpt>
      <trkpt lat="46.34244" lon="6.69303">
        <ele>1509.8000488281</ele>
        <time>2021-05-20T11:17:14Z</time>
      </trkpt>
      <trkpt lat="46.34251" lon="6.69249">
        <ele>1509.4000244141</ele>
        <time>2021-05-20T11:17:32Z</time>
      </trkpt>
      <trkpt lat="46.34255" lon="6.69224">
        <ele>1509.8000488281</ele>
        <time>2021-05-20T11:17:41Z</time>
      </trkpt>
      <trkpt lat="46.34254" lon="6.69209">
        <ele>1509.8000488281</ele>
        <time>2021-05-20T11:17:45Z</time>
      </trkpt>
      <trkpt lat="46.34252" lon="6.69187">
        <ele>1509</ele>
        <time>2021-05-20T11:17:50Z</time>
      </trkpt>
      <trkpt lat="46.34257" lon="6.69172">
        <ele>1505.4000244141</ele>
        <time>2021-05-20T11:17:55Z</time>
      </trkpt>
      <trkpt lat="46.34259" lon="6.69169">
        <ele>1503.8000488281</ele>
        <time>2021-05-20T11:17:57Z</time>
      </trkpt>
      <trkpt lat="46.34262" lon="6.69169">
        <ele>1503</ele>
        <time>2021-05-20T11:17:59Z</time>
      </trkpt>
      <trkpt lat="46.34267" lon="6.69166">
        <ele>1500</ele>
        <time>2021-05-20T11:18:05Z</time>
      </trkpt>
      <trkpt lat="46.34269" lon="6.69162">
        <ele>1499</ele>
        <time>2021-05-20T11:18:08Z</time>
      </trkpt>
      <trkpt lat="46.34267" lon="6.69157">
        <ele>1495.4000244141</ele>
        <time>2021-05-20T11:18:18Z</time>
      </trkpt>
      <trkpt lat="46.34266" lon="6.69151">
        <ele>1494.8000488281</ele>
        <time>2021-05-20T11:18:20Z</time>
      </trkpt>
      <trkpt lat="46.34266" lon="6.69135">
        <ele>1491.4000244141</ele>
        <time>2021-05-20T11:18:31Z</time>
      </trkpt>
      <trkpt lat="46.34277" lon="6.69121">
        <ele>1488.1999511719</ele>
        <time>2021-05-20T11:18:45Z</time>
      </trkpt>
      <trkpt lat="46.34279" lon="6.69115">
        <ele>1485.5999755859</ele>
        <time>2021-05-20T11:19:00Z</time>
      </trkpt>
      <trkpt lat="46.34282" lon="6.69099">
        <ele>1485.5999755859</ele>
        <time>2021-05-20T11:19:04Z</time>
      </trkpt>
      <trkpt lat="46.34284" lon="6.69091">
        <ele>1485.5999755859</ele>
        <time>2021-05-20T11:19:06Z</time>
      </trkpt>
      <trkpt lat="46.34287" lon="6.69054">
        <ele>1484.5999755859</ele>
        <time>2021-05-20T11:19:11Z</time>
      </trkpt>
      <trkpt lat="46.34294" lon="6.6902">
        <ele>1481.1999511719</ele>
        <time>2021-05-20T11:19:15Z</time>
      </trkpt>
      <trkpt lat="46.343" lon="6.69">
        <ele>1478</ele>
        <time>2021-05-20T11:19:18Z</time>
      </trkpt>
      <trkpt lat="46.34304" lon="6.68968">
        <ele>1472.4000244141</ele>
        <time>2021-05-20T11:19:22Z</time>
      </trkpt>
      <trkpt lat="46.34305" lon="6.68962">
        <ele>1471</ele>
        <time>2021-05-20T11:19:23Z</time>
      </trkpt>
      <trkpt lat="46.34327" lon="6.68922">
        <ele>1465.1999511719</ele>
        <time>2021-05-20T11:19:28Z</time>
      </trkpt>
      <trkpt lat="46.34337" lon="6.68904">
        <ele>1463.1999511719</ele>
        <time>2021-05-20T11:19:30Z</time>
      </trkpt>
      <trkpt lat="46.34342" lon="6.68887">
        <ele>1461.5999755859</ele>
        <time>2021-05-20T11:19:32Z</time>
      </trkpt>
      <trkpt lat="46.34347" lon="6.68872">
        <ele>1459</ele>
        <time>2021-05-20T11:19:34Z</time>
      </trkpt>
      <trkpt lat="46.34351" lon="6.68853">
        <ele>1450.4000244141</ele>
        <time>2021-05-20T11:19:37Z</time>
      </trkpt>
      <trkpt lat="46.34352" lon="6.68847">
        <ele>1447.5999755859</ele>
        <time>2021-05-20T11:19:46Z</time>
      </trkpt>
      <trkpt lat="46.34353" lon="6.68848">
        <ele>1448</ele>
        <time>2021-05-20T11:19:50Z</time>
      </trkpt>
      <trkpt lat="46.34364" lon="6.68853">
        <ele>1448</ele>
        <time>2021-05-20T11:20:00Z</time>
      </trkpt>
      <trkpt lat="46.34357" lon="6.68829">
        <ele>1448.4000244141</ele>
        <time>2021-05-20T11:20:39Z</time>
      </trkpt>
      <trkpt lat="46.34356" lon="6.68823">
        <ele>1449.5999755859</ele>
        <time>2021-05-20T11:21:01Z</time>
      </trkpt>
      <trkpt lat="46.34355" lon="6.68818">
        <ele>1449.5999755859</ele>
        <time>2021-05-20T11:21:19Z</time>
      </trkpt>
      <trkpt lat="46.34355" lon="6.68789">
        <ele>1451.5999755859</ele>
        <time>2021-05-20T11:21:40Z</time>
      </trkpt>
      <trkpt lat="46.34351" lon="6.68776">
        <ele>1453.8000488281</ele>
        <time>2021-05-20T11:21:51Z</time>
      </trkpt>
      <trkpt lat="46.34349" lon="6.6875">
        <ele>1457</ele>
        <time>2021-05-20T11:22:13Z</time>
      </trkpt>
      <trkpt lat="46.34349" lon="6.68741">
        <ele>1458.4000244141</ele>
        <time>2021-05-20T11:22:23Z</time>
      </trkpt>
      <trkpt lat="46.34348" lon="6.68736">
        <ele>1459</ele>
        <time>2021-05-20T11:22:27Z</time>
      </trkpt>
      <trkpt lat="46.34349" lon="6.6872">
        <ele>1462.1999511719</ele>
        <time>2021-05-20T11:22:46Z</time>
      </trkpt>
      <trkpt lat="46.34349" lon="6.68703">
        <ele>1465.1999511719</ele>
        <time>2021-05-20T11:23:07Z</time>
      </trkpt>
      <trkpt lat="46.34349" lon="6.68686">
        <ele>1468.1999511719</ele>
        <time>2021-05-20T11:23:26Z</time>
      </trkpt>
      <trkpt lat="46.34349" lon="6.68668">
        <ele>1471.4000244141</ele>
        <time>2021-05-20T11:23:48Z</time>
      </trkpt>
      <trkpt lat="46.34349" lon="6.68668">
        <ele>1471.5999755859</ele>
        <time>2021-05-20T11:23:49Z</time>
      </trkpt>
      <trkpt lat="46.3435" lon="6.68654">
        <ele>1473.4000244141</ele>
        <time>2021-05-20T11:24:03Z</time>
      </trkpt>
      <trkpt lat="46.3435" lon="6.68644">
        <ele>1474.8000488281</ele>
        <time>2021-05-20T11:24:13Z</time>
      </trkpt>
      <trkpt lat="46.34349" lon="6.68636">
        <ele>1476.8000488281</ele>
        <time>2021-05-20T11:24:27Z</time>
      </trkpt>
      <trkpt lat="46.3435" lon="6.68635">
        <ele>1476.8000488281</ele>
        <time>2021-05-20T11:24:28Z</time>
      </trkpt>
      <trkpt lat="46.3436" lon="6.68646">
        <ele>1477.1999511719</ele>
        <time>2021-05-20T11:24:42Z</time>
      </trkpt>
      <trkpt lat="46.34365" lon="6.68656">
        <ele>1479</ele>
        <time>2021-05-20T11:24:58Z</time>
      </trkpt>
      <trkpt lat="46.34373" lon="6.68662">
        <ele>1481.5999755859</ele>
        <time>2021-05-20T11:25:13Z</time>
      </trkpt>
      <trkpt lat="46.34384" lon="6.68674">
        <ele>1484</ele>
        <time>2021-05-20T11:25:33Z</time>
      </trkpt>
      <trkpt lat="46.34391" lon="6.68681">
        <ele>1486.1999511719</ele>
        <time>2021-05-20T11:26:01Z</time>
      </trkpt>
      <trkpt lat="46.34402" lon="6.68686">
        <ele>1489.1999511719</ele>
        <time>2021-05-20T11:26:21Z</time>
      </trkpt>
      <trkpt lat="46.34409" lon="6.68687">
        <ele>1491.1999511719</ele>
        <time>2021-05-20T11:26:45Z</time>
      </trkpt>
      <trkpt lat="46.34407" lon="6.68676">
        <ele>1493.4000244141</ele>
        <time>2021-05-20T11:26:59Z</time>
      </trkpt>
      <trkpt lat="46.34407" lon="6.68671">
        <ele>1495</ele>
        <time>2021-05-20T11:27:18Z</time>
      </trkpt>
      <trkpt lat="46.34408" lon="6.6866">
        <ele>1496.4000244141</ele>
        <time>2021-05-20T11:27:41Z</time>
      </trkpt>
      <trkpt lat="46.34405" lon="6.68649">
        <ele>1499.4000244141</ele>
        <time>2021-05-20T11:27:57Z</time>
      </trkpt>
      <trkpt lat="46.34401" lon="6.68637">
        <ele>1502</ele>
        <time>2021-05-20T11:28:17Z</time>
      </trkpt>
      <trkpt lat="46.34399" lon="6.68628">
        <ele>1503.8000488281</ele>
        <time>2021-05-20T11:28:42Z</time>
      </trkpt>
      <trkpt lat="46.34398" lon="6.68621">
        <ele>1505.5999755859</ele>
        <time>2021-05-20T11:28:56Z</time>
      </trkpt>
      <trkpt lat="46.34398" lon="6.68618">
        <ele>1506.8000488281</ele>
        <time>2021-05-20T11:29:11Z</time>
      </trkpt>
      <trkpt lat="46.344" lon="6.68616">
        <ele>1507</ele>
        <time>2021-05-20T11:29:22Z</time>
      </trkpt>
      <trkpt lat="46.34404" lon="6.68614">
        <ele>1508.5999755859</ele>
        <time>2021-05-20T11:29:38Z</time>
      </trkpt>
      <trkpt lat="46.34409" lon="6.68612">
        <ele>1510.5999755859</ele>
        <time>2021-05-20T11:29:53Z</time>
      </trkpt>
      <trkpt lat="46.34415" lon="6.68611">
        <ele>1513.5999755859</ele>
        <time>2021-05-20T11:30:21Z</time>
      </trkpt>
      <trkpt lat="46.3442" lon="6.68608">
        <ele>1516.8000488281</ele>
        <time>2021-05-20T11:30:40Z</time>
      </trkpt>
      <trkpt lat="46.34427" lon="6.68604">
        <ele>1519.1999511719</ele>
        <time>2021-05-20T11:31:06Z</time>
      </trkpt>
      <trkpt lat="46.34432" lon="6.68601">
        <ele>1520.4000244141</ele>
        <time>2021-05-20T11:31:40Z</time>
      </trkpt>
      <trkpt lat="46.34436" lon="6.68595">
        <ele>1523.4000244141</ele>
        <time>2021-05-20T11:31:55Z</time>
      </trkpt>
      <trkpt lat="46.34438" lon="6.6859">
        <ele>1525.8000488281</ele>
        <time>2021-05-20T11:32:11Z</time>
      </trkpt>
      <trkpt lat="46.34444" lon="6.68585">
        <ele>1527.1999511719</ele>
        <time>2021-05-20T11:32:43Z</time>
      </trkpt>
      <trkpt lat="46.34444" lon="6.68584">
        <ele>1529.4000244141</ele>
        <time>2021-05-20T11:33:09Z</time>
      </trkpt>
      <trkpt lat="46.34442" lon="6.68577">
        <ele>1530.1999511719</ele>
        <time>2021-05-20T11:33:27Z</time>
      </trkpt>
      <trkpt lat="46.3444" lon="6.68567">
        <ele>1532.5999755859</ele>
        <time>2021-05-20T11:33:43Z</time>
      </trkpt>
      <trkpt lat="46.34436" lon="6.68561">
        <ele>1535.4000244141</ele>
        <time>2021-05-20T11:34:03Z</time>
      </trkpt>
      <trkpt lat="46.34435" lon="6.68553">
        <ele>1537.5999755859</ele>
        <time>2021-05-20T11:34:17Z</time>
      </trkpt>
      <trkpt lat="46.34434" lon="6.6855">
        <ele>1539.5999755859</ele>
        <time>2021-05-20T11:34:37Z</time>
      </trkpt>
      <trkpt lat="46.34431" lon="6.68543">
        <ele>1540.8000488281</ele>
        <time>2021-05-20T11:34:57Z</time>
      </trkpt>
      <trkpt lat="46.3443" lon="6.68537">
        <ele>1543</ele>
        <time>2021-05-20T11:35:15Z</time>
      </trkpt>
      <trkpt lat="46.34428" lon="6.68532">
        <ele>1545</ele>
        <time>2021-05-20T11:35:34Z</time>
      </trkpt>
      <trkpt lat="46.34425" lon="6.68525">
        <ele>1546.5999755859</ele>
        <time>2021-05-20T11:35:51Z</time>
      </trkpt>
      <trkpt lat="46.34427" lon="6.68519">
        <ele>1548.1999511719</ele>
        <time>2021-05-20T11:36:07Z</time>
      </trkpt>
      <trkpt lat="46.34424" lon="6.68503">
        <ele>1551</ele>
        <time>2021-05-20T11:36:26Z</time>
      </trkpt>
      <trkpt lat="46.34424" lon="6.68487">
        <ele>1553.8000488281</ele>
        <time>2021-05-20T11:36:42Z</time>
      </trkpt>
      <trkpt lat="46.34426" lon="6.68474">
        <ele>1556.4000244141</ele>
        <time>2021-05-20T11:37:06Z</time>
      </trkpt>
      <trkpt lat="46.34439" lon="6.68467">
        <ele>1559.1999511719</ele>
        <time>2021-05-20T11:37:28Z</time>
      </trkpt>
      <trkpt lat="46.34445" lon="6.6846">
        <ele>1561.4000244141</ele>
        <time>2021-05-20T11:37:46Z</time>
      </trkpt>
      <trkpt lat="46.34452" lon="6.68457">
        <ele>1563.8000488281</ele>
        <time>2021-05-20T11:38:01Z</time>
      </trkpt>
      <trkpt lat="46.34454" lon="6.68451">
        <ele>1566.8000488281</ele>
        <time>2021-05-20T11:38:18Z</time>
      </trkpt>
      <trkpt lat="46.34464" lon="6.68448">
        <ele>1568.1999511719</ele>
        <time>2021-05-20T11:38:36Z</time>
      </trkpt>
      <trkpt lat="46.34474" lon="6.68443">
        <ele>1571.4000244141</ele>
        <time>2021-05-20T11:38:52Z</time>
      </trkpt>
      <trkpt lat="46.34479" lon="6.68443">
        <ele>1562.4000244141</ele>
        <time>2021-05-20T11:39:06Z</time>
      </trkpt>
      <trkpt lat="46.34477" lon="6.68443">
        <ele>1570.1999511719</ele>
        <time>2021-05-20T12:04:09Z</time>
      </trkpt>
      <trkpt lat="46.34475" lon="6.68445">
        <ele>1569.1999511719</ele>
        <time>2021-05-20T12:04:35Z</time>
      </trkpt>
      <trkpt lat="46.34467" lon="6.68443">
        <ele>1569.1999511719</ele>
        <time>2021-05-20T12:04:39Z</time>
      </trkpt>
      <trkpt lat="46.34437" lon="6.68424">
        <ele>1566.1999511719</ele>
        <time>2021-05-20T12:04:51Z</time>
      </trkpt>
      <trkpt lat="46.34435" lon="6.6842">
        <ele>1563.1999511719</ele>
        <time>2021-05-20T12:04:56Z</time>
      </trkpt>
      <trkpt lat="46.34435" lon="6.68427">
        <ele>1561</ele>
        <time>2021-05-20T12:05:24Z</time>
      </trkpt>
      <trkpt lat="46.34442" lon="6.68446">
        <ele>1561</ele>
        <time>2021-05-20T12:05:32Z</time>
      </trkpt>
      <trkpt lat="46.34437" lon="6.6848">
        <ele>1559.5999755859</ele>
        <time>2021-05-20T12:05:44Z</time>
      </trkpt>
      <trkpt lat="46.34429" lon="6.68502">
        <ele>1556.4000244141</ele>
        <time>2021-05-20T12:05:52Z</time>
      </trkpt>
      <trkpt lat="46.34427" lon="6.68515">
        <ele>1553.1999511719</ele>
        <time>2021-05-20T12:05:57Z</time>
      </trkpt>
      <trkpt lat="46.34427" lon="6.68527">
        <ele>1550</ele>
        <time>2021-05-20T12:06:03Z</time>
      </trkpt>
      <trkpt lat="46.34426" lon="6.68533">
        <ele>1546.5999755859</ele>
        <time>2021-05-20T12:06:09Z</time>
      </trkpt>
      <trkpt lat="46.34427" lon="6.68535">
        <ele>1543.5999755859</ele>
        <time>2021-05-20T12:06:16Z</time>
      </trkpt>
      <trkpt lat="46.34431" lon="6.68535">
        <ele>1542.4000244141</ele>
        <time>2021-05-20T12:06:31Z</time>
      </trkpt>
      <trkpt lat="46.34437" lon="6.68544">
        <ele>1542</ele>
        <time>2021-05-20T12:06:37Z</time>
      </trkpt>
      <trkpt lat="46.34442" lon="6.68567">
        <ele>1538.5999755859</ele>
        <time>2021-05-20T12:06:48Z</time>
      </trkpt>
      <trkpt lat="46.34446" lon="6.68577">
        <ele>1534.8000488281</ele>
        <time>2021-05-20T12:06:53Z</time>
      </trkpt>
      <trkpt lat="46.34447" lon="6.68587">
        <ele>1531.5999755859</ele>
        <time>2021-05-20T12:06:58Z</time>
      </trkpt>
      <trkpt lat="46.34446" lon="6.68591">
        <ele>1530.4000244141</ele>
        <time>2021-05-20T12:07:00Z</time>
      </trkpt>
      <trkpt lat="46.34441" lon="6.68596">
        <ele>1528.1999511719</ele>
        <time>2021-05-20T12:07:04Z</time>
      </trkpt>
      <trkpt lat="46.34434" lon="6.68604">
        <ele>1524.4000244141</ele>
        <time>2021-05-20T12:07:11Z</time>
      </trkpt>
      <trkpt lat="46.34427" lon="6.6861">
        <ele>1521</ele>
        <time>2021-05-20T12:07:16Z</time>
      </trkpt>
      <trkpt lat="46.34419" lon="6.68615">
        <ele>1517.4000244141</ele>
        <time>2021-05-20T12:07:22Z</time>
      </trkpt>
      <trkpt lat="46.34419" lon="6.68615">
        <ele>1513.8000488281</ele>
        <time>2021-05-20T12:07:27Z</time>
      </trkpt>
      <trkpt lat="46.34419" lon="6.68615">
        <ele>1510.8000488281</ele>
        <time>2021-05-20T12:07:32Z</time>
      </trkpt>
      <trkpt lat="46.34415" lon="6.68615">
        <ele>1509.4000244141</ele>
        <time>2021-05-20T12:07:53Z</time>
      </trkpt>
      <trkpt lat="46.34409" lon="6.68617">
        <ele>1509.1999511719</ele>
        <time>2021-05-20T12:07:57Z</time>
      </trkpt>
      <trkpt lat="46.34402" lon="6.68627">
        <ele>1506.1999511719</ele>
        <time>2021-05-20T12:08:08Z</time>
      </trkpt>
      <trkpt lat="46.34403" lon="6.6863">
        <ele>1502.4000244141</ele>
        <time>2021-05-20T12:08:17Z</time>
      </trkpt>
      <trkpt lat="46.34403" lon="6.6863">
        <ele>1501.1999511719</ele>
        <time>2021-05-20T12:08:20Z</time>
      </trkpt>
      <trkpt lat="46.34403" lon="6.68631">
        <ele>1500.8000488281</ele>
        <time>2021-05-20T12:08:24Z</time>
      </trkpt>
      <trkpt lat="46.34408" lon="6.68657">
        <ele>1500.4000244141</ele>
        <time>2021-05-20T12:08:34Z</time>
      </trkpt>
      <trkpt lat="46.3441" lon="6.68668">
        <ele>1497.1999511719</ele>
        <time>2021-05-20T12:08:39Z</time>
      </trkpt>
      <trkpt lat="46.3441" lon="6.68675">
        <ele>1494</ele>
        <time>2021-05-20T12:08:45Z</time>
      </trkpt>
      <trkpt lat="46.3441" lon="6.68676">
        <ele>1493.5999755859</ele>
        <time>2021-05-20T12:08:46Z</time>
      </trkpt>
      <trkpt lat="46.3441" lon="6.68679">
        <ele>1492.4000244141</ele>
        <time>2021-05-20T12:08:48Z</time>
      </trkpt>
      <trkpt lat="46.34411" lon="6.6869">
        <ele>1488.5999755859</ele>
        <time>2021-05-20T12:08:59Z</time>
      </trkpt>
      <trkpt lat="46.34408" lon="6.68688">
        <ele>1487</ele>
        <time>2021-05-20T12:09:24Z</time>
      </trkpt>
      <trkpt lat="46.344" lon="6.68686">
        <ele>1486.8000488281</ele>
        <time>2021-05-20T12:09:28Z</time>
      </trkpt>
      <trkpt lat="46.34381" lon="6.68677">
        <ele>1483.5999755859</ele>
        <time>2021-05-20T12:09:38Z</time>
      </trkpt>
      <trkpt lat="46.34375" lon="6.68669">
        <ele>1481.5999755859</ele>
        <time>2021-05-20T12:09:42Z</time>
      </trkpt>
      <trkpt lat="46.34369" lon="6.68664">
        <ele>1479.1999511719</ele>
        <time>2021-05-20T12:09:45Z</time>
      </trkpt>
      <trkpt lat="46.34356" lon="6.68659">
        <ele>1475.4000244141</ele>
        <time>2021-05-20T12:09:52Z</time>
      </trkpt>
      <trkpt lat="46.34353" lon="6.68659">
        <ele>1474.4000244141</ele>
        <time>2021-05-20T12:09:54Z</time>
      </trkpt>
      <trkpt lat="46.34351" lon="6.68664">
        <ele>1470.5999755859</ele>
        <time>2021-05-20T12:10:00Z</time>
      </trkpt>
      <trkpt lat="46.34351" lon="6.68664">
        <ele>1467.4000244141</ele>
        <time>2021-05-20T12:10:04Z</time>
      </trkpt>
      <trkpt lat="46.34351" lon="6.68671">
        <ele>1466</ele>
        <time>2021-05-20T12:10:10Z</time>
      </trkpt>
      <trkpt lat="46.3435" lon="6.68682">
        <ele>1466</ele>
        <time>2021-05-20T12:10:14Z</time>
      </trkpt>
      <trkpt lat="46.34352" lon="6.68722">
        <ele>1462.5999755859</ele>
        <time>2021-05-20T12:10:25Z</time>
      </trkpt>
      <trkpt lat="46.34349" lon="6.68743">
        <ele>1458.8000488281</ele>
        <time>2021-05-20T12:10:31Z</time>
      </trkpt>
      <trkpt lat="46.3435" lon="6.68759">
        <ele>1457.1999511719</ele>
        <time>2021-05-20T12:10:34Z</time>
      </trkpt>
      <trkpt lat="46.34349" lon="6.68771">
        <ele>1453.8000488281</ele>
        <time>2021-05-20T12:10:38Z</time>
      </trkpt>
      <trkpt lat="46.34347" lon="6.68777">
        <ele>1452.4000244141</ele>
        <time>2021-05-20T12:10:40Z</time>
      </trkpt>
      <trkpt lat="46.34339" lon="6.68774">
        <ele>1448.1999511719</ele>
        <time>2021-05-20T12:10:45Z</time>
      </trkpt>
      <trkpt lat="46.34327" lon="6.68755">
        <ele>1444.5999755859</ele>
        <time>2021-05-20T12:10:52Z</time>
      </trkpt>
      <trkpt lat="46.34304" lon="6.68717">
        <ele>1441.5999755859</ele>
        <time>2021-05-20T12:11:09Z</time>
      </trkpt>
      <trkpt lat="46.34292" lon="6.68677">
        <ele>1440.4000244141</ele>
        <time>2021-05-20T12:11:26Z</time>
      </trkpt>
      <trkpt lat="46.3429" lon="6.68665">
        <ele>1440.1999511719</ele>
        <time>2021-05-20T12:11:41Z</time>
      </trkpt>
      <trkpt lat="46.34289" lon="6.68663">
        <ele>1440</ele>
        <time>2021-05-20T12:11:51Z</time>
      </trkpt>
      <trkpt lat="46.34285" lon="6.68621">
        <ele>1440</ele>
        <time>2021-05-20T12:12:10Z</time>
      </trkpt>
      <trkpt lat="46.34286" lon="6.68606">
        <ele>1441.5999755859</ele>
        <time>2021-05-20T12:12:25Z</time>
      </trkpt>
      <trkpt lat="46.34288" lon="6.68585">
        <ele>1443</ele>
        <time>2021-05-20T12:12:42Z</time>
      </trkpt>
      <trkpt lat="46.34292" lon="6.68557">
        <ele>1446</ele>
        <time>2021-05-20T12:13:06Z</time>
      </trkpt>
      <trkpt lat="46.34292" lon="6.68527">
        <ele>1449.4000244141</ele>
        <time>2021-05-20T12:13:31Z</time>
      </trkpt>
      <trkpt lat="46.34291" lon="6.68516">
        <ele>1450.5999755859</ele>
        <time>2021-05-20T12:13:55Z</time>
      </trkpt>
      <trkpt lat="46.34291" lon="6.68498">
        <ele>1452.1999511719</ele>
        <time>2021-05-20T12:14:14Z</time>
      </trkpt>
      <trkpt lat="46.34291" lon="6.68479">
        <ele>1455.1999511719</ele>
        <time>2021-05-20T12:14:34Z</time>
      </trkpt>
      <trkpt lat="46.34292" lon="6.68473">
        <ele>1458.1999511719</ele>
        <time>2021-05-20T12:14:50Z</time>
      </trkpt>
      <trkpt lat="46.34293" lon="6.68455">
        <ele>1459.8000488281</ele>
        <time>2021-05-20T12:15:15Z</time>
      </trkpt>
      <trkpt lat="46.34294" lon="6.68439">
        <ele>1462.8000488281</ele>
        <time>2021-05-20T12:15:36Z</time>
      </trkpt>
      <trkpt lat="46.34299" lon="6.68418">
        <ele>1465.8000488281</ele>
        <time>2021-05-20T12:16:08Z</time>
      </trkpt>
      <trkpt lat="46.34302" lon="6.68407">
        <ele>1468.8000488281</ele>
        <time>2021-05-20T12:16:29Z</time>
      </trkpt>
      <trkpt lat="46.34307" lon="6.68398">
        <ele>1470.5999755859</ele>
        <time>2021-05-20T12:16:48Z</time>
      </trkpt>
      <trkpt lat="46.34313" lon="6.68406">
        <ele>1472.8000488281</ele>
        <time>2021-05-20T12:17:06Z</time>
      </trkpt>
      <trkpt lat="46.3432" lon="6.68418">
        <ele>1475.8000488281</ele>
        <time>2021-05-20T12:17:28Z</time>
      </trkpt>
      <trkpt lat="46.34326" lon="6.68427">
        <ele>1478</ele>
        <time>2021-05-20T12:17:53Z</time>
      </trkpt>
      <trkpt lat="46.34333" lon="6.68436">
        <ele>1481</ele>
        <time>2021-05-20T12:18:12Z</time>
      </trkpt>
      <trkpt lat="46.34336" lon="6.68433">
        <ele>1481.5999755859</ele>
        <time>2021-05-20T12:18:28Z</time>
      </trkpt>
      <trkpt lat="46.34337" lon="6.68409">
        <ele>1484.5999755859</ele>
        <time>2021-05-20T12:18:51Z</time>
      </trkpt>
      <trkpt lat="46.34337" lon="6.68402">
        <ele>1486.5999755859</ele>
        <time>2021-05-20T12:19:14Z</time>
      </trkpt>
      <trkpt lat="46.34343" lon="6.68408">
        <ele>1487.1999511719</ele>
        <time>2021-05-20T12:19:29Z</time>
      </trkpt>
      <trkpt lat="46.34347" lon="6.6841">
        <ele>1490.1999511719</ele>
        <time>2021-05-20T12:19:47Z</time>
      </trkpt>
      <trkpt lat="46.34354" lon="6.68418">
        <ele>1491.4000244141</ele>
        <time>2021-05-20T12:20:05Z</time>
      </trkpt>
      <trkpt lat="46.34362" lon="6.68425">
        <ele>1493.8000488281</ele>
        <time>2021-05-20T12:20:32Z</time>
      </trkpt>
      <trkpt lat="46.34362" lon="6.68418">
        <ele>1496.1999511719</ele>
        <time>2021-05-20T12:20:45Z</time>
      </trkpt>
      <trkpt lat="46.3436" lon="6.68418">
        <ele>1496.8000488281</ele>
        <time>2021-05-20T12:22:06Z</time>
      </trkpt>
      <trkpt lat="46.3436" lon="6.68404">
        <ele>1498</ele>
        <time>2021-05-20T12:22:36Z</time>
      </trkpt>
      <trkpt lat="46.34362" lon="6.68405">
        <ele>1500.8000488281</ele>
        <time>2021-05-20T12:22:54Z</time>
      </trkpt>
      <trkpt lat="46.34367" lon="6.68418">
        <ele>1502.1999511719</ele>
        <time>2021-05-20T12:23:12Z</time>
      </trkpt>
      <trkpt lat="46.34368" lon="6.68417">
        <ele>1503.5999755859</ele>
        <time>2021-05-20T12:23:23Z</time>
      </trkpt>
      <trkpt lat="46.34369" lon="6.68402">
        <ele>1506</ele>
        <time>2021-05-20T12:23:41Z</time>
      </trkpt>
      <trkpt lat="46.34371" lon="6.68395">
        <ele>1508.1999511719</ele>
        <time>2021-05-20T12:23:59Z</time>
      </trkpt>
      <trkpt lat="46.3437" lon="6.68374">
        <ele>1510.5999755859</ele>
        <time>2021-05-20T12:24:21Z</time>
      </trkpt>
      <trkpt lat="46.34373" lon="6.68361">
        <ele>1513.5999755859</ele>
        <time>2021-05-20T12:24:37Z</time>
      </trkpt>
      <trkpt lat="46.34376" lon="6.68341">
        <ele>1516.8000488281</ele>
        <time>2021-05-20T12:24:58Z</time>
      </trkpt>
      <trkpt lat="46.3438" lon="6.68339">
        <ele>1519.5999755859</ele>
        <time>2021-05-20T12:25:19Z</time>
      </trkpt>
      <trkpt lat="46.34387" lon="6.68331">
        <ele>1520.5999755859</ele>
        <time>2021-05-20T12:25:36Z</time>
      </trkpt>
      <trkpt lat="46.34394" lon="6.6831">
        <ele>1523.5999755859</ele>
        <time>2021-05-20T12:25:53Z</time>
      </trkpt>
      <trkpt lat="46.34394" lon="6.68301">
        <ele>1524.4000244141</ele>
        <time>2021-05-20T12:26:08Z</time>
      </trkpt>
      <trkpt lat="46.34405" lon="6.68268">
        <ele>1524.4000244141</ele>
        <time>2021-05-20T12:26:27Z</time>
      </trkpt>
      <trkpt lat="46.3441" lon="6.68262">
        <ele>1524.4000244141</ele>
        <time>2021-05-20T12:26:41Z</time>
      </trkpt>
      <trkpt lat="46.34417" lon="6.68257">
        <ele>1524.5999755859</ele>
        <time>2021-05-20T12:27:17Z</time>
      </trkpt>
      <trkpt lat="46.34417" lon="6.68243">
        <ele>1521.8000488281</ele>
        <time>2021-05-20T12:27:42Z</time>
      </trkpt>
      <trkpt lat="46.34416" lon="6.6823">
        <ele>1518.5999755859</ele>
        <time>2021-05-20T12:27:54Z</time>
      </trkpt>
      <trkpt lat="46.34415" lon="6.68225">
        <ele>1515.5999755859</ele>
        <time>2021-05-20T12:28:07Z</time>
      </trkpt>
      <trkpt lat="46.34415" lon="6.68221">
        <ele>1515.1999511719</ele>
        <time>2021-05-20T12:28:14Z</time>
      </trkpt>
      <trkpt lat="46.34415" lon="6.68209">
        <ele>1514.4000244141</ele>
        <time>2021-05-20T12:28:18Z</time>
      </trkpt>
      <trkpt lat="46.34409" lon="6.6818">
        <ele>1510.5999755859</ele>
        <time>2021-05-20T12:28:27Z</time>
      </trkpt>
      <trkpt lat="46.34408" lon="6.68161">
        <ele>1507.5999755859</ele>
        <time>2021-05-20T12:28:32Z</time>
      </trkpt>
      <trkpt lat="46.34407" lon="6.68138">
        <ele>1505.8000488281</ele>
        <time>2021-05-20T12:28:36Z</time>
      </trkpt>
      <trkpt lat="46.34412" lon="6.68103">
        <ele>1502.5999755859</ele>
        <time>2021-05-20T12:28:42Z</time>
      </trkpt>
      <trkpt lat="46.34412" lon="6.68096">
        <ele>1499.5999755859</ele>
        <time>2021-05-20T12:28:46Z</time>
      </trkpt>
      <trkpt lat="46.34412" lon="6.68094">
        <ele>1498</ele>
        <time>2021-05-20T12:28:49Z</time>
      </trkpt>
      <trkpt lat="46.34413" lon="6.68086">
        <ele>1497.5999755859</ele>
        <time>2021-05-20T12:28:53Z</time>
      </trkpt>
      <trkpt lat="46.34417" lon="6.68051">
        <ele>1497.4000244141</ele>
        <time>2021-05-20T12:29:08Z</time>
      </trkpt>
      <trkpt lat="46.34427" lon="6.68037">
        <ele>1496.8000488281</ele>
        <time>2021-05-20T12:29:19Z</time>
      </trkpt>
      <trkpt lat="46.34436" lon="6.68012">
        <ele>1494</ele>
        <time>2021-05-20T12:29:50Z</time>
      </trkpt>
      <trkpt lat="46.34446" lon="6.67974">
        <ele>1492</ele>
        <time>2021-05-20T12:30:01Z</time>
      </trkpt>
      <trkpt lat="46.34451" lon="6.67962">
        <ele>1490.4000244141</ele>
        <time>2021-05-20T12:30:04Z</time>
      </trkpt>
      <trkpt lat="46.34464" lon="6.67927">
        <ele>1486.5999755859</ele>
        <time>2021-05-20T12:30:12Z</time>
      </trkpt>
      <trkpt lat="46.34469" lon="6.67914">
        <ele>1482.8000488281</ele>
        <time>2021-05-20T12:30:16Z</time>
      </trkpt>
      <trkpt lat="46.34478" lon="6.6789">
        <ele>1479.1999511719</ele>
        <time>2021-05-20T12:30:21Z</time>
      </trkpt>
      <trkpt lat="46.34481" lon="6.67884">
        <ele>1478.5999755859</ele>
        <time>2021-05-20T12:30:22Z</time>
      </trkpt>
      <trkpt lat="46.34498" lon="6.67856">
        <ele>1474.1999511719</ele>
        <time>2021-05-20T12:30:27Z</time>
      </trkpt>
      <trkpt lat="46.34507" lon="6.67843">
        <ele>1469.5999755859</ele>
        <time>2021-05-20T12:30:30Z</time>
      </trkpt>
      <trkpt lat="46.34512" lon="6.67834">
        <ele>1466.1999511719</ele>
        <time>2021-05-20T12:30:32Z</time>
      </trkpt>
      <trkpt lat="46.34518" lon="6.67821">
        <ele>1462</ele>
        <time>2021-05-20T12:30:35Z</time>
      </trkpt>
      <trkpt lat="46.34521" lon="6.67815">
        <ele>1458.1999511719</ele>
        <time>2021-05-20T12:30:39Z</time>
      </trkpt>
      <trkpt lat="46.34521" lon="6.67815">
        <ele>1457.4000244141</ele>
        <time>2021-05-20T12:30:40Z</time>
      </trkpt>
      <trkpt lat="46.34532" lon="6.67798">
        <ele>1453.5999755859</ele>
        <time>2021-05-20T12:30:45Z</time>
      </trkpt>
      <trkpt lat="46.34535" lon="6.67792">
        <ele>1453.4000244141</ele>
        <time>2021-05-20T12:30:46Z</time>
      </trkpt>
      <trkpt lat="46.34551" lon="6.67761">
        <ele>1452.1999511719</ele>
        <time>2021-05-20T12:30:51Z</time>
      </trkpt>
      <trkpt lat="46.34562" lon="6.67739">
        <ele>1448.1999511719</ele>
        <time>2021-05-20T12:30:55Z</time>
      </trkpt>
      <trkpt lat="46.34568" lon="6.67728">
        <ele>1445.5999755859</ele>
        <time>2021-05-20T12:30:57Z</time>
      </trkpt>
      <trkpt lat="46.34576" lon="6.67714">
        <ele>1444.1999511719</ele>
        <time>2021-05-20T12:31:00Z</time>
      </trkpt>
      <trkpt lat="46.3458" lon="6.67707">
        <ele>1443.4000244141</ele>
        <time>2021-05-20T12:31:02Z</time>
      </trkpt>
      <trkpt lat="46.34599" lon="6.67675">
        <ele>1440.1999511719</ele>
        <time>2021-05-20T12:31:13Z</time>
      </trkpt>
      <trkpt lat="46.34625" lon="6.67655">
        <ele>1441.1999511719</ele>
        <time>2021-05-20T12:31:29Z</time>
      </trkpt>
      <trkpt lat="46.34646" lon="6.67643">
        <ele>1443.5999755859</ele>
        <time>2021-05-20T12:31:45Z</time>
      </trkpt>
      <trkpt lat="46.34651" lon="6.67635">
        <ele>1444.1999511719</ele>
        <time>2021-05-20T12:31:50Z</time>
      </trkpt>
      <trkpt lat="46.34657" lon="6.67593">
        <ele>1444.4000244141</ele>
        <time>2021-05-20T12:32:06Z</time>
      </trkpt>
      <trkpt lat="46.34648" lon="6.67547">
        <ele>1444.1999511719</ele>
        <time>2021-05-20T12:32:20Z</time>
      </trkpt>
      <trkpt lat="46.34636" lon="6.67514">
        <ele>1443</ele>
        <time>2021-05-20T12:32:30Z</time>
      </trkpt>
      <trkpt lat="46.34615" lon="6.67487">
        <ele>1441.8000488281</ele>
        <time>2021-05-20T12:32:42Z</time>
      </trkpt>
      <trkpt lat="46.34597" lon="6.67459">
        <ele>1441.1999511719</ele>
        <time>2021-05-20T12:32:52Z</time>
      </trkpt>
      <trkpt lat="46.3459" lon="6.67451">
        <ele>1440.4000244141</ele>
        <time>2021-05-20T12:32:55Z</time>
      </trkpt>
      <trkpt lat="46.34568" lon="6.67425">
        <ele>1439.4000244141</ele>
        <time>2021-05-20T12:33:06Z</time>
      </trkpt>
      <trkpt lat="46.34555" lon="6.67411">
        <ele>1438.8000488281</ele>
        <time>2021-05-20T12:33:11Z</time>
      </trkpt>
      <trkpt lat="46.3454" lon="6.67396">
        <ele>1437.8000488281</ele>
        <time>2021-05-20T12:33:16Z</time>
      </trkpt>
      <trkpt lat="46.34526" lon="6.67362">
        <ele>1435.4000244141</ele>
        <time>2021-05-20T12:33:24Z</time>
      </trkpt>
      <trkpt lat="46.34524" lon="6.67355">
        <ele>1434.1999511719</ele>
        <time>2021-05-20T12:33:27Z</time>
      </trkpt>
      <trkpt lat="46.3452" lon="6.67335">
        <ele>1431.8000488281</ele>
        <time>2021-05-20T12:33:33Z</time>
      </trkpt>
      <trkpt lat="46.34513" lon="6.67298">
        <ele>1430.4000244141</ele>
        <time>2021-05-20T12:33:44Z</time>
      </trkpt>
      <trkpt lat="46.34513" lon="6.67278">
        <ele>1427</ele>
        <time>2021-05-20T12:33:51Z</time>
      </trkpt>
      <trkpt lat="46.34512" lon="6.67275">
        <ele>1423.8000488281</ele>
        <time>2021-05-20T12:33:56Z</time>
      </trkpt>
      <trkpt lat="46.34512" lon="6.67271">
        <ele>1420.8000488281</ele>
        <time>2021-05-20T12:34:02Z</time>
      </trkpt>
      <trkpt lat="46.34511" lon="6.67261">
        <ele>1419.5999755859</ele>
        <time>2021-05-20T12:34:11Z</time>
      </trkpt>
      <trkpt lat="46.34514" lon="6.67265">
        <ele>1418.5999755859</ele>
        <time>2021-05-20T12:34:38Z</time>
      </trkpt>
      <trkpt lat="46.34514" lon="6.67265">
        <ele>1418.1999511719</ele>
        <time>2021-05-20T12:34:42Z</time>
      </trkpt>
      <trkpt lat="46.34513" lon="6.67255">
        <ele>1418</ele>
        <time>2021-05-20T12:34:46Z</time>
      </trkpt>
      <trkpt lat="46.345" lon="6.67206">
        <ele>1417.4000244141</ele>
        <time>2021-05-20T12:34:56Z</time>
      </trkpt>
      <trkpt lat="46.34496" lon="6.67183">
        <ele>1415.8000488281</ele>
        <time>2021-05-20T12:35:00Z</time>
      </trkpt>
      <trkpt lat="46.34492" lon="6.67161">
        <ele>1412</ele>
        <time>2021-05-20T12:35:06Z</time>
      </trkpt>
      <trkpt lat="46.3449" lon="6.67143">
        <ele>1408.5999755859</ele>
        <time>2021-05-20T12:35:12Z</time>
      </trkpt>
      <trkpt lat="46.34479" lon="6.67098">
        <ele>1406.8000488281</ele>
        <time>2021-05-20T12:35:23Z</time>
      </trkpt>
      <trkpt lat="46.34483" lon="6.67074">
        <ele>1405.4000244141</ele>
        <time>2021-05-20T12:35:28Z</time>
      </trkpt>
      <trkpt lat="46.34482" lon="6.67069">
        <ele>1401.8000488281</ele>
        <time>2021-05-20T12:35:35Z</time>
      </trkpt>
      <trkpt lat="46.34481" lon="6.67067">
        <ele>1400.5999755859</ele>
        <time>2021-05-20T12:35:44Z</time>
      </trkpt>
      <trkpt lat="46.34491" lon="6.67015">
        <ele>1400.1999511719</ele>
        <time>2021-05-20T12:35:54Z</time>
      </trkpt>
      <trkpt lat="46.34493" lon="6.66989">
        <ele>1398.1999511719</ele>
        <time>2021-05-20T12:35:58Z</time>
      </trkpt>
      <trkpt lat="46.34491" lon="6.66965">
        <ele>1393.8000488281</ele>
        <time>2021-05-20T12:36:02Z</time>
      </trkpt>
      <trkpt lat="46.34489" lon="6.66951">
        <ele>1390.5999755859</ele>
        <time>2021-05-20T12:36:05Z</time>
      </trkpt>
      <trkpt lat="46.34489" lon="6.66931">
        <ele>1387</ele>
        <time>2021-05-20T12:36:09Z</time>
      </trkpt>
      <trkpt lat="46.34491" lon="6.66909">
        <ele>1383.5999755859</ele>
        <time>2021-05-20T12:36:14Z</time>
      </trkpt>
      <trkpt lat="46.34493" lon="6.66898">
        <ele>1380.4000244141</ele>
        <time>2021-05-20T12:36:18Z</time>
      </trkpt>
      <trkpt lat="46.34492" lon="6.66892">
        <ele>1377</ele>
        <time>2021-05-20T12:36:22Z</time>
      </trkpt>
      <trkpt lat="46.34493" lon="6.66892">
        <ele>1373.4000244141</ele>
        <time>2021-05-20T12:36:28Z</time>
      </trkpt>
      <trkpt lat="46.34492" lon="6.6689">
        <ele>1371.5999755859</ele>
        <time>2021-05-20T12:37:02Z</time>
      </trkpt>
      <trkpt lat="46.34492" lon="6.66889">
        <ele>1371.4000244141</ele>
        <time>2021-05-20T12:37:06Z</time>
      </trkpt>
      <trkpt lat="46.34495" lon="6.66839">
        <ele>1371.1999511719</ele>
        <time>2021-05-20T12:37:17Z</time>
      </trkpt>
      <trkpt lat="46.34498" lon="6.66814">
        <ele>1367.8000488281</ele>
        <time>2021-05-20T12:37:22Z</time>
      </trkpt>
      <trkpt lat="46.345" lon="6.66794">
        <ele>1364.4000244141</ele>
        <time>2021-05-20T12:37:27Z</time>
      </trkpt>
      <trkpt lat="46.345" lon="6.66793">
        <ele>1361</ele>
        <time>2021-05-20T12:37:32Z</time>
      </trkpt>
      <trkpt lat="46.34501" lon="6.66792">
        <ele>1359.5999755859</ele>
        <time>2021-05-20T12:37:36Z</time>
      </trkpt>
      <trkpt lat="46.34502" lon="6.6678">
        <ele>1359.1999511719</ele>
        <time>2021-05-20T12:37:40Z</time>
      </trkpt>
      <trkpt lat="46.34507" lon="6.66743">
        <ele>1356.5999755859</ele>
        <time>2021-05-20T12:37:52Z</time>
      </trkpt>
      <trkpt lat="46.34519" lon="6.66724">
        <ele>1353.5999755859</ele>
        <time>2021-05-20T12:37:58Z</time>
      </trkpt>
      <trkpt lat="46.34529" lon="6.66705">
        <ele>1350</ele>
        <time>2021-05-20T12:38:03Z</time>
      </trkpt>
      <trkpt lat="46.34534" lon="6.66676">
        <ele>1345.8000488281</ele>
        <time>2021-05-20T12:38:07Z</time>
      </trkpt>
      <trkpt lat="46.34535" lon="6.66659">
        <ele>1343.4000244141</ele>
        <time>2021-05-20T12:38:09Z</time>
      </trkpt>
      <trkpt lat="46.34531" lon="6.66628">
        <ele>1339</ele>
        <time>2021-05-20T12:38:14Z</time>
      </trkpt>
      <trkpt lat="46.34528" lon="6.66612">
        <ele>1336.1999511719</ele>
        <time>2021-05-20T12:38:19Z</time>
      </trkpt>
      <trkpt lat="46.34514" lon="6.6655">
        <ele>1334.8000488281</ele>
        <time>2021-05-20T12:38:36Z</time>
      </trkpt>
      <trkpt lat="46.34518" lon="6.66506">
        <ele>1334</ele>
        <time>2021-05-20T12:38:51Z</time>
      </trkpt>
      <trkpt lat="46.34534" lon="6.66482">
        <ele>1335</ele>
        <time>2021-05-20T12:39:06Z</time>
      </trkpt>
      <trkpt lat="46.34542" lon="6.66474">
        <ele>1335.4000244141</ele>
        <time>2021-05-20T12:39:12Z</time>
      </trkpt>
      <trkpt lat="46.34548" lon="6.66466">
        <ele>1335.5999755859</ele>
        <time>2021-05-20T12:39:18Z</time>
      </trkpt>
      <trkpt lat="46.34576" lon="6.66438">
        <ele>1338</ele>
        <time>2021-05-20T12:39:44Z</time>
      </trkpt>
      <trkpt lat="46.34584" lon="6.66409">
        <ele>1340</ele>
        <time>2021-05-20T12:40:02Z</time>
      </trkpt>
      <trkpt lat="46.34584" lon="6.6639">
        <ele>1342</ele>
        <time>2021-05-20T12:40:18Z</time>
      </trkpt>
      <trkpt lat="46.34583" lon="6.66391">
        <ele>1341.8000488281</ele>
        <time>2021-05-20T12:41:10Z</time>
      </trkpt>
      <trkpt lat="46.34584" lon="6.66388">
        <ele>1341.8000488281</ele>
        <time>2021-05-20T12:41:12Z</time>
      </trkpt>
      <trkpt lat="46.34585" lon="6.66386">
        <ele>1341.8000488281</ele>
        <time>2021-05-20T12:41:13Z</time>
      </trkpt>
      <trkpt lat="46.34586" lon="6.66383">
        <ele>1341.8000488281</ele>
        <time>2021-05-20T12:41:14Z</time>
      </trkpt>
      <trkpt lat="46.34587" lon="6.66379">
        <ele>1341.8000488281</ele>
        <time>2021-05-20T12:41:15Z</time>
      </trkpt>
      <trkpt lat="46.34589" lon="6.66373">
        <ele>1341.8000488281</ele>
        <time>2021-05-20T12:41:17Z</time>
      </trkpt>
      <trkpt lat="46.34591" lon="6.66371">
        <ele>1341.8000488281</ele>
        <time>2021-05-20T12:41:18Z</time>
      </trkpt>
      <trkpt lat="46.34604" lon="6.66353">
        <ele>1341.4000244141</ele>
        <time>2021-05-20T12:41:23Z</time>
      </trkpt>
      <trkpt lat="46.34648" lon="6.66304">
        <ele>1337.5999755859</ele>
        <time>2021-05-20T12:41:31Z</time>
      </trkpt>
      <trkpt lat="46.34655" lon="6.66295">
        <ele>1334.4000244141</ele>
        <time>2021-05-20T12:41:33Z</time>
      </trkpt>
      <trkpt lat="46.34663" lon="6.66282">
        <ele>1331.4000244141</ele>
        <time>2021-05-20T12:41:36Z</time>
      </trkpt>
      <trkpt lat="46.34665" lon="6.66272">
        <ele>1330.1999511719</ele>
        <time>2021-05-20T12:41:41Z</time>
      </trkpt>
      <trkpt lat="46.3466" lon="6.66277">
        <ele>1329.8000488281</ele>
        <time>2021-05-20T12:41:47Z</time>
      </trkpt>
      <trkpt lat="46.34652" lon="6.6627">
        <ele>1328.5999755859</ele>
        <time>2021-05-20T12:42:01Z</time>
      </trkpt>
      <trkpt lat="46.34653" lon="6.66255">
        <ele>1328.5999755859</ele>
        <time>2021-05-20T12:42:12Z</time>
      </trkpt>
      <trkpt lat="46.3466" lon="6.66241">
        <ele>1328.5999755859</ele>
        <time>2021-05-20T12:42:17Z</time>
      </trkpt>
      <trkpt lat="46.34658" lon="6.66221">
        <ele>1327.8000488281</ele>
        <time>2021-05-20T12:42:21Z</time>
      </trkpt>
      <trkpt lat="46.3466" lon="6.66194">
        <ele>1326.1999511719</ele>
        <time>2021-05-20T12:42:25Z</time>
      </trkpt>
      <trkpt lat="46.34659" lon="6.66139">
        <ele>1322</ele>
        <time>2021-05-20T12:42:31Z</time>
      </trkpt>
      <trkpt lat="46.3466" lon="6.66132">
        <ele>1321</ele>
        <time>2021-05-20T12:42:32Z</time>
      </trkpt>
      <trkpt lat="46.34664" lon="6.66108">
        <ele>1317</ele>
        <time>2021-05-20T12:42:36Z</time>
      </trkpt>
      <trkpt lat="46.34673" lon="6.66088">
        <ele>1314</ele>
        <time>2021-05-20T12:42:41Z</time>
      </trkpt>
      <trkpt lat="46.34688" lon="6.66057">
        <ele>1311</ele>
        <time>2021-05-20T12:42:47Z</time>
      </trkpt>
      <trkpt lat="46.34703" lon="6.66016">
        <ele>1306.4000244141</ele>
        <time>2021-05-20T12:42:52Z</time>
      </trkpt>
      <trkpt lat="46.34717" lon="6.65992">
        <ele>1304.4000244141</ele>
        <time>2021-05-20T12:42:55Z</time>
      </trkpt>
      <trkpt lat="46.34739" lon="6.65973">
        <ele>1299</ele>
        <time>2021-05-20T12:43:00Z</time>
      </trkpt>
      <trkpt lat="46.34754" lon="6.65969">
        <ele>1294.8000488281</ele>
        <time>2021-05-20T12:43:05Z</time>
      </trkpt>
      <trkpt lat="46.34768" lon="6.65968">
        <ele>1293.5999755859</ele>
        <time>2021-05-20T12:43:09Z</time>
      </trkpt>
      <trkpt lat="46.34779" lon="6.65955">
        <ele>1291</ele>
        <time>2021-05-20T12:43:15Z</time>
      </trkpt>
      <trkpt lat="46.34782" lon="6.6595">
        <ele>1288.8000488281</ele>
        <time>2021-05-20T12:43:18Z</time>
      </trkpt>
      <trkpt lat="46.34785" lon="6.65939">
        <ele>1286.5999755859</ele>
        <time>2021-05-20T12:43:22Z</time>
      </trkpt>
      <trkpt lat="46.34788" lon="6.65923">
        <ele>1282.4000244141</ele>
        <time>2021-05-20T12:43:27Z</time>
      </trkpt>
      <trkpt lat="46.34792" lon="6.65907">
        <ele>1279</ele>
        <time>2021-05-20T12:43:31Z</time>
      </trkpt>
      <trkpt lat="46.34792" lon="6.65891">
        <ele>1275.1999511719</ele>
        <time>2021-05-20T12:43:35Z</time>
      </trkpt>
      <trkpt lat="46.34794" lon="6.65875">
        <ele>1271.8000488281</ele>
        <time>2021-05-20T12:43:38Z</time>
      </trkpt>
      <trkpt lat="46.34794" lon="6.65855">
        <ele>1268</ele>
        <time>2021-05-20T12:43:42Z</time>
      </trkpt>
      <trkpt lat="46.34796" lon="6.65833">
        <ele>1264.4000244141</ele>
        <time>2021-05-20T12:43:47Z</time>
      </trkpt>
      <trkpt lat="46.34796" lon="6.65818">
        <ele>1262</ele>
        <time>2021-05-20T12:43:50Z</time>
      </trkpt>
      <trkpt lat="46.34797" lon="6.65804">
        <ele>1258.8000488281</ele>
        <time>2021-05-20T12:43:53Z</time>
      </trkpt>
      <trkpt lat="46.34801" lon="6.65786">
        <ele>1255.1999511719</ele>
        <time>2021-05-20T12:43:58Z</time>
      </trkpt>
      <trkpt lat="46.34802" lon="6.65755">
        <ele>1251</ele>
        <time>2021-05-20T12:44:02Z</time>
      </trkpt>
      <trkpt lat="46.34797" lon="6.65735">
        <ele>1248.1999511719</ele>
        <time>2021-05-20T12:44:05Z</time>
      </trkpt>
      <trkpt lat="46.34798" lon="6.65713">
        <ele>1244.8000488281</ele>
        <time>2021-05-20T12:44:08Z</time>
      </trkpt>
      <trkpt lat="46.34794" lon="6.65673">
        <ele>1239.8000488281</ele>
        <time>2021-05-20T12:44:12Z</time>
      </trkpt>
      <trkpt lat="46.34788" lon="6.65628">
        <ele>1235.1999511719</ele>
        <time>2021-05-20T12:44:16Z</time>
      </trkpt>
      <trkpt lat="46.34787" lon="6.65618">
        <ele>1232.4000244141</ele>
        <time>2021-05-20T12:44:17Z</time>
      </trkpt>
      <trkpt lat="46.34788" lon="6.65612">
        <ele>1227</ele>
        <time>2021-05-20T12:44:21Z</time>
      </trkpt>
      <trkpt lat="46.34789" lon="6.65613">
        <ele>1223</ele>
        <time>2021-05-20T12:44:25Z</time>
      </trkpt>
      <trkpt lat="46.34788" lon="6.65614">
        <ele>1222.1999511719</ele>
        <time>2021-05-20T12:44:27Z</time>
      </trkpt>
      <trkpt lat="46.34786" lon="6.65612">
        <ele>1222</ele>
        <time>2021-05-20T12:44:37Z</time>
      </trkpt>
      <trkpt lat="46.34786" lon="6.6559">
        <ele>1222</ele>
        <time>2021-05-20T12:44:41Z</time>
      </trkpt>
      <trkpt lat="46.34799" lon="6.65548">
        <ele>1218.8000488281</ele>
        <time>2021-05-20T12:44:51Z</time>
      </trkpt>
      <trkpt lat="46.34806" lon="6.65544">
        <ele>1215</ele>
        <time>2021-05-20T12:44:56Z</time>
      </trkpt>
      <trkpt lat="46.348" lon="6.65544">
        <ele>1213.5999755859</ele>
        <time>2021-05-20T12:44:59Z</time>
      </trkpt>
      <trkpt lat="46.348" lon="6.65545">
        <ele>1213.4000244141</ele>
        <time>2021-05-20T12:45:03Z</time>
      </trkpt>
      <trkpt lat="46.34795" lon="6.65539">
        <ele>1213.1999511719</ele>
        <time>2021-05-20T12:45:12Z</time>
      </trkpt>
      <trkpt lat="46.34796" lon="6.65526">
        <ele>1213</ele>
        <time>2021-05-20T12:45:16Z</time>
      </trkpt>
      <trkpt lat="46.34807" lon="6.6547">
        <ele>1211.1999511719</ele>
        <time>2021-05-20T12:45:26Z</time>
      </trkpt>
      <trkpt lat="46.34805" lon="6.65449">
        <ele>1208.5999755859</ele>
        <time>2021-05-20T12:45:30Z</time>
      </trkpt>
      <trkpt lat="46.34801" lon="6.65438">
        <ele>1206.8000488281</ele>
        <time>2021-05-20T12:45:32Z</time>
      </trkpt>
      <trkpt lat="46.348" lon="6.6542">
        <ele>1203.8000488281</ele>
        <time>2021-05-20T12:45:35Z</time>
      </trkpt>
      <trkpt lat="46.34799" lon="6.65404">
        <ele>1203</ele>
        <time>2021-05-20T12:45:37Z</time>
      </trkpt>
      <trkpt lat="46.34798" lon="6.65383">
        <ele>1202.1999511719</ele>
        <time>2021-05-20T12:45:40Z</time>
      </trkpt>
      <trkpt lat="46.34797" lon="6.65362">
        <ele>1200.8000488281</ele>
        <time>2021-05-20T12:45:43Z</time>
      </trkpt>
      <trkpt lat="46.34797" lon="6.65337">
        <ele>1198</ele>
        <time>2021-05-20T12:45:47Z</time>
      </trkpt>
      <trkpt lat="46.3479" lon="6.65308">
        <ele>1194</ele>
        <time>2021-05-20T12:45:51Z</time>
      </trkpt>
      <trkpt lat="46.34789" lon="6.65293">
        <ele>1192.5999755859</ele>
        <time>2021-05-20T12:45:53Z</time>
      </trkpt>
      <trkpt lat="46.34777" lon="6.65248">
        <ele>1188.4000244141</ele>
        <time>2021-05-20T12:45:58Z</time>
      </trkpt>
      <trkpt lat="46.34768" lon="6.65209">
        <ele>1184</ele>
        <time>2021-05-20T12:46:03Z</time>
      </trkpt>
      <trkpt lat="46.34765" lon="6.65195">
        <ele>1181.5999755859</ele>
        <time>2021-05-20T12:46:05Z</time>
      </trkpt>
      <trkpt lat="46.34753" lon="6.65173">
        <ele>1176.8000488281</ele>
        <time>2021-05-20T12:46:09Z</time>
      </trkpt>
      <trkpt lat="46.34753" lon="6.65148">
        <ele>1173.5999755859</ele>
        <time>2021-05-20T12:46:13Z</time>
      </trkpt>
      <trkpt lat="46.34753" lon="6.65121">
        <ele>1169.5999755859</ele>
        <time>2021-05-20T12:46:17Z</time>
      </trkpt>
      <trkpt lat="46.3475" lon="6.65095">
        <ele>1165.1999511719</ele>
        <time>2021-05-20T12:46:22Z</time>
      </trkpt>
      <trkpt lat="46.34749" lon="6.65091">
        <ele>1162.5999755859</ele>
        <time>2021-05-20T12:46:23Z</time>
      </trkpt>
      <trkpt lat="46.34748" lon="6.65057">
        <ele>1158.1999511719</ele>
        <time>2021-05-20T12:46:28Z</time>
      </trkpt>
      <trkpt lat="46.34748" lon="6.65019">
        <ele>1155</ele>
        <time>2021-05-20T12:46:32Z</time>
      </trkpt>
      <trkpt lat="46.34754" lon="6.64987">
        <ele>1150.8000488281</ele>
        <time>2021-05-20T12:46:36Z</time>
      </trkpt>
      <trkpt lat="46.34754" lon="6.6498">
        <ele>1149.5999755859</ele>
        <time>2021-05-20T12:46:37Z</time>
      </trkpt>
      <trkpt lat="46.34759" lon="6.64943">
        <ele>1145</ele>
        <time>2021-05-20T12:46:43Z</time>
      </trkpt>
      <trkpt lat="46.34761" lon="6.64931">
        <ele>1143.8000488281</ele>
        <time>2021-05-20T12:46:45Z</time>
      </trkpt>
      <trkpt lat="46.34765" lon="6.64897">
        <ele>1140.4000244141</ele>
        <time>2021-05-20T12:46:51Z</time>
      </trkpt>
      <trkpt lat="46.34765" lon="6.64882">
        <ele>1136.4000244141</ele>
        <time>2021-05-20T12:46:56Z</time>
      </trkpt>
      <trkpt lat="46.34767" lon="6.64869">
        <ele>1133.4000244141</ele>
        <time>2021-05-20T12:47:01Z</time>
      </trkpt>
      <trkpt lat="46.34772" lon="6.64842">
        <ele>1130.1999511719</ele>
        <time>2021-05-20T12:47:10Z</time>
      </trkpt>
      <trkpt lat="46.34774" lon="6.64824">
        <ele>1127</ele>
        <time>2021-05-20T12:47:15Z</time>
      </trkpt>
      <trkpt lat="46.34774" lon="6.64806">
        <ele>1125.4000244141</ele>
        <time>2021-05-20T12:47:19Z</time>
      </trkpt>
      <trkpt lat="46.34775" lon="6.64775">
        <ele>1124</ele>
        <time>2021-05-20T12:47:24Z</time>
      </trkpt>
      <trkpt lat="46.34783" lon="6.64737">
        <ele>1120.4000244141</ele>
        <time>2021-05-20T12:47:31Z</time>
      </trkpt>
      <trkpt lat="46.34787" lon="6.64729">
        <ele>1116.5999755859</ele>
        <time>2021-05-20T12:47:39Z</time>
      </trkpt>
      <trkpt lat="46.34787" lon="6.64729">
        <ele>1115.5999755859</ele>
        <time>2021-05-20T12:48:32Z</time>
      </trkpt>
      <trkpt lat="46.34783" lon="6.64705">
        <ele>1115.4000244141</ele>
        <time>2021-05-20T12:48:39Z</time>
      </trkpt>
      <trkpt lat="46.34779" lon="6.64614">
        <ele>1113.1999511719</ele>
        <time>2021-05-20T12:48:53Z</time>
      </trkpt>
      <trkpt lat="46.3477" lon="6.64555">
        <ele>1109.8000488281</ele>
        <time>2021-05-20T12:49:05Z</time>
      </trkpt>
      <trkpt lat="46.34768" lon="6.64553">
        <ele>1109</ele>
        <time>2021-05-20T12:49:30Z</time>
      </trkpt>
      <trkpt lat="46.34762" lon="6.64536">
        <ele>1108.8000488281</ele>
        <time>2021-05-20T12:49:36Z</time>
      </trkpt>
      <trkpt lat="46.34741" lon="6.64505">
        <ele>1107.1999511719</ele>
        <time>2021-05-20T12:49:44Z</time>
      </trkpt>
      <trkpt lat="46.34739" lon="6.64504">
        <ele>1104</ele>
        <time>2021-05-20T12:49:47Z</time>
      </trkpt>
      <trkpt lat="46.34743" lon="6.64484">
        <ele>1101</ele>
        <time>2021-05-20T12:50:02Z</time>
      </trkpt>
      <trkpt lat="46.3473" lon="6.64499">
        <ele>1100.8000488281</ele>
        <time>2021-05-20T12:50:08Z</time>
      </trkpt>
      <trkpt lat="46.34726" lon="6.645">
        <ele>1100.8000488281</ele>
        <time>2021-05-20T12:50:09Z</time>
      </trkpt>
      <trkpt lat="46.3472" lon="6.64498">
        <ele>1100.4000244141</ele>
        <time>2021-05-20T12:50:25Z</time>
      </trkpt>
      <trkpt lat="46.34726" lon="6.64499">
        <ele>1100.4000244141</ele>
        <time>2021-05-20T12:50:26Z</time>
      </trkpt>
      <trkpt lat="46.34723" lon="6.64491">
        <ele>1097.8000488281</ele>
        <time>2021-05-20T12:50:39Z</time>
      </trkpt>
      <trkpt lat="46.3471" lon="6.6449">
        <ele>1096.5999755859</ele>
        <time>2021-05-20T12:50:43Z</time>
      </trkpt>
      <trkpt lat="46.34675" lon="6.64493">
        <ele>1093.1999511719</ele>
        <time>2021-05-20T12:50:52Z</time>
      </trkpt>
      <trkpt lat="46.3466" lon="6.64498">
        <ele>1089.8000488281</ele>
        <time>2021-05-20T12:50:56Z</time>
      </trkpt>
      <trkpt lat="46.34656" lon="6.645">
        <ele>1089</ele>
        <time>2021-05-20T12:50:57Z</time>
      </trkpt>
      <trkpt lat="46.3464" lon="6.64504">
        <ele>1085</ele>
        <time>2021-05-20T12:51:01Z</time>
      </trkpt>
      <trkpt lat="46.34623" lon="6.64509">
        <ele>1081.4000244141</ele>
        <time>2021-05-20T12:51:05Z</time>
      </trkpt>
      <trkpt lat="46.34612" lon="6.64513">
        <ele>1077.8000488281</ele>
        <time>2021-05-20T12:51:08Z</time>
      </trkpt>
      <trkpt lat="46.34595" lon="6.64522">
        <ele>1074</ele>
        <time>2021-05-20T12:51:12Z</time>
      </trkpt>
      <trkpt lat="46.34582" lon="6.64522">
        <ele>1070.4000244141</ele>
        <time>2021-05-20T12:51:15Z</time>
      </trkpt>
      <trkpt lat="46.34568" lon="6.64523">
        <ele>1067</ele>
        <time>2021-05-20T12:51:18Z</time>
      </trkpt>
      <trkpt lat="46.34553" lon="6.64525">
        <ele>1063.1999511719</ele>
        <time>2021-05-20T12:51:21Z</time>
      </trkpt>
      <trkpt lat="46.34539" lon="6.64521">
        <ele>1058.5999755859</ele>
        <time>2021-05-20T12:51:24Z</time>
      </trkpt>
      <trkpt lat="46.34534" lon="6.64519">
        <ele>1055.5999755859</ele>
        <time>2021-05-20T12:51:25Z</time>
      </trkpt>
      <trkpt lat="46.3453" lon="6.64518">
        <ele>1055.5999755859</ele>
        <time>2021-05-20T12:51:26Z</time>
      </trkpt>
      <trkpt lat="46.34521" lon="6.6452">
        <ele>1052.1999511719</ele>
        <time>2021-05-20T12:51:28Z</time>
      </trkpt>
      <trkpt lat="46.34516" lon="6.64522">
        <ele>1051.1999511719</ele>
        <time>2021-05-20T12:51:29Z</time>
      </trkpt>
      <trkpt lat="46.34504" lon="6.64527">
        <ele>1049.1999511719</ele>
        <time>2021-05-20T12:51:31Z</time>
      </trkpt>
      <trkpt lat="46.34478" lon="6.64529">
        <ele>1043.8000488281</ele>
        <time>2021-05-20T12:51:36Z</time>
      </trkpt>
      <trkpt lat="46.34455" lon="6.64534">
        <ele>1039.1999511719</ele>
        <time>2021-05-20T12:51:40Z</time>
      </trkpt>
      <trkpt lat="46.34443" lon="6.6454">
        <ele>1037</ele>
        <time>2021-05-20T12:51:42Z</time>
      </trkpt>
      <trkpt lat="46.34444" lon="6.64534">
        <ele>1033</ele>
        <time>2021-05-20T12:51:46Z</time>
      </trkpt>
      <trkpt lat="46.34447" lon="6.64531">
        <ele>1032.1999511719</ele>
        <time>2021-05-20T12:51:47Z</time>
      </trkpt>
      <trkpt lat="46.34462" lon="6.64513">
        <ele>1029.4000244141</ele>
        <time>2021-05-20T12:51:51Z</time>
      </trkpt>
      <trkpt lat="46.34498" lon="6.64446">
        <ele>1025.5999755859</ele>
        <time>2021-05-20T12:51:59Z</time>
      </trkpt>
      <trkpt lat="46.3451" lon="6.64412">
        <ele>1021.200012207</ele>
        <time>2021-05-20T12:52:03Z</time>
      </trkpt>
      <trkpt lat="46.34519" lon="6.64384">
        <ele>1017.200012207</ele>
        <time>2021-05-20T12:52:06Z</time>
      </trkpt>
      <trkpt lat="46.3453" lon="6.64341">
        <ele>1013.799987793</ele>
        <time>2021-05-20T12:52:10Z</time>
      </trkpt>
      <trkpt lat="46.34541" lon="6.64294">
        <ele>1010.799987793</ele>
        <time>2021-05-20T12:52:14Z</time>
      </trkpt>
      <trkpt lat="46.34549" lon="6.64255">
        <ele>1007.4000244141</ele>
        <time>2021-05-20T12:52:17Z</time>
      </trkpt>
      <trkpt lat="46.34554" lon="6.6423">
        <ele>1003.4000244141</ele>
        <time>2021-05-20T12:52:19Z</time>
      </trkpt>
      <trkpt lat="46.34557" lon="6.64207">
        <ele>999.79998779297</ele>
        <time>2021-05-20T12:52:21Z</time>
      </trkpt>
      <trkpt lat="46.34561" lon="6.64186">
        <ele>996</ele>
        <time>2021-05-20T12:52:23Z</time>
      </trkpt>
      <trkpt lat="46.34566" lon="6.6416">
        <ele>994.20001220703</ele>
        <time>2021-05-20T12:52:26Z</time>
      </trkpt>
      <trkpt lat="46.34578" lon="6.64129">
        <ele>993.79998779297</ele>
        <time>2021-05-20T12:52:31Z</time>
      </trkpt>
      <trkpt lat="46.34604" lon="6.64076">
        <ele>997</ele>
        <time>2021-05-20T12:52:42Z</time>
      </trkpt>
      <trkpt lat="46.34629" lon="6.64023">
        <ele>999.20001220703</ele>
        <time>2021-05-20T12:52:56Z</time>
      </trkpt>
      <trkpt lat="46.34641" lon="6.63988">
        <ele>1001.4000244141</ele>
        <time>2021-05-20T12:53:11Z</time>
      </trkpt>
      <trkpt lat="46.34642" lon="6.63989">
        <ele>1003</ele>
        <time>2021-05-20T12:53:22Z</time>
      </trkpt>
      <trkpt lat="46.34646" lon="6.63974">
        <ele>1003</ele>
        <time>2021-05-20T12:53:26Z</time>
      </trkpt>
      <trkpt lat="46.34648" lon="6.63929">
        <ele>1000.799987793</ele>
        <time>2021-05-20T12:53:36Z</time>
      </trkpt>
      <trkpt lat="46.34647" lon="6.63923">
        <ele>998.59997558594</ele>
        <time>2021-05-20T12:53:46Z</time>
      </trkpt>
      <trkpt lat="46.34647" lon="6.63924">
        <ele>993.59997558594</ele>
        <time>2021-05-20T12:53:47Z</time>
      </trkpt>
      <trkpt lat="46.3464" lon="6.6392">
        <ele>997</ele>
        <time>2021-05-20T13:04:26Z</time>
      </trkpt>
      <trkpt lat="46.34629" lon="6.63903">
        <ele>995.59997558594</ele>
        <time>2021-05-20T13:04:31Z</time>
      </trkpt>
      <trkpt lat="46.34607" lon="6.63876">
        <ele>992.40002441406</ele>
        <time>2021-05-20T13:04:38Z</time>
      </trkpt>
      <trkpt lat="46.34582" lon="6.63848">
        <ele>988.20001220703</ele>
        <time>2021-05-20T13:04:42Z</time>
      </trkpt>
      <trkpt lat="46.34566" lon="6.6383">
        <ele>984.79998779297</ele>
        <time>2021-05-20T13:04:44Z</time>
      </trkpt>
      <trkpt lat="46.34557" lon="6.63821">
        <ele>988.79998779297</ele>
        <time>2021-05-20T13:04:45Z</time>
      </trkpt>
      <trkpt lat="46.34538" lon="6.63801">
        <ele>991.20001220703</ele>
        <time>2021-05-20T13:04:47Z</time>
      </trkpt>
      <trkpt lat="46.34507" lon="6.63747">
        <ele>988.20001220703</ele>
        <time>2021-05-20T13:04:51Z</time>
      </trkpt>
      <trkpt lat="46.34493" lon="6.63721">
        <ele>984.79998779297</ele>
        <time>2021-05-20T13:04:53Z</time>
      </trkpt>
      <trkpt lat="46.34481" lon="6.63698">
        <ele>979.40002441406</ele>
        <time>2021-05-20T13:04:55Z</time>
      </trkpt>
      <trkpt lat="46.34469" lon="6.63674">
        <ele>976.20001220703</ele>
        <time>2021-05-20T13:04:57Z</time>
      </trkpt>
      <trkpt lat="46.34449" lon="6.63631">
        <ele>974</ele>
        <time>2021-05-20T13:05:00Z</time>
      </trkpt>
      <trkpt lat="46.34403" lon="6.63548">
        <ele>970.40002441406</ele>
        <time>2021-05-20T13:05:06Z</time>
      </trkpt>
      <trkpt lat="46.34391" lon="6.63527">
        <ele>966.59997558594</ele>
        <time>2021-05-20T13:05:08Z</time>
      </trkpt>
      <trkpt lat="46.34381" lon="6.6351">
        <ele>962</ele>
        <time>2021-05-20T13:05:10Z</time>
      </trkpt>
      <trkpt lat="46.34377" lon="6.63503">
        <ele>960</ele>
        <time>2021-05-20T13:05:11Z</time>
      </trkpt>
      <trkpt lat="46.34367" lon="6.63489">
        <ele>954.79998779297</ele>
        <time>2021-05-20T13:05:13Z</time>
      </trkpt>
      <trkpt lat="46.34362" lon="6.63481">
        <ele>954.79998779297</ele>
        <time>2021-05-20T13:05:14Z</time>
      </trkpt>
      <trkpt lat="46.34348" lon="6.63457">
        <ele>951.20001220703</ele>
        <time>2021-05-20T13:05:17Z</time>
      </trkpt>
      <trkpt lat="46.34344" lon="6.6345">
        <ele>951.20001220703</ele>
        <time>2021-05-20T13:05:18Z</time>
      </trkpt>
      <trkpt lat="46.34345" lon="6.63417">
        <ele>947.59997558594</ele>
        <time>2021-05-20T13:05:22Z</time>
      </trkpt>
      <trkpt lat="46.34342" lon="6.63385">
        <ele>941.20001220703</ele>
        <time>2021-05-20T13:05:27Z</time>
      </trkpt>
      <trkpt lat="46.34323" lon="6.63389">
        <ele>937.79998779297</ele>
        <time>2021-05-20T13:05:30Z</time>
      </trkpt>
      <trkpt lat="46.34307" lon="6.63395">
        <ele>934.40002441406</ele>
        <time>2021-05-20T13:05:34Z</time>
      </trkpt>
      <trkpt lat="46.34305" lon="6.63388">
        <ele>932</ele>
        <time>2021-05-20T13:05:36Z</time>
      </trkpt>
      <trkpt lat="46.34313" lon="6.63377">
        <ele>929.40002441406</ele>
        <time>2021-05-20T13:05:39Z</time>
      </trkpt>
      <trkpt lat="46.34329" lon="6.63363">
        <ele>926.20001220703</ele>
        <time>2021-05-20T13:05:43Z</time>
      </trkpt>
      <trkpt lat="46.34337" lon="6.63358">
        <ele>924.79998779297</ele>
        <time>2021-05-20T13:05:45Z</time>
      </trkpt>
      <trkpt lat="46.34341" lon="6.63357">
        <ele>924.40002441406</ele>
        <time>2021-05-20T13:05:46Z</time>
      </trkpt>
      <trkpt lat="46.34364" lon="6.63343">
        <ele>921.20001220703</ele>
        <time>2021-05-20T13:05:54Z</time>
      </trkpt>
      <trkpt lat="46.34403" lon="6.63335">
        <ele>920.20001220703</ele>
        <time>2021-05-20T13:06:06Z</time>
      </trkpt>
      <trkpt lat="46.34408" lon="6.63336">
        <ele>920</ele>
        <time>2021-05-20T13:06:19Z</time>
      </trkpt>
      <trkpt lat="46.3441" lon="6.63335">
        <ele>920</ele>
        <time>2021-05-20T13:06:21Z</time>
      </trkpt>
      <trkpt lat="46.34415" lon="6.63335">
        <ele>920</ele>
        <time>2021-05-20T13:06:24Z</time>
      </trkpt>
      <trkpt lat="46.34452" lon="6.63328">
        <ele>919.20001220703</ele>
        <time>2021-05-20T13:06:37Z</time>
      </trkpt>
      <trkpt lat="46.34496" lon="6.63328">
        <ele>917</ele>
        <time>2021-05-20T13:06:46Z</time>
      </trkpt>
      <trkpt lat="46.34551" lon="6.63326">
        <ele>913.40002441406</ele>
        <time>2021-05-20T13:06:55Z</time>
      </trkpt>
      <trkpt lat="46.34575" lon="6.63327">
        <ele>910.79998779297</ele>
        <time>2021-05-20T13:06:58Z</time>
      </trkpt>
      <trkpt lat="46.3461" lon="6.63338">
        <ele>907.40002441406</ele>
        <time>2021-05-20T13:07:03Z</time>
      </trkpt>
      <trkpt lat="46.34642" lon="6.63351">
        <ele>904.59997558594</ele>
        <time>2021-05-20T13:07:08Z</time>
      </trkpt>
      <trkpt lat="46.34668" lon="6.63361">
        <ele>902.40002441406</ele>
        <time>2021-05-20T13:07:12Z</time>
      </trkpt>
      <trkpt lat="46.34709" lon="6.6339">
        <ele>898.59997558594</ele>
        <time>2021-05-20T13:07:19Z</time>
      </trkpt>
      <trkpt lat="46.3472" lon="6.63399">
        <ele>898</ele>
        <time>2021-05-20T13:07:21Z</time>
      </trkpt>
      <trkpt lat="46.34767" lon="6.63447">
        <ele>894.40002441406</ele>
        <time>2021-05-20T13:07:30Z</time>
      </trkpt>
      <trkpt lat="46.34789" lon="6.63479">
        <ele>893.79998779297</ele>
        <time>2021-05-20T13:07:39Z</time>
      </trkpt>
      <trkpt lat="46.34808" lon="6.63502">
        <ele>893.79998779297</ele>
        <time>2021-05-20T13:07:50Z</time>
      </trkpt>
      <trkpt lat="46.34835" lon="6.63538">
        <ele>893.59997558594</ele>
        <time>2021-05-20T13:08:01Z</time>
      </trkpt>
      <trkpt lat="46.34838" lon="6.63541">
        <ele>893.59997558594</ele>
        <time>2021-05-20T13:08:02Z</time>
      </trkpt>
      <trkpt lat="46.3486" lon="6.63576">
        <ele>892.79998779297</ele>
        <time>2021-05-20T13:08:15Z</time>
      </trkpt>
      <trkpt lat="46.34883" lon="6.63598">
        <ele>892.20001220703</ele>
        <time>2021-05-20T13:08:26Z</time>
      </trkpt>
      <trkpt lat="46.34907" lon="6.63631">
        <ele>891</ele>
        <time>2021-05-20T13:08:36Z</time>
      </trkpt>
      <trkpt lat="46.34927" lon="6.63663">
        <ele>890</ele>
        <time>2021-05-20T13:08:48Z</time>
      </trkpt>
      <trkpt lat="46.34938" lon="6.63696">
        <ele>890</ele>
        <time>2021-05-20T13:08:59Z</time>
      </trkpt>
      <trkpt lat="46.3495" lon="6.63729">
        <ele>890.20001220703</ele>
        <time>2021-05-20T13:09:10Z</time>
      </trkpt>
      <trkpt lat="46.34971" lon="6.63748">
        <ele>890.79998779297</ele>
        <time>2021-05-20T13:09:23Z</time>
      </trkpt>
      <trkpt lat="46.34993" lon="6.63763">
        <ele>889.20001220703</ele>
        <time>2021-05-20T13:09:34Z</time>
      </trkpt>
      <trkpt lat="46.34997" lon="6.63766">
        <ele>889</ele>
        <time>2021-05-20T13:09:38Z</time>
      </trkpt>
      <trkpt lat="46.34999" lon="6.63773">
        <ele>890.59997558594</ele>
        <time>2021-05-20T13:09:48Z</time>
      </trkpt>
      <trkpt lat="46.35002" lon="6.63782">
        <ele>891.20001220703</ele>
        <time>2021-05-20T13:09:54Z</time>
      </trkpt>
      <trkpt lat="46.35002" lon="6.63787">
        <ele>891.20001220703</ele>
        <time>2021-05-20T13:09:55Z</time>
      </trkpt>
      <trkpt lat="46.35003" lon="6.63789">
        <ele>891.20001220703</ele>
        <time>2021-05-20T13:09:56Z</time>
      </trkpt>
      <trkpt lat="46.35018" lon="6.63821">
        <ele>891.20001220703</ele>
        <time>2021-05-20T13:10:08Z</time>
      </trkpt>
      <trkpt lat="46.35026" lon="6.63835">
        <ele>891</ele>
        <time>2021-05-20T13:10:15Z</time>
      </trkpt>
      <trkpt lat="46.35027" lon="6.63838">
        <ele>891</ele>
        <time>2021-05-20T13:10:16Z</time>
      </trkpt>
      <trkpt lat="46.35029" lon="6.63841">
        <ele>891</ele>
        <time>2021-05-20T13:10:17Z</time>
      </trkpt>
      <trkpt lat="46.3503" lon="6.63844">
        <ele>891</ele>
        <time>2021-05-20T13:10:18Z</time>
      </trkpt>
      <trkpt lat="46.35032" lon="6.63847">
        <ele>891</ele>
        <time>2021-05-20T13:10:19Z</time>
      </trkpt>
      <trkpt lat="46.35034" lon="6.63849">
        <ele>891</ele>
        <time>2021-05-20T13:10:20Z</time>
      </trkpt>
      <trkpt lat="46.35036" lon="6.63852">
        <ele>890.79998779297</ele>
        <time>2021-05-20T13:10:21Z</time>
      </trkpt>
      <trkpt lat="46.35038" lon="6.63853">
        <ele>890.79998779297</ele>
        <time>2021-05-20T13:10:22Z</time>
      </trkpt>
      <trkpt lat="46.35052" lon="6.63868">
        <ele>891</ele>
        <time>2021-05-20T13:10:30Z</time>
      </trkpt>
      <trkpt lat="46.35074" lon="6.63912">
        <ele>891.40002441406</ele>
        <time>2021-05-20T13:10:45Z</time>
      </trkpt>
      <trkpt lat="46.35087" lon="6.63938">
        <ele>891.79998779297</ele>
        <time>2021-05-20T13:10:57Z</time>
      </trkpt>
      <trkpt lat="46.35099" lon="6.6398">
        <ele>891.79998779297</ele>
        <time>2021-05-20T13:11:09Z</time>
      </trkpt>
      <trkpt lat="46.35102" lon="6.63985">
        <ele>891.79998779297</ele>
        <time>2021-05-20T13:11:11Z</time>
      </trkpt>
      <trkpt lat="46.35107" lon="6.63992">
        <ele>891.20001220703</ele>
        <time>2021-05-20T13:11:16Z</time>
      </trkpt>
      <trkpt lat="46.35118" lon="6.63997">
        <ele>890</ele>
        <time>2021-05-20T13:11:23Z</time>
      </trkpt>
      <trkpt lat="46.35119" lon="6.63969">
        <ele>888.20001220703</ele>
        <time>2021-05-20T13:11:34Z</time>
      </trkpt>
      <trkpt lat="46.35128" lon="6.63966">
        <ele>886.79998779297</ele>
        <time>2021-05-20T13:11:39Z</time>
      </trkpt>
      <trkpt lat="46.35136" lon="6.63966">
        <ele>885.20001220703</ele>
        <time>2021-05-20T13:11:45Z</time>
      </trkpt>
      <trkpt lat="46.35156" lon="6.6396">
        <ele>882.40002441406</ele>
        <time>2021-05-20T13:11:57Z</time>
      </trkpt>
      <trkpt lat="46.35159" lon="6.63957">
        <ele>879.40002441406</ele>
        <time>2021-05-20T13:12:06Z</time>
      </trkpt>
      <trkpt lat="46.35163" lon="6.63955">
        <ele>878.59997558594</ele>
        <time>2021-05-20T13:12:28Z</time>
      </trkpt>
      <trkpt lat="46.35173" lon="6.63954">
        <ele>878.79998779297</ele>
        <time>2021-05-20T13:12:41Z</time>
      </trkpt>
      <trkpt lat="46.35188" lon="6.63952">
        <ele>875.40002441406</ele>
        <time>2021-05-20T13:12:55Z</time>
      </trkpt>
      <trkpt lat="46.35194" lon="6.63949">
        <ele>874.40002441406</ele>
        <time>2021-05-20T13:13:04Z</time>
      </trkpt>
      <trkpt lat="46.35229" lon="6.63943">
        <ele>871.79998779297</ele>
        <time>2021-05-20T13:13:17Z</time>
      </trkpt>
      <trkpt lat="46.35237" lon="6.63931">
        <ele>868.79998779297</ele>
        <time>2021-05-20T13:13:27Z</time>
      </trkpt>
      <trkpt lat="46.35239" lon="6.63902">
        <ele>868</ele>
        <time>2021-05-20T13:13:38Z</time>
      </trkpt>
      <trkpt lat="46.35236" lon="6.63894">
        <ele>867.79998779297</ele>
        <time>2021-05-20T13:13:41Z</time>
      </trkpt>
      <trkpt lat="46.35242" lon="6.63893">
        <ele>867.40002441406</ele>
        <time>2021-05-20T13:13:45Z</time>
      </trkpt>
      <trkpt lat="46.35258" lon="6.63906">
        <ele>867.20001220703</ele>
        <time>2021-05-20T13:13:49Z</time>
      </trkpt>
      <trkpt lat="46.3527" lon="6.63933">
        <ele>866.79998779297</ele>
        <time>2021-05-20T13:13:53Z</time>
      </trkpt>
      <trkpt lat="46.35268" lon="6.6398">
        <ele>863.20001220703</ele>
        <time>2021-05-20T13:13:59Z</time>
      </trkpt>
      <trkpt lat="46.35261" lon="6.64029">
        <ele>861.79998779297</ele>
        <time>2021-05-20T13:14:05Z</time>
      </trkpt>
      <trkpt lat="46.35265" lon="6.64061">
        <ele>861.59997558594</ele>
        <time>2021-05-20T13:14:09Z</time>
      </trkpt>
      <trkpt lat="46.35273" lon="6.64082">
        <ele>861.40002441406</ele>
        <time>2021-05-20T13:14:12Z</time>
      </trkpt>
      <trkpt lat="46.35289" lon="6.64117">
        <ele>861</ele>
        <time>2021-05-20T13:14:17Z</time>
      </trkpt>
      <trkpt lat="46.35297" lon="6.64129">
        <ele>860.79998779297</ele>
        <time>2021-05-20T13:14:19Z</time>
      </trkpt>
      <trkpt lat="46.35299" lon="6.64137">
        <ele>860.59997558594</ele>
        <time>2021-05-20T13:14:20Z</time>
      </trkpt>
      <trkpt lat="46.35301" lon="6.64145">
        <ele>860.59997558594</ele>
        <time>2021-05-20T13:14:21Z</time>
      </trkpt>
      <trkpt lat="46.35302" lon="6.64151">
        <ele>860.59997558594</ele>
        <time>2021-05-20T13:14:22Z</time>
      </trkpt>
      <trkpt lat="46.35305" lon="6.64161">
        <ele>860.40002441406</ele>
        <time>2021-05-20T13:14:24Z</time>
      </trkpt>
      <trkpt lat="46.35317" lon="6.64146">
        <ele>860.40002441406</ele>
        <time>2021-05-20T13:14:31Z</time>
      </trkpt>
      <trkpt lat="46.35319" lon="6.64143">
        <ele>860.59997558594</ele>
        <time>2021-05-20T13:14:32Z</time>
      </trkpt>
      <trkpt lat="46.35332" lon="6.64144">
        <ele>860.79998779297</ele>
        <time>2021-05-20T13:14:36Z</time>
      </trkpt>
      <trkpt lat="46.35364" lon="6.6414">
        <ele>860.40002441406</ele>
        <time>2021-05-20T13:14:46Z</time>
      </trkpt>
      <trkpt lat="46.35378" lon="6.6413">
        <ele>860.40002441406</ele>
        <time>2021-05-20T13:14:51Z</time>
      </trkpt>
      <trkpt lat="46.35383" lon="6.6412">
        <ele>861.20001220703</ele>
        <time>2021-05-20T13:15:00Z</time>
      </trkpt>
      <trkpt lat="46.35379" lon="6.6412">
        <ele>862.20001220703</ele>
        <time>2021-05-20T13:15:46Z</time>
      </trkpt>
      <trkpt lat="46.35379" lon="6.64122">
        <ele>861.79998779297</ele>
        <time>2021-05-20T13:16:51Z</time>
      </trkpt>
      <trkpt lat="46.35377" lon="6.64119">
        <ele>861.59997558594</ele>
        <time>2021-05-20T13:17:15Z</time>
      </trkpt>
      <trkpt lat="46.35377" lon="6.64118">
        <ele>861.59997558594</ele>
        <time>2021-05-20T13:17:21Z</time>
      </trkpt>
      <trkpt lat="46.35378" lon="6.64108">
        <ele>861.40002441406</ele>
        <time>2021-05-20T13:17:25Z</time>
      </trkpt>
      <trkpt lat="46.35392" lon="6.64047">
        <ele>862</ele>
        <time>2021-05-20T13:17:43Z</time>
      </trkpt>
      <trkpt lat="46.35428" lon="6.63986">
        <ele>864.40002441406</ele>
        <time>2021-05-20T13:18:06Z</time>
      </trkpt>
      <trkpt lat="46.35465" lon="6.63928">
        <ele>865.79998779297</ele>
        <time>2021-05-20T13:18:29Z</time>
      </trkpt>
      <trkpt lat="46.35508" lon="6.63879">
        <ele>868.20001220703</ele>
        <time>2021-05-20T13:18:52Z</time>
      </trkpt>
      <trkpt lat="46.35519" lon="6.63879">
        <ele>868.40002441406</ele>
        <time>2021-05-20T13:18:57Z</time>
      </trkpt>
      <trkpt lat="46.35555" lon="6.6392">
        <ele>870</ele>
        <time>2021-05-20T13:19:16Z</time>
      </trkpt>
      <trkpt lat="46.35583" lon="6.63973">
        <ele>873.20001220703</ele>
        <time>2021-05-20T13:19:35Z</time>
      </trkpt>
      <trkpt lat="46.35602" lon="6.64049">
        <ele>873.59997558594</ele>
        <time>2021-05-20T13:19:54Z</time>
      </trkpt>
      <trkpt lat="46.35602" lon="6.64093">
        <ele>873.20001220703</ele>
        <time>2021-05-20T13:20:04Z</time>
      </trkpt>
      <trkpt lat="46.3559" lon="6.64094">
        <ele>873.20001220703</ele>
        <time>2021-05-20T13:20:07Z</time>
      </trkpt>
      <trkpt lat="46.35548" lon="6.64095">
        <ele>872.59997558594</ele>
        <time>2021-05-20T13:20:16Z</time>
      </trkpt>
      <trkpt lat="46.35542" lon="6.64094">
        <ele>872.40002441406</ele>
        <time>2021-05-20T13:20:17Z</time>
      </trkpt>
      <trkpt lat="46.35536" lon="6.64091">
        <ele>872.20001220703</ele>
        <time>2021-05-20T13:20:18Z</time>
      </trkpt>
      <trkpt lat="46.35519" lon="6.64084">
        <ele>871.59997558594</ele>
        <time>2021-05-20T13:20:21Z</time>
      </trkpt>
      <trkpt lat="46.35514" lon="6.64084">
        <ele>871.59997558594</ele>
        <time>2021-05-20T13:20:22Z</time>
      </trkpt>
      <trkpt lat="46.3551" lon="6.64087">
        <ele>871.20001220703</ele>
        <time>2021-05-20T13:20:23Z</time>
      </trkpt>
      <trkpt lat="46.35507" lon="6.64091">
        <ele>871</ele>
        <time>2021-05-20T13:20:24Z</time>
      </trkpt>
      <trkpt lat="46.35507" lon="6.64102">
        <ele>870</ele>
        <time>2021-05-20T13:20:26Z</time>
      </trkpt>
      <trkpt lat="46.3551" lon="6.64119">
        <ele>868.59997558594</ele>
        <time>2021-05-20T13:20:29Z</time>
      </trkpt>
      <trkpt lat="46.35508" lon="6.64186">
        <ele>868.59997558594</ele>
        <time>2021-05-20T13:20:43Z</time>
      </trkpt>
      <trkpt lat="46.35473" lon="6.64183">
        <ele>869.20001220703</ele>
        <time>2021-05-20T13:20:54Z</time>
      </trkpt>
      <trkpt lat="46.35455" lon="6.64097">
        <ele>866.79998779297</ele>
        <time>2021-05-20T13:21:10Z</time>
      </trkpt>
      <trkpt lat="46.35451" lon="6.64036">
        <ele>865.40002441406</ele>
        <time>2021-05-20T13:21:23Z</time>
      </trkpt>
      <trkpt lat="46.3545" lon="6.64029">
        <ele>865.40002441406</ele>
        <time>2021-05-20T13:21:31Z</time>
      </trkpt>
      <trkpt lat="46.35447" lon="6.64023">
        <ele>865.59997558594</ele>
        <time>2021-05-20T13:21:35Z</time>
      </trkpt>
      <trkpt lat="46.35425" lon="6.64005">
        <ele>864.79998779297</ele>
        <time>2021-05-20T13:21:53Z</time>
      </trkpt>
      <trkpt lat="46.35421" lon="6.64005">
        <ele>864.20001220703</ele>
        <time>2021-05-20T13:22:01Z</time>
      </trkpt>
      <trkpt lat="46.3541" lon="6.64016">
        <ele>864</ele>
        <time>2021-05-20T13:22:07Z</time>
      </trkpt>
      <trkpt lat="46.35389" lon="6.64046">
        <ele>863.59997558594</ele>
        <time>2021-05-20T13:22:14Z</time>
      </trkpt>
      <trkpt lat="46.3538" lon="6.64078">
        <ele>862</ele>
        <time>2021-05-20T13:22:19Z</time>
      </trkpt>
      <trkpt lat="46.35379" lon="6.64094">
        <ele>861.79998779297</ele>
        <time>2021-05-20T13:22:21Z</time>
      </trkpt>
      <trkpt lat="46.35351" lon="6.64137">
        <ele>860.79998779297</ele>
        <time>2021-05-20T13:22:28Z</time>
      </trkpt>
      <trkpt lat="46.35345" lon="6.64137">
        <ele>860.59997558594</ele>
        <time>2021-05-20T13:22:29Z</time>
      </trkpt>
      <trkpt lat="46.35317" lon="6.64135">
        <ele>858.40002441406</ele>
        <time>2021-05-20T13:22:34Z</time>
      </trkpt>
      <trkpt lat="46.35298" lon="6.64153">
        <ele>858</ele>
        <time>2021-05-20T13:22:40Z</time>
      </trkpt>
      <trkpt lat="46.35301" lon="6.64214">
        <ele>860.79998779297</ele>
        <time>2021-05-20T13:22:55Z</time>
      </trkpt>
      <trkpt lat="46.35306" lon="6.64253">
        <ele>863.79998779297</ele>
        <time>2021-05-20T13:23:07Z</time>
      </trkpt>
      <trkpt lat="46.35315" lon="6.64311">
        <ele>867</ele>
        <time>2021-05-20T13:23:25Z</time>
      </trkpt>
      <trkpt lat="46.35327" lon="6.64383">
        <ele>870</ele>
        <time>2021-05-20T13:23:48Z</time>
      </trkpt>
      <trkpt lat="46.3534" lon="6.64454">
        <ele>872</ele>
        <time>2021-05-20T13:24:08Z</time>
      </trkpt>
      <trkpt lat="46.35352" lon="6.64525">
        <ele>873.59997558594</ele>
        <time>2021-05-20T13:24:26Z</time>
      </trkpt>
      <trkpt lat="46.35364" lon="6.64596">
        <ele>875.20001220703</ele>
        <time>2021-05-20T13:24:44Z</time>
      </trkpt>
      <trkpt lat="46.35366" lon="6.64606">
        <ele>875.40002441406</ele>
        <time>2021-05-20T13:24:47Z</time>
      </trkpt>
      <trkpt lat="46.35372" lon="6.64593">
        <ele>876.20001220703</ele>
        <time>2021-05-20T13:24:54Z</time>
      </trkpt>
      <trkpt lat="46.35374" lon="6.6459">
        <ele>876.20001220703</ele>
        <time>2021-05-20T13:24:55Z</time>
      </trkpt>
      <trkpt lat="46.35395" lon="6.64571">
        <ele>876.20001220703</ele>
        <time>2021-05-20T13:25:02Z</time>
      </trkpt>
      <trkpt lat="46.3539" lon="6.64566">
        <ele>875.40002441406</ele>
        <time>2021-05-20T13:25:09Z</time>
      </trkpt>
      <trkpt lat="46.35368" lon="6.64594">
        <ele>875.40002441406</ele>
        <time>2021-05-20T13:25:20Z</time>
      </trkpt>
      <trkpt lat="46.35365" lon="6.64608">
        <ele>875.79998779297</ele>
        <time>2021-05-20T13:25:24Z</time>
      </trkpt>
      <trkpt lat="46.35379" lon="6.64687">
        <ele>877.20001220703</ele>
        <time>2021-05-20T13:25:44Z</time>
      </trkpt>
      <trkpt lat="46.35395" lon="6.64782">
        <ele>878.79998779297</ele>
        <time>2021-05-20T13:26:05Z</time>
      </trkpt>
      <trkpt lat="46.35415" lon="6.64904">
        <ele>881</ele>
        <time>2021-05-20T13:26:31Z</time>
      </trkpt>
      <trkpt lat="46.35434" lon="6.65012">
        <ele>882.79998779297</ele>
        <time>2021-05-20T13:26:54Z</time>
      </trkpt>
      <trkpt lat="46.35452" lon="6.65126">
        <ele>885.59997558594</ele>
        <time>2021-05-20T13:27:18Z</time>
      </trkpt>
      <trkpt lat="46.35468" lon="6.65217">
        <ele>888.40002441406</ele>
        <time>2021-05-20T13:27:40Z</time>
      </trkpt>
      <trkpt lat="46.35482" lon="6.65306">
        <ele>890.40002441406</ele>
        <time>2021-05-20T13:28:02Z</time>
      </trkpt>
      <trkpt lat="46.35495" lon="6.65378">
        <ele>893.40002441406</ele>
        <time>2021-05-20T13:28:20Z</time>
      </trkpt>
      <trkpt lat="46.35508" lon="6.6546">
        <ele>896</ele>
        <time>2021-05-20T13:28:42Z</time>
      </trkpt>
      <trkpt lat="46.35521" lon="6.65534">
        <ele>899.20001220703</ele>
        <time>2021-05-20T13:29:04Z</time>
      </trkpt>
      <trkpt lat="46.35526" lon="6.65574">
        <ele>901.20001220703</ele>
        <time>2021-05-20T13:29:21Z</time>
      </trkpt>
      <trkpt lat="46.35524" lon="6.65572">
        <ele>901.79998779297</ele>
        <time>2021-05-20T13:30:00Z</time>
      </trkpt>
      <trkpt lat="46.35528" lon="6.65572">
        <ele>901.40002441406</ele>
        <time>2021-05-20T13:30:44Z</time>
      </trkpt>
      <trkpt lat="46.35528" lon="6.65561">
        <ele>901.40002441406</ele>
        <time>2021-05-20T13:30:49Z</time>
      </trkpt>
      <trkpt lat="46.35532" lon="6.65507">
        <ele>901</ele>
        <time>2021-05-20T13:30:58Z</time>
      </trkpt>
      <trkpt lat="46.35544" lon="6.65483">
        <ele>900.20001220703</ele>
        <time>2021-05-20T13:31:02Z</time>
      </trkpt>
      <trkpt lat="46.35579" lon="6.65465">
        <ele>896.40002441406</ele>
        <time>2021-05-20T13:31:08Z</time>
      </trkpt>
      <trkpt lat="46.35595" lon="6.6545">
        <ele>895</ele>
        <time>2021-05-20T13:31:11Z</time>
      </trkpt>
      <trkpt lat="46.35645" lon="6.65452">
        <ele>892.40002441406</ele>
        <time>2021-05-20T13:31:19Z</time>
      </trkpt>
      <trkpt lat="46.3565" lon="6.65459">
        <ele>891.79998779297</ele>
        <time>2021-05-20T13:31:20Z</time>
      </trkpt>
      <trkpt lat="46.35666" lon="6.65481">
        <ele>888.40002441406</ele>
        <time>2021-05-20T13:31:25Z</time>
      </trkpt>
      <trkpt lat="46.35667" lon="6.65482">
        <ele>888.40002441406</ele>
        <time>2021-05-20T13:31:26Z</time>
      </trkpt>
      <trkpt lat="46.35679" lon="6.65476">
        <ele>888</ele>
        <time>2021-05-20T13:31:40Z</time>
      </trkpt>
      <trkpt lat="46.35698" lon="6.65453">
        <ele>888.40002441406</ele>
        <time>2021-05-20T13:31:55Z</time>
      </trkpt>
      <trkpt lat="46.35722" lon="6.65417">
        <ele>890.79998779297</ele>
        <time>2021-05-20T13:32:15Z</time>
      </trkpt>
      <trkpt lat="46.3573" lon="6.65389">
        <ele>894.20001220703</ele>
        <time>2021-05-20T13:32:28Z</time>
      </trkpt>
      <trkpt lat="46.35731" lon="6.65386">
        <ele>894.40002441406</ele>
        <time>2021-05-20T13:32:29Z</time>
      </trkpt>
      <trkpt lat="46.35743" lon="6.65371">
        <ele>897.79998779297</ele>
        <time>2021-05-20T13:32:41Z</time>
      </trkpt>
      <trkpt lat="46.35764" lon="6.65375">
        <ele>899.79998779297</ele>
        <time>2021-05-20T13:32:54Z</time>
      </trkpt>
      <trkpt lat="46.35791" lon="6.65383">
        <ele>901</ele>
        <time>2021-05-20T13:33:08Z</time>
      </trkpt>
      <trkpt lat="46.35809" lon="6.65389">
        <ele>901.40002441406</ele>
        <time>2021-05-20T13:33:15Z</time>
      </trkpt>
      <trkpt lat="46.35817" lon="6.65411">
        <ele>901.40002441406</ele>
        <time>2021-05-20T13:33:22Z</time>
      </trkpt>
      <trkpt lat="46.35813" lon="6.65499">
        <ele>902.40002441406</ele>
        <time>2021-05-20T13:33:44Z</time>
      </trkpt>
      <trkpt lat="46.35809" lon="6.65589">
        <ele>903.59997558594</ele>
        <time>2021-05-20T13:34:03Z</time>
      </trkpt>
      <trkpt lat="46.35808" lon="6.65691">
        <ele>905</ele>
        <time>2021-05-20T13:34:23Z</time>
      </trkpt>
      <trkpt lat="46.35814" lon="6.65753">
        <ele>906</ele>
        <time>2021-05-20T13:34:35Z</time>
      </trkpt>
      <trkpt lat="46.3581" lon="6.65797">
        <ele>906.20001220703</ele>
        <time>2021-05-20T13:34:43Z</time>
      </trkpt>
      <trkpt lat="46.358" lon="6.65815">
        <ele>906.40002441406</ele>
        <time>2021-05-20T13:34:50Z</time>
      </trkpt>
      <trkpt lat="46.35788" lon="6.65874">
        <ele>906.20001220703</ele>
        <time>2021-05-20T13:34:58Z</time>
      </trkpt>
      <trkpt lat="46.35789" lon="6.65899">
        <ele>903.79998779297</ele>
        <time>2021-05-20T13:35:02Z</time>
      </trkpt>
      <trkpt lat="46.35792" lon="6.65912">
        <ele>902.20001220703</ele>
        <time>2021-05-20T13:35:05Z</time>
      </trkpt>
      <trkpt lat="46.35806" lon="6.65966">
        <ele>903</ele>
        <time>2021-05-20T13:35:21Z</time>
      </trkpt>
      <trkpt lat="46.35819" lon="6.66027">
        <ele>904.40002441406</ele>
        <time>2021-05-20T13:35:39Z</time>
      </trkpt>
      <trkpt lat="46.35833" lon="6.66078">
        <ele>906.59997558594</ele>
        <time>2021-05-20T13:35:54Z</time>
      </trkpt>
      <trkpt lat="46.35853" lon="6.66154">
        <ele>906.40002441406</ele>
        <time>2021-05-20T13:36:11Z</time>
      </trkpt>
      <trkpt lat="46.35871" lon="6.6619">
        <ele>907.40002441406</ele>
        <time>2021-05-20T13:36:24Z</time>
      </trkpt>
      <trkpt lat="46.35876" lon="6.66224">
        <ele>909.59997558594</ele>
        <time>2021-05-20T13:36:35Z</time>
      </trkpt>
      <trkpt lat="46.35877" lon="6.66234">
        <ele>911.40002441406</ele>
        <time>2021-05-20T13:36:39Z</time>
      </trkpt>
      <trkpt lat="46.35877" lon="6.66277">
        <ele>913.40002441406</ele>
        <time>2021-05-20T13:36:52Z</time>
      </trkpt>
      <trkpt lat="46.35875" lon="6.66311">
        <ele>914.20001220703</ele>
        <time>2021-05-20T13:37:03Z</time>
      </trkpt>
      <trkpt lat="46.35871" lon="6.66325">
        <ele>914.79998779297</ele>
        <time>2021-05-20T13:37:08Z</time>
      </trkpt>
      <trkpt lat="46.35865" lon="6.66361">
        <ele>915</ele>
        <time>2021-05-20T13:37:17Z</time>
      </trkpt>
      <trkpt lat="46.35857" lon="6.66381">
        <ele>914.79998779297</ele>
        <time>2021-05-20T13:37:21Z</time>
      </trkpt>
      <trkpt lat="46.35848" lon="6.66402">
        <ele>914.79998779297</ele>
        <time>2021-05-20T13:37:26Z</time>
      </trkpt>
      <trkpt lat="46.35841" lon="6.66448">
        <ele>914.79998779297</ele>
        <time>2021-05-20T13:37:34Z</time>
      </trkpt>
      <trkpt lat="46.35842" lon="6.66503">
        <ele>915.20001220703</ele>
        <time>2021-05-20T13:37:45Z</time>
      </trkpt>
      <trkpt lat="46.35842" lon="6.66549">
        <ele>916.79998779297</ele>
        <time>2021-05-20T13:37:57Z</time>
      </trkpt>
      <trkpt lat="46.35837" lon="6.66591">
        <ele>918</ele>
        <time>2021-05-20T13:38:09Z</time>
      </trkpt>
      <trkpt lat="46.35831" lon="6.66646">
        <ele>918.59997558594</ele>
        <time>2021-05-20T13:38:22Z</time>
      </trkpt>
      <trkpt lat="46.3583" lon="6.6665">
        <ele>918.59997558594</ele>
        <time>2021-05-20T13:38:23Z</time>
      </trkpt>
      <trkpt lat="46.35831" lon="6.66658">
        <ele>918.59997558594</ele>
        <time>2021-05-20T13:38:25Z</time>
      </trkpt>
      <trkpt lat="46.35823" lon="6.66692">
        <ele>920.59997558594</ele>
        <time>2021-05-20T13:38:37Z</time>
      </trkpt>
      <trkpt lat="46.35822" lon="6.66704">
        <ele>921.40002441406</ele>
        <time>2021-05-20T13:38:41Z</time>
      </trkpt>
      <trkpt lat="46.35818" lon="6.66727">
        <ele>921.79998779297</ele>
        <time>2021-05-20T13:38:48Z</time>
      </trkpt>
      <trkpt lat="46.35817" lon="6.66736">
        <ele>922</ele>
        <time>2021-05-20T13:38:51Z</time>
      </trkpt>
      <trkpt lat="46.35819" lon="6.66767">
        <ele>922.59997558594</ele>
        <time>2021-05-20T13:39:00Z</time>
      </trkpt>
      <trkpt lat="46.35829" lon="6.66815">
        <ele>924</ele>
        <time>2021-05-20T13:39:13Z</time>
      </trkpt>
      <trkpt lat="46.35832" lon="6.66824">
        <ele>924.40002441406</ele>
        <time>2021-05-20T13:39:16Z</time>
      </trkpt>
      <trkpt lat="46.35828" lon="6.6688">
        <ele>926</ele>
        <time>2021-05-20T13:39:34Z</time>
      </trkpt>
      <trkpt lat="46.35802" lon="6.66902">
        <ele>927.40002441406</ele>
        <time>2021-05-20T13:39:47Z</time>
      </trkpt>
      <trkpt lat="46.35793" lon="6.66905">
        <ele>927.40002441406</ele>
        <time>2021-05-20T13:39:50Z</time>
      </trkpt>
      <trkpt lat="46.35777" lon="6.66934">
        <ele>928.20001220703</ele>
        <time>2021-05-20T13:40:00Z</time>
      </trkpt>
      <trkpt lat="46.3578" lon="6.66997">
        <ele>930.59997558594</ele>
        <time>2021-05-20T13:40:18Z</time>
      </trkpt>
      <trkpt lat="46.35778" lon="6.67082">
        <ele>932.40002441406</ele>
        <time>2021-05-20T13:40:41Z</time>
      </trkpt>
      <trkpt lat="46.35776" lon="6.67138">
        <ele>934.20001220703</ele>
        <time>2021-05-20T13:40:57Z</time>
      </trkpt>
      <trkpt lat="46.35776" lon="6.67154">
        <ele>934.59997558594</ele>
        <time>2021-05-20T13:41:01Z</time>
      </trkpt>
      <trkpt lat="46.35776" lon="6.6718">
        <ele>935.20001220703</ele>
        <time>2021-05-20T13:41:08Z</time>
      </trkpt>
      <trkpt lat="46.35778" lon="6.67203">
        <ele>935.40002441406</ele>
        <time>2021-05-20T13:41:14Z</time>
      </trkpt>
      <trkpt lat="46.35781" lon="6.67266">
        <ele>936.20001220703</ele>
        <time>2021-05-20T13:41:29Z</time>
      </trkpt>
      <trkpt lat="46.35776" lon="6.67303">
        <ele>936.79998779297</ele>
        <time>2021-05-20T13:41:38Z</time>
      </trkpt>
      <trkpt lat="46.3577" lon="6.67348">
        <ele>938</ele>
        <time>2021-05-20T13:41:48Z</time>
      </trkpt>
      <trkpt lat="46.35775" lon="6.67399">
        <ele>939.79998779297</ele>
        <time>2021-05-20T13:42:02Z</time>
      </trkpt>
      <trkpt lat="46.35785" lon="6.67448">
        <ele>941.40002441406</ele>
        <time>2021-05-20T13:42:18Z</time>
      </trkpt>
      <trkpt lat="46.35785" lon="6.67451">
        <ele>941.59997558594</ele>
        <time>2021-05-20T13:42:19Z</time>
      </trkpt>
      <trkpt lat="46.35785" lon="6.67461">
        <ele>941.59997558594</ele>
        <time>2021-05-20T13:42:22Z</time>
      </trkpt>
      <trkpt lat="46.35789" lon="6.67515">
        <ele>944.59997558594</ele>
        <time>2021-05-20T13:42:41Z</time>
      </trkpt>
      <trkpt lat="46.35802" lon="6.67546">
        <ele>946.20001220703</ele>
        <time>2021-05-20T13:42:53Z</time>
      </trkpt>
      <trkpt lat="46.35829" lon="6.67591">
        <ele>946.40002441406</ele>
        <time>2021-05-20T13:43:11Z</time>
      </trkpt>
      <trkpt lat="46.35841" lon="6.67625">
        <ele>947</ele>
        <time>2021-05-20T13:43:23Z</time>
      </trkpt>
      <trkpt lat="46.35854" lon="6.67665">
        <ele>948</ele>
        <time>2021-05-20T13:43:37Z</time>
      </trkpt>
      <trkpt lat="46.35843" lon="6.6772">
        <ele>948.59997558594</ele>
        <time>2021-05-20T13:43:54Z</time>
      </trkpt>
      <trkpt lat="46.35825" lon="6.67738">
        <ele>949.20001220703</ele>
        <time>2021-05-20T13:44:02Z</time>
      </trkpt>
      <trkpt lat="46.35821" lon="6.67751">
        <ele>949.40002441406</ele>
        <time>2021-05-20T13:44:06Z</time>
      </trkpt>
      <trkpt lat="46.35819" lon="6.67762">
        <ele>949.59997558594</ele>
        <time>2021-05-20T13:44:09Z</time>
      </trkpt>
      <trkpt lat="46.35801" lon="6.6778">
        <ele>950.20001220703</ele>
        <time>2021-05-20T13:44:18Z</time>
      </trkpt>
      <trkpt lat="46.35802" lon="6.67798">
        <ele>950.40002441406</ele>
        <time>2021-05-20T13:44:22Z</time>
      </trkpt>
      <trkpt lat="46.35804" lon="6.67823">
        <ele>950.59997558594</ele>
        <time>2021-05-20T13:44:28Z</time>
      </trkpt>
      <trkpt lat="46.35801" lon="6.67839">
        <ele>951</ele>
        <time>2021-05-20T13:44:32Z</time>
      </trkpt>
      <trkpt lat="46.35801" lon="6.67876">
        <ele>952.20001220703</ele>
        <time>2021-05-20T13:44:42Z</time>
      </trkpt>
      <trkpt lat="46.35798" lon="6.67913">
        <ele>953</ele>
        <time>2021-05-20T13:44:53Z</time>
      </trkpt>
      <trkpt lat="46.35797" lon="6.67919">
        <ele>953.20001220703</ele>
        <time>2021-05-20T13:44:55Z</time>
      </trkpt>
      <trkpt lat="46.35796" lon="6.67936">
        <ele>953.59997558594</ele>
        <time>2021-05-20T13:45:00Z</time>
      </trkpt>
      <trkpt lat="46.35791" lon="6.67967">
        <ele>955</ele>
        <time>2021-05-20T13:45:11Z</time>
      </trkpt>
      <trkpt lat="46.35779" lon="6.68009">
        <ele>955.59997558594</ele>
        <time>2021-05-20T13:45:24Z</time>
      </trkpt>
      <trkpt lat="46.35768" lon="6.68053">
        <ele>957.20001220703</ele>
        <time>2021-05-20T13:45:39Z</time>
      </trkpt>
      <trkpt lat="46.35767" lon="6.68058">
        <ele>957.20001220703</ele>
        <time>2021-05-20T13:45:41Z</time>
      </trkpt>
      <trkpt lat="46.3577" lon="6.68088">
        <ele>958.20001220703</ele>
        <time>2021-05-20T13:45:51Z</time>
      </trkpt>
      <trkpt lat="46.35781" lon="6.68116">
        <ele>960.59997558594</ele>
        <time>2021-05-20T13:46:01Z</time>
      </trkpt>
      <trkpt lat="46.35784" lon="6.68159">
        <ele>961.20001220703</ele>
        <time>2021-05-20T13:46:13Z</time>
      </trkpt>
      <trkpt lat="46.35782" lon="6.68208">
        <ele>961.79998779297</ele>
        <time>2021-05-20T13:46:28Z</time>
      </trkpt>
      <trkpt lat="46.35779" lon="6.68269">
        <ele>963</ele>
        <time>2021-05-20T13:46:46Z</time>
      </trkpt>
      <trkpt lat="46.35781" lon="6.68319">
        <ele>965.59997558594</ele>
        <time>2021-05-20T13:47:05Z</time>
      </trkpt>
      <trkpt lat="46.35787" lon="6.68358">
        <ele>967.59997558594</ele>
        <time>2021-05-20T13:47:26Z</time>
      </trkpt>
      <trkpt lat="46.35779" lon="6.684">
        <ele>969.79998779297</ele>
        <time>2021-05-20T13:47:46Z</time>
      </trkpt>
      <trkpt lat="46.35774" lon="6.68437">
        <ele>970</ele>
        <time>2021-05-20T13:48:01Z</time>
      </trkpt>
      <trkpt lat="46.35771" lon="6.68439">
        <ele>970.20001220703</ele>
        <time>2021-05-20T13:48:03Z</time>
      </trkpt>
      <trkpt lat="46.35741" lon="6.68455">
        <ele>970.79998779297</ele>
        <time>2021-05-20T13:48:17Z</time>
      </trkpt>
      <trkpt lat="46.35723" lon="6.68481">
        <ele>971.20001220703</ele>
        <time>2021-05-20T13:48:27Z</time>
      </trkpt>
      <trkpt lat="46.35719" lon="6.68495">
        <ele>971.59997558594</ele>
        <time>2021-05-20T13:48:32Z</time>
      </trkpt>
      <trkpt lat="46.35699" lon="6.68517">
        <ele>973.40002441406</ele>
        <time>2021-05-20T13:48:44Z</time>
      </trkpt>
      <trkpt lat="46.35691" lon="6.68546">
        <ele>975.79998779297</ele>
        <time>2021-05-20T13:48:58Z</time>
      </trkpt>
      <trkpt lat="46.35685" lon="6.68568">
        <ele>977</ele>
        <time>2021-05-20T13:49:10Z</time>
      </trkpt>
      <trkpt lat="46.35684" lon="6.68576">
        <ele>977.40002441406</ele>
        <time>2021-05-20T13:49:14Z</time>
      </trkpt>
      <trkpt lat="46.35682" lon="6.686">
        <ele>978.59997558594</ele>
        <time>2021-05-20T13:49:27Z</time>
      </trkpt>
      <trkpt lat="46.35679" lon="6.68617">
        <ele>979.79998779297</ele>
        <time>2021-05-20T13:49:36Z</time>
      </trkpt>
      <trkpt lat="46.35678" lon="6.68659">
        <ele>981.59997558594</ele>
        <time>2021-05-20T13:49:58Z</time>
      </trkpt>
      <trkpt lat="46.35677" lon="6.68667">
        <ele>982</ele>
        <time>2021-05-20T13:50:02Z</time>
      </trkpt>
      <trkpt lat="46.35669" lon="6.68712">
        <ele>985.20001220703</ele>
        <time>2021-05-20T13:50:26Z</time>
      </trkpt>
      <trkpt lat="46.35668" lon="6.68753">
        <ele>987.59997558594</ele>
        <time>2021-05-20T13:50:47Z</time>
      </trkpt>
      <trkpt lat="46.35668" lon="6.68765">
        <ele>988.40002441406</ele>
        <time>2021-05-20T13:50:53Z</time>
      </trkpt>
      <trkpt lat="46.35676" lon="6.68799">
        <ele>989.59997558594</ele>
        <time>2021-05-20T13:51:09Z</time>
      </trkpt>
      <trkpt lat="46.35679" lon="6.68857">
        <ele>991.20001220703</ele>
        <time>2021-05-20T13:51:30Z</time>
      </trkpt>
      <trkpt lat="46.35682" lon="6.68905">
        <ele>993</ele>
        <time>2021-05-20T13:51:47Z</time>
      </trkpt>
      <trkpt lat="46.35679" lon="6.68947">
        <ele>994.79998779297</ele>
        <time>2021-05-20T13:52:04Z</time>
      </trkpt>
      <trkpt lat="46.35678" lon="6.68949">
        <ele>994.79998779297</ele>
        <time>2021-05-20T13:52:05Z</time>
      </trkpt>
      <trkpt lat="46.35648" lon="6.68974">
        <ele>997.59997558594</ele>
        <time>2021-05-20T13:52:24Z</time>
      </trkpt>
      <trkpt lat="46.35629" lon="6.68986">
        <ele>999.79998779297</ele>
        <time>2021-05-20T13:52:35Z</time>
      </trkpt>
      <trkpt lat="46.35625" lon="6.68977">
        <ele>1000.799987793</ele>
        <time>2021-05-20T13:52:40Z</time>
      </trkpt>
      <trkpt lat="46.35627" lon="6.68958">
        <ele>1002.4000244141</ele>
        <time>2021-05-20T13:52:47Z</time>
      </trkpt>
      <trkpt lat="46.35619" lon="6.68947">
        <ele>1003</ele>
        <time>2021-05-20T13:53:00Z</time>
      </trkpt>
      <trkpt lat="46.35618" lon="6.68948">
        <ele>1003.200012207</ele>
        <time>2021-05-20T13:53:06Z</time>
      </trkpt>
      <trkpt lat="46.3561" lon="6.68961">
        <ele>1003.4000244141</ele>
        <time>2021-05-20T13:53:15Z</time>
      </trkpt>
      <trkpt lat="46.3561" lon="6.68967">
        <ele>1003.4000244141</ele>
        <time>2021-05-20T13:53:23Z</time>
      </trkpt>
      <trkpt lat="46.35609" lon="6.6896">
        <ele>1003.4000244141</ele>
        <time>2021-05-20T13:53:27Z</time>
      </trkpt>
      <trkpt lat="46.35607" lon="6.68939">
        <ele>1003.200012207</ele>
        <time>2021-05-20T13:53:35Z</time>
      </trkpt>
      <trkpt lat="46.35608" lon="6.68936">
        <ele>1003</ele>
        <time>2021-05-20T13:53:36Z</time>
      </trkpt>
      <trkpt lat="46.3561" lon="6.68933">
        <ele>1003</ele>
        <time>2021-05-20T13:53:37Z</time>
      </trkpt>
      <trkpt lat="46.35611" lon="6.68931">
        <ele>1003</ele>
        <time>2021-05-20T13:53:38Z</time>
      </trkpt>
      <trkpt lat="46.35613" lon="6.6893">
        <ele>1003</ele>
        <time>2021-05-20T13:53:39Z</time>
      </trkpt>
      <trkpt lat="46.35615" lon="6.68929">
        <ele>1002.799987793</ele>
        <time>2021-05-20T13:53:40Z</time>
      </trkpt>
      <trkpt lat="46.35616" lon="6.68928">
        <ele>1002.799987793</ele>
        <time>2021-05-20T13:53:41Z</time>
      </trkpt>
      <trkpt lat="46.35619" lon="6.68926">
        <ele>1002.799987793</ele>
        <time>2021-05-20T13:53:42Z</time>
      </trkpt>
      <trkpt lat="46.35621" lon="6.68925">
        <ele>1002.5999755859</ele>
        <time>2021-05-20T13:53:43Z</time>
      </trkpt>
      <trkpt lat="46.35627" lon="6.68919">
        <ele>1002.200012207</ele>
        <time>2021-05-20T13:53:46Z</time>
      </trkpt>
      <trkpt lat="46.35627" lon="6.68916">
        <ele>1002</ele>
        <time>2021-05-20T13:53:47Z</time>
      </trkpt>
      <trkpt lat="46.35627" lon="6.68913">
        <ele>1001.799987793</ele>
        <time>2021-05-20T13:53:48Z</time>
      </trkpt>
      <trkpt lat="46.35626" lon="6.6891">
        <ele>1001.5999755859</ele>
        <time>2021-05-20T13:53:49Z</time>
      </trkpt>
      <trkpt lat="46.35624" lon="6.68907">
        <ele>1001.4000244141</ele>
        <time>2021-05-20T13:53:50Z</time>
      </trkpt>
      <trkpt lat="46.35623" lon="6.68906">
        <ele>1001</ele>
        <time>2021-05-20T13:53:51Z</time>
      </trkpt>
      <trkpt lat="46.35621" lon="6.68904">
        <ele>1000.5999755859</ele>
        <time>2021-05-20T13:53:52Z</time>
      </trkpt>
      <trkpt lat="46.3562" lon="6.68902">
        <ele>1000.200012207</ele>
        <time>2021-05-20T13:53:53Z</time>
      </trkpt>
      <trkpt lat="46.35608" lon="6.68869">
        <ele>999.79998779297</ele>
        <time>2021-05-20T13:54:07Z</time>
      </trkpt>
      <trkpt lat="46.35607" lon="6.68826">
        <ele>999.59997558594</ele>
        <time>2021-05-20T13:54:20Z</time>
      </trkpt>
      <trkpt lat="46.35608" lon="6.68818">
        <ele>999.59997558594</ele>
        <time>2021-05-20T13:54:22Z</time>
      </trkpt>
      <trkpt lat="46.3561" lon="6.68799">
        <ele>999</ele>
        <time>2021-05-20T13:54:27Z</time>
      </trkpt>
      <trkpt lat="46.35627" lon="6.68782">
        <ele>997.20001220703</ele>
        <time>2021-05-20T13:54:34Z</time>
      </trkpt>
      <trkpt lat="46.35666" lon="6.68729">
        <ele>994.40002441406</ele>
        <time>2021-05-20T13:54:42Z</time>
      </trkpt>
      <trkpt lat="46.35685" lon="6.68672">
        <ele>990.59997558594</ele>
        <time>2021-05-20T13:54:47Z</time>
      </trkpt>
      <trkpt lat="46.35687" lon="6.68658">
        <ele>990</ele>
        <time>2021-05-20T13:54:48Z</time>
      </trkpt>
      <trkpt lat="46.35689" lon="6.68629">
        <ele>988.40002441406</ele>
        <time>2021-05-20T13:54:50Z</time>
      </trkpt>
      <trkpt lat="46.35693" lon="6.68585">
        <ele>985</ele>
        <time>2021-05-20T13:54:53Z</time>
      </trkpt>
      <trkpt lat="46.35701" lon="6.68542">
        <ele>982</ele>
        <time>2021-05-20T13:54:56Z</time>
      </trkpt>
      <trkpt lat="46.35718" lon="6.68492">
        <ele>976.79998779297</ele>
        <time>2021-05-20T13:55:00Z</time>
      </trkpt>
      <trkpt lat="46.35726" lon="6.6847">
        <ele>974.59997558594</ele>
        <time>2021-05-20T13:55:02Z</time>
      </trkpt>
      <trkpt lat="46.35752" lon="6.68439">
        <ele>972.40002441406</ele>
        <time>2021-05-20T13:55:06Z</time>
      </trkpt>
      <trkpt lat="46.35781" lon="6.68408">
        <ele>970.20001220703</ele>
        <time>2021-05-20T13:55:11Z</time>
      </trkpt>
      <trkpt lat="46.35786" lon="6.68391">
        <ele>969.20001220703</ele>
        <time>2021-05-20T13:55:13Z</time>
      </trkpt>
      <trkpt lat="46.35789" lon="6.68361">
        <ele>968.20001220703</ele>
        <time>2021-05-20T13:55:20Z</time>
      </trkpt>
      <trkpt lat="46.35789" lon="6.68349">
        <ele>968</ele>
        <time>2021-05-20T13:55:23Z</time>
      </trkpt>
      <trkpt lat="46.35785" lon="6.68331">
        <ele>967.79998779297</ele>
        <time>2021-05-20T13:55:26Z</time>
      </trkpt>
      <trkpt lat="46.35783" lon="6.68315">
        <ele>967.59997558594</ele>
        <time>2021-05-20T13:55:28Z</time>
      </trkpt>
      <trkpt lat="46.3578" lon="6.68291">
        <ele>967.59997558594</ele>
        <time>2021-05-20T13:55:31Z</time>
      </trkpt>
      <trkpt lat="46.3578" lon="6.68283">
        <ele>967.59997558594</ele>
        <time>2021-05-20T13:55:32Z</time>
      </trkpt>
      <trkpt lat="46.3578" lon="6.68259">
        <ele>965.79998779297</ele>
        <time>2021-05-20T13:55:35Z</time>
      </trkpt>
      <trkpt lat="46.35783" lon="6.68233">
        <ele>963.40002441406</ele>
        <time>2021-05-20T13:55:38Z</time>
      </trkpt>
      <trkpt lat="46.35785" lon="6.68209">
        <ele>962</ele>
        <time>2021-05-20T13:55:41Z</time>
      </trkpt>
      <trkpt lat="46.35785" lon="6.68192">
        <ele>961.59997558594</ele>
        <time>2021-05-20T13:55:43Z</time>
      </trkpt>
      <trkpt lat="46.35786" lon="6.68167">
        <ele>961</ele>
        <time>2021-05-20T13:55:46Z</time>
      </trkpt>
      <trkpt lat="46.35785" lon="6.68136">
        <ele>960.40002441406</ele>
        <time>2021-05-20T13:55:50Z</time>
      </trkpt>
      <trkpt lat="46.3578" lon="6.68111">
        <ele>959.59997558594</ele>
        <time>2021-05-20T13:55:54Z</time>
      </trkpt>
      <trkpt lat="46.3577" lon="6.68056">
        <ele>959</ele>
        <time>2021-05-20T13:56:02Z</time>
      </trkpt>
      <trkpt lat="46.35783" lon="6.68006">
        <ele>957.20001220703</ele>
        <time>2021-05-20T13:56:08Z</time>
      </trkpt>
      <trkpt lat="46.35788" lon="6.6798">
        <ele>954.59997558594</ele>
        <time>2021-05-20T13:56:11Z</time>
      </trkpt>
      <trkpt lat="46.3579" lon="6.67955">
        <ele>954</ele>
        <time>2021-05-20T13:56:14Z</time>
      </trkpt>
      <trkpt lat="46.35797" lon="6.67922">
        <ele>952.79998779297</ele>
        <time>2021-05-20T13:56:18Z</time>
      </trkpt>
      <trkpt lat="46.35802" lon="6.67858">
        <ele>950.59997558594</ele>
        <time>2021-05-20T13:56:26Z</time>
      </trkpt>
      <trkpt lat="46.35805" lon="6.67828">
        <ele>949.40002441406</ele>
        <time>2021-05-20T13:56:30Z</time>
      </trkpt>
      <trkpt lat="46.35801" lon="6.67795">
        <ele>948.59997558594</ele>
        <time>2021-05-20T13:56:35Z</time>
      </trkpt>
      <trkpt lat="46.35812" lon="6.67773">
        <ele>947.40002441406</ele>
        <time>2021-05-20T13:56:42Z</time>
      </trkpt>
      <trkpt lat="46.35822" lon="6.67749">
        <ele>947.20001220703</ele>
        <time>2021-05-20T13:56:48Z</time>
      </trkpt>
      <trkpt lat="46.35827" lon="6.67729">
        <ele>947</ele>
        <time>2021-05-20T13:56:51Z</time>
      </trkpt>
      <trkpt lat="46.35862" lon="6.67671">
        <ele>945.79998779297</ele>
        <time>2021-05-20T13:57:05Z</time>
      </trkpt>
      <trkpt lat="46.35872" lon="6.67635">
        <ele>944.40002441406</ele>
        <time>2021-05-20T13:57:17Z</time>
      </trkpt>
      <trkpt lat="46.35872" lon="6.67635">
        <ele>943.59997558594</ele>
        <time>2021-05-20T13:57:19Z</time>
      </trkpt>
    </trkseg>
  </trk>
</gpx>